Provisional Data: Meshoppen Creek near Kaiserville, PA


Please select a monitoring station.
Please select start date.
Please select start date.

Toggle Unit: C/F Toggle Unit: C/F
Sample Time Temperature (C) Temperature (F) Specific Conductivity (mS/cm) pH   Turbidity (NTU+) DO (mg/L)
9/6/2021 12:00:00 AM 18.04 64.472 0.14 7.64 8.26 8.94
9/6/2021 12:15:00 AM 18.03 64.454 0.138 7.63 8.31 8.95
9/6/2021 12:30:00 AM 18.02 64.436 0.14 7.64 8.25 8.94
9/6/2021 12:45:00 AM 18.01 64.418 0.14 7.64 8.13 8.94
9/6/2021 1:00:00 AM 18 64.4 0.14 7.65 8.19 8.95
9/6/2021 1:15:00 AM 17.99 64.382 0.14 7.65 8.21 8.95
9/6/2021 1:30:00 AM 17.98 64.364 0.14 7.64 8.23 8.96
9/6/2021 1:45:00 AM 17.96 64.328 0.14 7.64 8.28 8.96
9/6/2021 2:00:00 AM 17.94 64.292 0.14 7.65 8.23 8.97
9/6/2021 2:15:00 AM 17.92 64.256 0.14 7.66 8.28 8.97
9/6/2021 2:30:00 AM 17.9 64.22 0.14 7.66 8.25 8.97
9/6/2021 2:45:00 AM 17.88 64.184 0.14 7.65 8.31 8.98
9/6/2021 3:00:00 AM 17.85 64.13 0.141 7.64 8.24 8.98
9/6/2021 3:15:00 AM 17.83 64.094 0.14 7.65 10.07 8.99
9/6/2021 3:30:00 AM 17.8 64.04 0.141 7.65 8.21 8.99
9/6/2021 3:45:00 AM 17.78 64.004 0.141 7.65 12.47 8.98
9/6/2021 4:00:00 AM 17.75 63.95 0.141 7.65 8.28 8.99
9/6/2021 4:15:00 AM 17.73 63.914 0.141 7.65 8.36 9.01
9/6/2021 4:30:00 AM 17.7 63.86 0.141 7.65 8.27 9
9/6/2021 4:45:00 AM 17.67 63.806 0.141 7.65 8.28 9.01
9/6/2021 5:00:00 AM 17.64 63.752 0.141 7.66 8.47 9.03
9/6/2021 5:15:00 AM 17.6 63.68 0.141 7.66 8.23 9.03
9/6/2021 5:30:00 AM 17.57 63.626 0.141 7.66 8.3 9.03
9/6/2021 5:45:00 AM 17.54 63.572 0.141 7.65 8.32 9.04
9/6/2021 6:00:00 AM 17.51 63.518 0.141 7.65 8.32 9.05
9/6/2021 6:15:00 AM 17.48 63.464 0.141 7.65 8.42 9.06
9/6/2021 6:30:00 AM 17.45 63.41 0.142 7.65 8.3 9.07
9/6/2021 6:45:00 AM 17.42 63.356 0.142 7.66 8.39 9.08
9/6/2021 7:00:00 AM 17.39 63.302 0.142 7.65 8.29 9.09
9/6/2021 7:15:00 AM 17.37 63.266 0.142 7.68 8.27 9.09
9/6/2021 7:30:00 AM 17.35 63.23 0.142 7.68 8.26 9.17
9/6/2021 7:45:00 AM 17.33 63.194 0.142 7.68 8.3 9.22
9/6/2021 8:00:00 AM 17.33 63.194 0.142 7.7 8.24 9.29
9/6/2021 8:15:00 AM 17.33 63.194 0.142 7.72 8.09 9.36
9/6/2021 8:30:00 AM 17.34 63.212 0.142 7.74 8.08 9.43
9/6/2021 8:45:00 AM 17.36 63.248 0.142 7.77 8.03 9.51
9/6/2021 9:00:00 AM 17.38 63.284 0.141 7.79 7.99 9.58
9/6/2021 9:15:00 AM 17.38 63.284 0.141 7.81 7.95 9.57
9/6/2021 9:30:00 AM 17.46 63.428 0.141 7.84 7.92 9.63
9/6/2021 9:45:00 AM 17.54 63.572 0.141 7.87 7.92 9.66
9/6/2021 10:00:00 AM 17.63 63.734 0.141 7.9 7.88 9.69
9/6/2021 10:15:00 AM 17.72 63.896 0.141 7.93 7.82 9.74
9/6/2021 10:30:00 AM 17.8 64.04 0.141 7.97 7.74 9.79
9/6/2021 10:45:00 AM 17.86 64.148 0.141 8.01 7.73 9.85
9/6/2021 11:00:00 AM 17.93 64.274 0.141 8.06 7.7 9.85
9/6/2021 11:15:00 AM 18.06 64.508 0.141 8.1 7.65 9.86
9/6/2021 11:30:00 AM 18.23 64.814 0.141 8.13 7.65 9.87
9/6/2021 11:45:00 AM 18.41 65.138 0.141 8.18 7.57 9.87
9/6/2021 12:00:00 PM 18.61 65.498 0.141 8.22 7.49 9.84
9/6/2021 12:15:00 PM 18.78 65.804 0.141 8.26 7.44 9.81
9/6/2021 12:30:00 PM 18.93 66.074 0.141 8.3 7.4 9.78
9/6/2021 12:45:00 PM 19.04 66.272 0.141 8.32 7.34 9.73
9/6/2021 1:00:00 PM 19.13 66.434 0.141 8.34 7.37 9.74
9/6/2021 1:15:00 PM 19.2 66.56 0.14 8.37 7.36 9.72
9/6/2021 1:30:00 PM 19.31 66.758 0.141 8.4 7.31 9.72
9/6/2021 1:45:00 PM 19.48 67.064 0.14 8.42 7.31 9.7
9/6/2021 2:00:00 PM 19.66 67.388 0.14 8.47 7.3 9.68
9/6/2021 2:15:00 PM 19.77 67.586 0.14 8.49 7.24 9.62
9/6/2021 2:30:00 PM 19.86 67.748 0.14 8.51 7.35 9.58
9/6/2021 2:45:00 PM 19.95 67.91 0.14 8.52 7.26 9.58
9/6/2021 3:00:00 PM 19.92 67.856 0.14 8.52 7.23 9.53
9/6/2021 3:15:00 PM 19.95 67.91 0.14 8.53 7.29 9.55
9/6/2021 3:30:00 PM 20.02 68.036 0.141 8.55 7.27 9.53
9/6/2021 3:45:00 PM 20.01 68.018 0.14 8.54 7.29 9.5
9/6/2021 4:00:00 PM 20.05 68.09 0.141 8.55 7.33 9.49
9/6/2021 4:15:00 PM 20.08 68.144 0.14 8.56 7.26 9.51
9/6/2021 4:30:00 PM 20.03 68.054 0.141 8.54 7.34 9.46
9/6/2021 4:45:00 PM 19.98 67.964 0.141 8.53 7.28 9.45
9/6/2021 5:00:00 PM 19.91 67.838 0.141 8.5 7.37 9.38
9/6/2021 5:15:00 PM 19.83 67.694 0.141 8.45 7.33 9.33
9/6/2021 5:30:00 PM 19.74 67.532 0.141 8.38 7.46 9.24
9/6/2021 5:45:00 PM 19.68 67.424 0.141 8.31 663.76 9.22
9/6/2021 6:00:00 PM 19.62 67.316 0.141 8.23 7.08 9.16
9/6/2021 6:15:00 PM 19.55 67.19 0.141 8.17 7.14 9.09
9/6/2021 6:30:00 PM 19.51 67.118 0.142 8.1 7.17 9.03
9/6/2021 6:45:00 PM 19.47 67.046 0.141 8.05 977.5 8.97
9/6/2021 7:00:00 PM 19.43 66.974 0.141 8.01 783.18 8.91
9/6/2021 7:15:00 PM 19.4 66.92 0.141 7.97 831.98 8.87
9/6/2021 7:30:00 PM 19.37 66.866 0.141 7.92 797.18 8.82
9/6/2021 7:45:00 PM 19.33 66.794 0.141 7.87 646.04 8.77
9/6/2021 8:00:00 PM 19.3 66.74 0.141 7.85 1004.53 8.75
9/6/2021 8:15:00 PM 19.26 66.668 0.142 7.82 7.35 8.74
9/6/2021 8:30:00 PM 19.23 66.614 0.142 7.79 7.4 8.73
9/6/2021 8:45:00 PM 19.2 66.56 0.142 7.78 7.44 8.72
9/6/2021 9:00:00 PM 19.16 66.488 0.142 7.76 7.38 8.71
9/6/2021 9:15:00 PM 19.12 66.416 0.142 7.75 7.47 8.72
9/6/2021 9:30:00 PM 19.07 66.326 0.142 7.74 7.48 8.73
9/6/2021 9:45:00 PM 19.01 66.218 0.142 7.73 7.54 8.73
9/6/2021 10:00:00 PM 18.95 66.11 0.142 7.73 7.52 8.74
9/6/2021 10:15:00 PM 18.89 66.002 0.142 7.72 7.47 8.76
9/6/2021 10:30:00 PM 18.82 65.876 0.142 7.7 7.5 8.77
9/6/2021 10:45:00 PM 18.74 65.732 0.142 7.71 7.55 8.77
9/6/2021 11:00:00 PM 18.66 65.588 0.142 7.7 7.57 8.8
9/6/2021 11:15:00 PM 18.58 65.444 0.142 7.7 7.69 8.81
9/6/2021 11:30:00 PM 18.5 65.3 0.142 7.69 7.61 8.83
9/6/2021 11:45:00 PM 18.41 65.138 0.142 7.69 7.64 8.85
9/7/2021 12:00:00 AM 18.32 64.976 0.142 7.69 7.72 8.87
9/7/2021 12:15:00 AM 18.24 64.832 0.142 7.67 7.65 8.88
9/7/2021 12:30:00 AM 18.15 64.67 0.143 7.67 7.63 8.9
9/7/2021 12:45:00 AM 18.06 64.508 0.143 7.68 7.76 8.92
9/7/2021 1:00:00 AM 17.98 64.364 0.143 7.67 7.75 8.94
9/7/2021 1:15:00 AM 17.89 64.202 0.143 7.66 7.77 8.96
9/7/2021 1:30:00 AM 17.8 64.04 0.143 7.67 7.77 8.98
9/7/2021 1:45:00 AM 17.72 63.896 0.143 7.66 7.81 8.99
9/7/2021 2:00:00 AM 17.64 63.752 0.143 7.67 7.8 9.02
9/7/2021 2:15:00 AM 17.56 63.608 0.143 7.66 7.88 9.03
9/7/2021 2:30:00 AM 17.47 63.446 0.143 7.65 7.85 9.05
9/7/2021 2:45:00 AM 17.4 63.32 0.143 7.65 7.87 9.06
9/7/2021 3:00:00 AM 17.33 63.194 0.143 7.65 7.88 9.08
9/7/2021 3:15:00 AM 17.25 63.05 0.143 7.65 7.91 9.1
9/7/2021 3:30:00 AM 17.19 62.942 0.143 7.64 7.83 9.12
9/7/2021 3:45:00 AM 17.12 62.816 0.143 7.64 7.88 9.14
9/7/2021 4:00:00 AM 17.05 62.69 0.144 7.64 7.91 9.15
9/7/2021 4:15:00 AM 16.98 62.564 0.144 7.64 7.9 9.17
9/7/2021 4:30:00 AM 16.91 62.438 0.144 7.65 7.85 9.18
9/7/2021 4:45:00 AM 16.84 62.312 0.144 7.63 7.88 9.2
9/7/2021 5:00:00 AM 16.77 62.186 0.144 7.64 7.87 9.21
9/7/2021 5:15:00 AM 16.7 62.06 0.144 7.64 7.9 9.23
9/7/2021 5:30:00 AM 16.63 61.934 0.144 7.63 7.93 9.25
9/7/2021 5:45:00 AM 16.55 61.79 0.144 7.63 7.97 9.26
9/7/2021 6:00:00 AM 16.48 61.664 0.144 7.64 1173.62 9.26
9/7/2021 6:15:00 AM 16.41 61.538 0.144 7.63 1571.87 9.3
9/7/2021 6:30:00 AM 16.34 61.412 0.144 7.63 7.87 9.31
9/7/2021 6:45:00 AM 16.27 61.286 0.144 7.63 7.88 9.33
9/7/2021 7:00:00 AM 16.21 61.178 0.144 7.64 7.84 9.36
9/7/2021 7:15:00 AM 16.14 61.052 0.144 7.64 7.82 9.42
9/7/2021 7:30:00 AM 16.09 60.962 0.144 7.65 7.82 9.48
9/7/2021 7:45:00 AM 16.04 60.872 0.144 7.66 7.77 9.54
9/7/2021 8:00:00 AM 16.01 60.818 0.144 7.67 7.77 9.62
9/7/2021 8:15:00 AM 15.98 60.764 0.144 7.69 7.72 9.69
9/7/2021 8:30:00 AM 15.96 60.728 0.144 7.71 7.75 9.72
9/7/2021 8:45:00 AM 15.95 60.71 0.144 7.72 7.69 9.78
9/7/2021 9:00:00 AM 15.96 60.728 0.144 7.74 7.65 9.83
9/7/2021 9:15:00 AM 16 60.8 0.144 7.77 7.64 9.9
9/7/2021 9:30:00 AM 16.06 60.908 0.144 7.81 7.66 9.95
9/7/2021 9:45:00 AM 16.13 61.034 0.144 7.83 7.67 10
9/7/2021 10:00:00 AM 16.22 61.196 0.144 7.87 7.63 10.04
9/7/2021 10:15:00 AM 16.33 61.394 0.143 7.91 7.89 10.09
9/7/2021 10:30:00 AM 16.46 61.628 0.143 7.95 7.53 10.13
9/7/2021 10:45:00 AM 16.59 61.862 0.143 7.99 7.51 10.16
9/7/2021 11:00:00 AM 16.74 62.132 0.143 8.04 7.37 10.19
9/7/2021 11:15:00 AM 16.9 62.42 0.143 8.08 7.4 10.2
9/7/2021 11:30:00 AM 17.08 62.744 0.143 8.14 7.39 10.21
9/7/2021 11:45:00 AM 17.26 63.068 0.143 8.18 7.28 10.21
9/7/2021 12:00:00 PM 17.47 63.446 0.143 8.23 7.28 10.21
9/7/2021 12:15:00 PM 17.68 63.824 0.142 8.29 7.32 10.19
9/7/2021 12:30:00 PM 17.91 64.238 0.142 8.34 7.18 10.16
9/7/2021 12:45:00 PM 18.11 64.598 0.142 8.4 7.13 10.12
9/7/2021 1:00:00 PM 18.29 64.922 0.142 8.43 7.15 10.07
9/7/2021 1:15:00 PM 18.49 65.282 0.142 8.47 7.06 10.05
9/7/2021 1:30:00 PM 18.69 65.642 0.142 8.51 7.07 10.01
9/7/2021 1:45:00 PM 18.9 66.02 0.142 8.56 7.02 9.98
9/7/2021 2:00:00 PM 19.1 66.38 0.142 8.6 7.05 9.93
9/7/2021 2:15:00 PM 19.27 66.686 0.142 8.63 7 9.89
9/7/2021 2:30:00 PM 19.41 66.938 0.142 8.67 7.06 9.85
9/7/2021 2:45:00 PM 19.53 67.154 0.142 8.68 7.05 9.81
9/7/2021 3:00:00 PM 19.62 67.316 0.142 8.69 7.01 9.76
9/7/2021 3:15:00 PM 19.7 67.46 0.142 8.7 7.08 9.72
9/7/2021 3:30:00 PM 19.76 67.568 0.142 8.71 7.1 9.7
9/7/2021 3:45:00 PM 19.79 67.622 0.142 8.7 7.07 9.66
9/7/2021 4:00:00 PM 19.77 67.586 0.142 8.68 7.08 9.61
9/7/2021 4:15:00 PM 19.72 67.496 0.142 8.66 7.06 9.57
9/7/2021 4:30:00 PM 19.66 67.388 0.142 8.61 7.05 9.55
9/7/2021 4:45:00 PM 19.59 67.262 0.142 8.59 7.03 9.52
9/7/2021 5:00:00 PM 19.48 67.064 0.142 8.54 7.04 9.49
9/7/2021 5:15:00 PM 19.38 66.884 0.143 8.48 7.07 9.44
9/7/2021 5:30:00 PM 19.27 66.686 0.143 8.41 7.01 9.4
9/7/2021 5:45:00 PM 19.17 66.506 0.143 8.35 7.08 9.36
9/7/2021 6:00:00 PM 19.07 66.326 0.143 8.28 7.15 9.3
9/7/2021 6:15:00 PM 18.97 66.146 0.143 8.2 7.16 9.24
9/7/2021 6:30:00 PM 18.89 66.002 0.143 8.13 7.23 9.18
9/7/2021 6:45:00 PM 18.82 65.876 0.143 8.07 7.21 9.11
9/7/2021 7:00:00 PM 18.76 65.768 0.144 8.02 7.24 9.05
9/7/2021 7:15:00 PM 18.71 65.67799 0.144 7.96 7.19 9
9/7/2021 7:30:00 PM 18.67 65.606 0.144 7.92 7.24 8.95
9/7/2021 7:45:00 PM 18.65 65.57 0.143 7.88 1030.87 8.92
9/7/2021 8:00:00 PM 18.63 65.534 0.144 7.83 1943.46 8.88
9/7/2021 8:15:00 PM 18.63 65.534 0.143 7.81 7.36 8.85
9/7/2021 8:30:00 PM 18.63 65.534 0.143 7.79 8.1 8.85
9/7/2021 8:45:00 PM 18.63 65.534 0.143 7.77 7.35 8.83
9/7/2021 9:00:00 PM 18.63 65.534 0.143 7.75 7.34 8.81
9/7/2021 9:15:00 PM 18.63 65.534 0.143 7.74 7.43 8.81
9/7/2021 9:30:00 PM 18.63 65.534 0.143 7.72 7.36 8.8
9/7/2021 9:45:00 PM 18.62 65.516 0.143 7.73 7.29 8.8
9/7/2021 10:00:00 PM 18.61 65.498 0.143 7.72 7.27 8.79
9/7/2021 10:15:00 PM 18.6 65.48 0.143 7.71 7.31 8.8
9/7/2021 10:30:00 PM 18.58 65.444 0.143 7.7 7.32 8.79
9/7/2021 10:45:00 PM 18.55 65.39 0.143 7.7 7.34 8.8
9/7/2021 11:00:00 PM 18.53 65.354 0.143 7.69 7.31 8.8
9/7/2021 11:15:00 PM 18.5 65.3 0.143 7.69 7.38 8.8
9/7/2021 11:30:00 PM 18.46 65.228 0.143 7.69 7.24 8.81
9/7/2021 11:45:00 PM 18.43 65.174 0.143 7.69 7.28 8.81
9/8/2021 12:00:00 AM 18.39 65.102 0.143 7.68 7.84 8.82
9/8/2021 12:15:00 AM 18.35 65.03 0.143 7.67 7.33 8.84
9/8/2021 12:30:00 AM 18.3 64.94 0.144 7.68 7.27 8.84
9/8/2021 12:45:00 AM 18.26 64.868 0.144 7.67 7.25 8.85
9/8/2021 1:00:00 AM 18.22 64.796 0.144 7.67 7.28 8.86
9/8/2021 1:15:00 AM 18.17 64.706 0.144 7.67 7.3 8.87
9/8/2021 1:30:00 AM 18.13 64.634 0.144 7.67 7.24 8.88
9/8/2021 1:45:00 AM 18.09 64.562 0.144 7.67 7.35 8.89
9/8/2021 2:00:00 AM 18.05 64.49 0.144 7.66 7.35 8.9
9/8/2021 2:15:00 AM 18 64.4 0.144 7.67 7.33 8.9
9/8/2021 2:30:00 AM 17.96 64.328 0.144 7.66 7.36 8.91
9/8/2021 2:45:00 AM 17.91 64.238 0.144 7.67 7.41 8.92
9/8/2021 3:00:00 AM 17.86 64.148 0.144 7.67 7.42 8.93
9/8/2021 3:15:00 AM 17.81 64.058 0.144 7.66 7.47 8.94
9/8/2021 3:30:00 AM 17.77 63.986 0.144 7.66 7.42 8.95
9/8/2021 3:45:00 AM 17.72 63.896 0.144 7.66 7.43 8.95
9/8/2021 4:00:00 AM 17.68 63.824 0.144 7.66 7.41 8.96
9/8/2021 4:15:00 AM 17.63 63.734 0.144 7.67 7.43 8.97
9/8/2021 4:30:00 AM 17.58 63.644 0.145 7.66 7.44 8.98
9/8/2021 4:45:00 AM 17.53 63.554 0.145 7.66 7.47 9
9/8/2021 5:00:00 AM 17.48 63.464 0.145 7.66 7.44 9
9/8/2021 5:15:00 AM 17.43 63.374 0.145 7.66 58.41 9.01
9/8/2021 5:30:00 AM 17.39 63.302 0.145 7.64 7.45 9.02
9/8/2021 5:45:00 AM 17.35 63.23 0.145 7.65 7.42 9.03
9/8/2021 6:00:00 AM 17.31 63.158 0.145 7.65 7.49 9.02
9/8/2021 6:15:00 AM 17.27 63.086 0.145 7.65 7.58 9.03
9/8/2021 6:30:00 AM 17.23 63.014 0.145 7.65 7.51 9.05
9/8/2021 6:45:00 AM 17.19 62.942 0.145 7.66 7.63 9.07
9/8/2021 7:00:00 AM 17.15 62.87 0.146 7.66 7.48 9.08
9/8/2021 7:15:00 AM 17.12 62.816 0.146 7.67 7.43 9.12
9/8/2021 7:30:00 AM 17.1 62.78 0.146 7.67 7.42 9.17
9/8/2021 7:45:00 AM 17.08 62.744 0.146 7.69 7.41 9.22
9/8/2021 8:00:00 AM 17.08 62.744 0.146 7.71 7.38 9.3
9/8/2021 8:15:00 AM 17.1 62.78 0.145 7.73 7.4 9.39
9/8/2021 8:30:00 AM 17.12 62.816 0.145 7.74 7.29 9.48
9/8/2021 8:45:00 AM 17.16 62.888 0.145 7.78 7.42 9.59
9/8/2021 9:00:00 AM 17.24 63.032 0.145 7.82 7.26 9.74
9/8/2021 9:15:00 AM 17.35 63.23 0.145 7.89 7.2 9.87
9/8/2021 9:30:00 AM 17.44 63.392 0.145 7.96 7.26 9.94
9/8/2021 9:45:00 AM 17.55 63.59 0.144 8.04 664.29 9.98
9/8/2021 10:00:00 AM 17.68 63.824 0.144 8.09 7.06 10.01
9/8/2021 10:15:00 AM 17.82 64.076 0.144 8.17 7.12 10.02
9/8/2021 10:30:00 AM 17.97 64.346 0.144 8.24 7.07 10.03
9/8/2021 10:45:00 AM 18.12 64.616 0.144 8.3 1015.74 10.04
9/8/2021 11:00:00 AM 18.27 64.886 0.144 8.36 906.04 10.05
9/8/2021 11:15:00 AM 18.44 65.192 0.144 8.41 734.25 10.03
9/8/2021 11:30:00 AM 18.59 65.462 0.144 8.46 7.02 10.01
9/8/2021 11:45:00 AM 18.77 65.786 0.144 8.53 6.89 10.02
9/8/2021 12:00:00 PM 18.97 66.146 0.143 8.59 6.88 10.02
9/8/2021 12:15:00 PM 19.13 66.434 0.143 8.66 6.92 10.01
9/8/2021 12:30:00 PM 19.28 66.704 0.143 8.72 6.89 10
9/8/2021 12:45:00 PM 19.46 67.028 0.143 8.76 6.9 9.95
9/8/2021 1:00:00 PM 19.63 67.334 0.142 8.81 989.34 9.96
9/8/2021 1:15:00 PM 19.85 67.73 0.143 8.84 6.88 9.92
9/8/2021 1:30:00 PM 19.99 67.982 0.142 8.9 697.43 9.87
9/8/2021 1:45:00 PM 20.12 68.216 0.142 8.93 532.07 9.87
9/8/2021 2:00:00 PM 20.26 68.468 0.142 8.97 648.44 9.83
9/8/2021 2:15:00 PM 20.41 68.738 0.142 9 1766.12 9.8
9/8/2021 2:30:00 PM 20.52 68.936 0.142 9.03 76.75 9.76
9/8/2021 2:45:00 PM 20.53 68.954 0.142 9.04 6.69 9.64
9/8/2021 3:00:00 PM 20.56 69.008 0.142 9.03 6.99 9.61
9/8/2021 3:15:00 PM 20.6 69.08 0.142 9.04 6.76 9.56
9/8/2021 3:30:00 PM 20.68 69.224 0.142 9.05 6.68 9.54
9/8/2021 3:45:00 PM 20.71 69.278 0.142 9.07 196.48 9.52
9/8/2021 4:00:00 PM 20.67 69.206 0.142 9.06 650.92 9.47
9/8/2021 4:15:00 PM 20.57 69.026 0.142 9 624.9 9.23
9/8/2021 4:30:00 PM 20.49 68.882 0.143 8.91 194.31 9.05
9/8/2021 4:45:00 PM 20.39 68.702 0.144 8.77 6.75 8.89
9/8/2021 5:00:00 PM 20.27 68.486 0.144 8.63 6.7 8.78
9/8/2021 5:15:00 PM 20.11 68.198 0.142 8.47 7.17 8.74
9/8/2021 5:30:00 PM 20.03 68.054 0.143 8.34 6.86 8.72
9/8/2021 5:45:00 PM 19.88 67.784 0.14 8.21 7.72 8.71
9/8/2021 6:00:00 PM 19.75 67.55 0.138 8.11 883 8.69
9/8/2021 6:15:00 PM 19.65 67.37 0.139 8.02 7.45 8.65
9/8/2021 6:30:00 PM 19.52 67.136 0.137 7.96 1262.35 8.66
9/8/2021 6:45:00 PM 19.41 66.938 0.134 7.91 435.15 8.67
9/8/2021 7:00:00 PM 19.33 66.794 0.134 7.86 11.11 8.61
9/8/2021 7:15:00 PM 19.25 66.65 0.135 7.81 20.08 8.59
9/8/2021 7:30:00 PM 19.19 66.542 0.134 7.76 31.03 8.53
9/8/2021 7:45:00 PM 19.15 66.47 0.133 7.71 765.93 8.53
9/8/2021 8:00:00 PM 19.09 66.362 0.133 7.67 13.9 8.56
9/8/2021 8:15:00 PM 19.05 66.29 0.133 7.66 14.01 8.58
9/8/2021 8:30:00 PM 19.01 66.218 0.133 7.63 14.95 8.61
9/8/2021 8:45:00 PM 18.99 66.182 0.132 7.62 15.5 8.63
9/8/2021 9:00:00 PM 18.92 66.056 0.13 7.6 19.16 8.66
9/8/2021 9:15:00 PM 18.79 65.82201 0.129 7.59 23.95 8.7
9/8/2021 9:30:00 PM 18.73 65.714 0.127 7.58 28.99 8.71
9/8/2021 9:45:00 PM 18.8 65.84 0.126 7.56 28.55 8.7
9/8/2021 10:00:00 PM 18.91 66.038 0.127 7.56 25.23 8.67
9/8/2021 10:15:00 PM 18.97 66.146 0.126 7.57 21.98 8.65
9/8/2021 10:30:00 PM 18.99 66.182 0.126 7.57 19.81 8.66
9/8/2021 10:45:00 PM 18.98 66.164 0.127 7.56 19.49 8.66
9/8/2021 11:00:00 PM 18.93 66.074 0.126 7.56 21.18 8.66
9/8/2021 11:15:00 PM 18.87 65.966 0.125 7.55 21.7 8.65
9/8/2021 11:30:00 PM 18.81 65.858 0.123 7.54 24.39 8.66
9/8/2021 11:45:00 PM 18.76 65.768 0.122 7.54 23.96 8.67
9/9/2021 12:00:00 AM 18.73 65.714 0.122 7.53 21.86 8.67
9/9/2021 12:15:00 AM 18.71 65.67799 0.122 7.52 20.39 8.69
9/9/2021 12:30:00 AM 18.7 65.66 0.122 7.52 18.94 8.69
9/9/2021 12:45:00 AM 18.67 65.606 0.122 7.53 18.03 8.7
9/9/2021 1:00:00 AM 18.65 65.57 0.122 7.52 16.67 8.7
9/9/2021 1:15:00 AM 18.62 65.516 0.122 7.53 16.21 8.71
9/9/2021 1:30:00 AM 18.6 65.48 0.123 7.52 15.59 8.71
9/9/2021 1:45:00 AM 18.58 65.444 0.123 7.51 14.94 8.72
9/9/2021 2:00:00 AM 18.57 65.426 0.124 7.52 14.48 8.73
9/9/2021 2:15:00 AM 18.55 65.39 0.125 7.53 13.85 8.74
9/9/2021 2:30:00 AM 18.53 65.354 0.126 7.53 13.3 8.74
9/9/2021 2:45:00 AM 18.51 65.318 0.127 7.54 13.12 8.75
9/9/2021 3:00:00 AM 18.49 65.282 0.128 7.54 12.93 8.76
9/9/2021 3:15:00 AM 18.46 65.228 0.13 7.54 13.1 8.78
9/9/2021 3:30:00 AM 18.43 65.174 0.131 7.56 13.18 8.77
9/9/2021 3:45:00 AM 18.4 65.12 0.131 7.54 13.56 8.78
9/9/2021 4:00:00 AM 18.36 65.048 0.131 7.55 13.47 8.78
9/9/2021 4:15:00 AM 18.33 64.994 0.131 7.55 13.51 8.8
9/9/2021 4:30:00 AM 18.3 64.94 0.131 7.55 13.79 8.8
9/9/2021 4:45:00 AM 18.26 64.868 0.132 7.55 13.61 8.81
9/9/2021 5:00:00 AM 18.23 64.814 0.132 7.55 13.61 8.82
9/9/2021 5:15:00 AM 18.2 64.76 0.132 7.54 13.6 8.83
9/9/2021 5:30:00 AM 18.16 64.688 0.133 7.55 13.26 8.83
9/9/2021 5:45:00 AM 18.14 64.652 0.133 7.56 14.34 8.84
9/9/2021 6:00:00 AM 18.11 64.598 0.134 7.56 12.76 8.85
9/9/2021 6:15:00 AM 18.09 64.562 0.134 7.56 284.32 8.85
9/9/2021 6:30:00 AM 18.07 64.526 0.134 7.56 75.47 8.84
9/9/2021 6:45:00 AM 18.05 64.49 0.134 7.56 12.59 8.86
9/9/2021 7:00:00 AM 18.03 64.454 0.134 7.57 726.18 8.86
9/9/2021 7:15:00 AM 18.01 64.418 0.134 7.56 11.94 8.86
9/9/2021 7:30:00 AM 17.99 64.382 0.134 7.57 11.58 8.88
9/9/2021 7:45:00 AM 17.98 64.364 0.134 7.57 11.48 8.89
9/9/2021 8:00:00 AM 17.97 64.346 0.134 7.57 11.22 8.92
9/9/2021 8:15:00 AM 17.97 64.346 0.134 7.58 11.08 8.93
9/9/2021 8:30:00 AM 17.98 64.364 0.134 7.59 11.06 8.96
9/9/2021 8:45:00 AM 17.99 64.382 0.134 7.6 10.68 8.99
9/9/2021 9:00:00 AM 18 64.4 0.134 7.61 10.68 9.03
9/9/2021 9:15:00 AM 18.01 64.418 0.134 7.62 10.54 9.07
9/9/2021 9:30:00 AM 18.03 64.454 0.134 7.63 10.69 9.12
9/9/2021 9:45:00 AM 18.05 64.49 0.133 7.65 10.3 9.17
9/9/2021 10:00:00 AM 18.08 64.544 0.133 7.65 10.19 9.2
9/9/2021 10:15:00 AM 18.1 64.58 0.133 7.67 10.2 9.21
9/9/2021 10:30:00 AM 18.12 64.616 0.133 7.68 10.08 9.22
9/9/2021 10:45:00 AM 18.14 64.652 0.133 7.69 9.97 9.24
9/9/2021 11:00:00 AM 18.17 64.706 0.134 7.7 9.97 9.27
9/9/2021 11:15:00 AM 18.24 64.832 0.134 7.74 9.86 9.38
9/9/2021 11:30:00 AM 18.29 64.922 0.134 7.75 9.99 9.39
9/9/2021 11:45:00 AM 18.33 64.994 0.134 7.77 9.69 9.44
9/9/2021 12:00:00 PM 18.38 65.084 0.134 7.79 9.61 9.45
9/9/2021 12:15:00 PM 18.42 65.156 0.134 7.82 9.5 9.45
9/9/2021 12:30:00 PM 18.46 65.228 0.134 7.85 9.44 9.48
9/9/2021 12:45:00 PM 18.53 65.354 0.134 7.87 9.6 9.54
9/9/2021 1:00:00 PM 18.61 65.498 0.134 7.91 9.54 9.55
9/9/2021 1:15:00 PM 18.69 65.642 0.134 7.94 9.57 9.58
9/9/2021 1:30:00 PM 18.81 65.858 0.135 7.98 9.51 9.65
9/9/2021 1:45:00 PM 18.9 66.02 0.135 8.02 9.4 9.63
9/9/2021 2:00:00 PM 18.97 66.146 0.136 8.06 9.36 9.64
9/9/2021 2:15:00 PM 19.06 66.308 0.136 8.08 9.58 9.65
9/9/2021 2:30:00 PM 19.13 66.434 0.137 8.12 9.36 9.64
9/9/2021 2:45:00 PM 19.14 66.452 0.138 8.14 9.46 9.56
9/9/2021 3:00:00 PM 19.12 66.416 0.139 8.12 9.49 9.46
9/9/2021 3:15:00 PM 19.12 66.416 0.139 8.09 9.52 9.42
9/9/2021 3:30:00 PM 19.11 66.398 0.139 8.07 9.51 9.38
9/9/2021 3:45:00 PM 19.1 66.38 0.139 8.04 9.63 9.29
9/9/2021 4:00:00 PM 19.1 66.38 0.139 8 9.55 9.28
9/9/2021 4:15:00 PM 19.17 66.506 0.139 7.99 9.46 9.33
9/9/2021 4:30:00 PM 19.21 66.578 0.139 8 9.55 9.36
9/9/2021 4:45:00 PM 19.22 66.596 0.139 8.01 9.62 9.32
9/9/2021 5:00:00 PM 19.24 66.632 0.139 8.01 9.56 9.31
9/9/2021 5:15:00 PM 19.25 66.65 0.139 8 9.46 9.28
9/9/2021 5:30:00 PM 19.25 66.65 0.139 7.99 9.43 9.23
9/9/2021 5:45:00 PM 19.25 66.65 0.139 7.97 9.48 9.17
9/9/2021 6:00:00 PM 19.23 66.614 0.139 7.94 9.51 9.1
9/9/2021 6:15:00 PM 19.19 66.542 0.139 7.9 9.48 9.03
9/9/2021 6:30:00 PM 19.16 66.488 0.139 7.86 9.41 8.96
9/9/2021 6:45:00 PM 19.13 66.434 0.139 7.83 9.59 8.91
9/9/2021 7:00:00 PM 19.1 66.38 0.139 7.8 9.59 8.89
9/9/2021 7:15:00 PM 19.08 66.344 0.139 7.79 9.65 8.85
9/9/2021 7:30:00 PM 19.05 66.29 0.139 7.75 9.73 8.8
9/9/2021 7:45:00 PM 19.03 66.254 0.139 7.74 9.75 8.78
9/9/2021 8:00:00 PM 19 66.2 0.139 7.71 9.72 8.78
9/9/2021 8:15:00 PM 18.97 66.146 0.139 7.71 9.86 8.77
9/9/2021 8:30:00 PM 18.93 66.074 0.139 7.69 9.87 8.75
9/9/2021 8:45:00 PM 18.89 66.002 0.139 7.68 9.89 8.76
9/9/2021 9:00:00 PM 18.85 65.93 0.139 7.68 9.94 8.75
9/9/2021 9:15:00 PM 18.81 65.858 0.139 7.67 10.06 8.77
9/9/2021 9:30:00 PM 18.77 65.786 0.139 7.67 10.1 8.76
9/9/2021 9:45:00 PM 18.73 65.714 0.139 7.66 10.12 8.76
9/9/2021 10:00:00 PM 18.67 65.606 0.139 7.64 9.99 8.77
9/9/2021 10:15:00 PM 18.62 65.516 0.14 7.64 9.79 8.76
9/9/2021 10:30:00 PM 18.58 65.444 0.14 7.64 9.96 8.77
9/9/2021 10:45:00 PM 18.54 65.372 0.14 7.64 10.07 8.74
9/9/2021 11:00:00 PM 18.49 65.282 0.14 7.63 9.96 8.75
9/9/2021 11:15:00 PM 18.44 65.192 0.14 7.62 9.94 8.8
9/9/2021 11:30:00 PM 18.39 65.102 0.141 7.62 10.12 8.8
9/9/2021 11:45:00 PM 18.35 65.03 0.141 7.62 9.96 8.79
9/10/2021 12:00:00 AM 18.3 64.94 0.141 7.61 9.8 8.82
9/10/2021 12:15:00 AM 18.27 64.886 0.141 7.61 9.85 8.83
9/10/2021 12:30:00 AM 18.23 64.814 0.142 7.62 9.96 8.82
9/10/2021 12:45:00 AM 18.19 64.742 0.142 7.62 9.82 8.84
9/10/2021 1:00:00 AM 18.14 64.652 0.142 7.61 9.98 8.85
9/10/2021 1:15:00 AM 18.09 64.562 0.143 7.61 10.11 8.85
9/10/2021 1:30:00 AM 18.03 64.454 0.143 7.62 10.02 8.85
9/10/2021 1:45:00 AM 17.98 64.364 0.143 7.61 9.9 8.88
9/10/2021 2:00:00 AM 17.93 64.274 0.143 7.61 9.93 8.87
9/10/2021 2:15:00 AM 17.87 64.166 0.144 7.62 9.91 8.88
9/10/2021 2:30:00 AM 17.8 64.04 0.144 7.62 10.1 8.9
9/10/2021 2:45:00 AM 17.76 63.968 0.144 7.62 9.97 8.89
9/10/2021 3:00:00 AM 17.72 63.896 0.144 7.62 9.95 8.91
9/10/2021 3:15:00 AM 17.68 63.824 0.144 7.61 9.99 8.94
9/10/2021 3:30:00 AM 17.62 63.716 0.144 7.61 9.92 8.96
9/10/2021 3:45:00 AM 17.57 63.626 0.145 7.62 10.09 8.94
9/10/2021 4:00:00 AM 17.52 63.536 0.145 7.61 10.06 8.97
9/10/2021 4:15:00 AM 17.47 63.446 0.145 7.61 10.1 8.97
9/10/2021 4:30:00 AM 17.41 63.338 0.145 7.61 10 9.01
9/10/2021 4:45:00 AM 17.34 63.212 0.145 7.61 10.02 9.03
9/10/2021 5:00:00 AM 17.28 63.104 0.145 7.62 10.07 9.05
9/10/2021 5:15:00 AM 17.22 62.996 0.145 7.62 10.11 9.04
9/10/2021 5:30:00 AM 17.16 62.888 0.145 7.62 10.13 9.05
9/10/2021 5:45:00 AM 17.09 62.762 0.145 7.63 10.29 9.06
9/10/2021 6:00:00 AM 17.03 62.654 0.145 7.62 10.19 9.11
9/10/2021 6:15:00 AM 16.97 62.546 0.145 7.63 10.12 9.12
9/10/2021 6:30:00 AM 16.92 62.456 0.145 7.62 10.13 9.11
9/10/2021 6:45:00 AM 16.86 62.348 0.145 7.62 10.1 9.13
9/10/2021 7:00:00 AM 16.81 62.258 0.144 7.63 10.04 9.15
9/10/2021 7:15:00 AM 16.76 62.168 0.144 7.63 9.91 9.18
9/10/2021 7:30:00 AM 16.73 62.114 0.144 7.64 9.98 9.23
9/10/2021 7:45:00 AM 16.72 62.096 0.144 7.64 9.95 9.31
9/10/2021 8:00:00 AM 16.7 62.06 0.144 7.66 9.79 9.35
9/10/2021 8:15:00 AM 16.68 62.024 0.144 7.68 9.76 9.4
9/10/2021 8:30:00 AM 16.66 61.988 0.144 7.69 9.88 9.46
9/10/2021 8:45:00 AM 16.64 61.952 0.144 7.71 9.73 9.49
9/10/2021 9:00:00 AM 16.64 61.952 0.144 7.72 9.63 9.56
9/10/2021 9:15:00 AM 16.66 61.988 0.144 7.74 9.62 9.65
9/10/2021 9:30:00 AM 16.7 62.06 0.144 7.77 9.57 9.73
9/10/2021 9:45:00 AM 16.74 62.132 0.143 7.8 9.5 9.82
9/10/2021 10:00:00 AM 16.81 62.258 0.143 7.83 9.42 9.88
9/10/2021 10:15:00 AM 16.84 62.312 0.143 7.87 9.44 9.92
9/10/2021 10:30:00 AM 16.9 62.42 0.143 7.9 9.48 9.97
9/10/2021 10:45:00 AM 17.03 62.654 0.143 7.94 9.37 10.02
9/10/2021 11:00:00 AM 17.08 62.744 0.143 7.98 9.34 10.01
9/10/2021 11:15:00 AM 17.18 62.924 0.143 8.02 9.28 10.04
9/10/2021 11:30:00 AM 17.26 63.068 0.143 8.05 9.29 10.06
9/10/2021 11:45:00 AM 17.41 63.338 0.143 8.09 9.24 10.11
9/10/2021 12:00:00 PM 17.55 63.59 0.143 8.14 9.16 10.13
9/10/2021 12:15:00 PM 17.7 63.86 0.143 8.19 9.18 10.1
9/10/2021 12:30:00 PM 17.84 64.112 0.142 8.23 9.16 10.1
9/10/2021 12:45:00 PM 17.9 64.22 0.142 8.27 9.15 10.07
9/10/2021 1:00:00 PM 18.05 64.49 0.142 8.31 9.03 10.09
9/10/2021 1:15:00 PM 18.15 64.67 0.142 8.34 9.22 10.06
9/10/2021 1:30:00 PM 18.32 64.976 0.142 8.38 9.04 10.07
9/10/2021 1:45:00 PM 18.4 65.12 0.142 8.43 8.95 10.01
9/10/2021 2:00:00 PM 18.47 65.246 0.142 8.47 8.99 9.98
9/10/2021 2:15:00 PM 18.59 65.462 0.142 8.49 8.91 9.99
9/10/2021 2:30:00 PM 18.69 65.642 0.142 8.52 8.99 9.96
9/10/2021 2:45:00 PM 18.75 65.75 0.142 8.55 9 9.91
9/10/2021 3:00:00 PM 18.84 65.912 0.142 8.56 9.06 9.93
9/10/2021 3:15:00 PM 18.85 65.93 0.142 8.57 8.88 9.85
9/10/2021 3:30:00 PM 18.83 65.894 0.142 8.57 8.89 9.85
9/10/2021 3:45:00 PM 18.88 65.984 0.142 8.57 9.13 9.86
9/10/2021 4:00:00 PM 18.89 66.002 0.142 8.57 8.91 9.82
9/10/2021 4:15:00 PM 18.81 65.858 0.142 8.55 8.84 9.72
9/10/2021 4:30:00 PM 18.71 65.67799 0.142 8.5 8.89 9.68
9/10/2021 4:45:00 PM 18.63 65.534 0.142 8.44 9.03 9.62
9/10/2021 5:00:00 PM 18.55 65.39 0.142 8.37 8.94 9.64
9/10/2021 5:15:00 PM 18.54 65.372 0.142 8.34 9.03 9.65
9/10/2021 5:30:00 PM 18.5 65.3 0.142 8.31 8.95 9.57
9/10/2021 5:45:00 PM 18.41 65.138 0.142 8.25 8.98 9.45
9/10/2021 6:00:00 PM 18.35 65.03 0.142 8.16 9.06 9.37
9/10/2021 6:15:00 PM 18.32 64.976 0.143 8.1 9.07 9.35
9/10/2021 6:30:00 PM 18.27 64.886 0.143 8.03 9.12 9.27
9/10/2021 6:45:00 PM 18.22 64.796 0.143 7.98 9.36 9.19
9/10/2021 7:00:00 PM 18.17 64.706 0.143 7.93 9.2 9.13
9/10/2021 7:15:00 PM 18.13 64.634 0.143 7.89 9.29 9.09
9/10/2021 7:30:00 PM 18.09 64.562 0.143 7.85 9.35 9.05
9/10/2021 7:45:00 PM 18.06 64.508 0.143 7.81 9.51 9.02
9/10/2021 8:00:00 PM 18.03 64.454 0.143 7.79 9.46 9
9/10/2021 8:15:00 PM 18 64.4 0.143 7.77 9.5 8.99
9/10/2021 8:30:00 PM 17.96 64.328 0.143 7.76 9.62 8.98
9/10/2021 8:45:00 PM 17.92 64.256 0.143 7.74 9.08 8.98
9/10/2021 9:00:00 PM 17.88 64.184 0.143 7.71 9.13 8.98
9/10/2021 9:15:00 PM 17.83 64.094 0.143 7.7 9.2 8.98
9/10/2021 9:30:00 PM 17.78 64.004 0.144 7.7 9.19 8.98
9/10/2021 9:45:00 PM 17.73 63.914 0.144 7.7 9.26 8.99
9/10/2021 10:00:00 PM 17.67 63.806 0.144 7.68 9.31 9
9/10/2021 10:15:00 PM 17.62 63.716 0.144 7.69 9.31 9.02
9/10/2021 10:30:00 PM 17.55 63.59 0.144 7.67 9.5 9.03
9/10/2021 10:45:00 PM 17.48 63.464 0.144 7.67 9.36 9.05
9/10/2021 11:00:00 PM 17.41 63.338 0.144 7.67 9.42 9.07
9/10/2021 11:15:00 PM 17.33 63.194 0.144 7.67 9.37 9.08
9/10/2021 11:30:00 PM 17.26 63.068 0.144 7.66 9.39 9.09
9/10/2021 11:45:00 PM 17.18 62.924 0.144 7.66 9.31 9.11
9/11/2021 12:00:00 AM 17.1 62.78 0.144 7.66 9.42 9.12
9/11/2021 12:15:00 AM 17.02 62.636 0.144 7.65 9.19 9.14
9/11/2021 12:30:00 AM 16.94 62.492 0.144 7.65 9.14 9.17
9/11/2021 12:45:00 AM 16.86 62.348 0.145 7.65 9.12 9.18
9/11/2021 1:00:00 AM 16.78 62.204 0.145 7.65 9.15 9.2
9/11/2021 1:15:00 AM 16.7 62.06 0.145 7.64 9.15 9.22
9/11/2021 1:30:00 AM 16.62 61.916 0.145 7.65 9.2 9.24
9/11/2021 1:45:00 AM 16.54 61.772 0.144 7.64 9.27 9.26
9/11/2021 2:00:00 AM 16.47 61.646 0.145 7.64 9.24 9.28
9/11/2021 2:15:00 AM 16.39 61.502 0.145 7.63 9.2 9.3
9/11/2021 2:30:00 AM 16.32 61.376 0.145 7.64 9.38 9.31
9/11/2021 2:45:00 AM 16.24 61.232 0.145 7.63 9.33 9.33
9/11/2021 3:00:00 AM 16.17 61.106 0.145 7.63 10.9 9.36
9/11/2021 3:15:00 AM 16.1 60.98 0.145 7.63 9.28 9.37
9/11/2021 3:30:00 AM 16.02 60.836 0.145 7.63 9.55 9.39
9/11/2021 3:45:00 AM 15.95 60.71 0.145 7.62 9.42 9.41
9/11/2021 4:00:00 AM 15.88 60.584 0.145 7.62 9.33 9.42
9/11/2021 4:15:00 AM 15.81 60.458 0.146 7.63 9.36 9.44
9/11/2021 4:30:00 AM 15.74 60.332 0.146 7.62 9.27 9.46
9/11/2021 4:45:00 AM 15.69 60.242 0.146 7.62 26.92 9.47
9/11/2021 5:00:00 AM 15.64 60.152 0.146 7.63 46.53 9.49
9/11/2021 5:15:00 AM 15.59 60.062 0.146 7.63 9.36 9.5
9/11/2021 5:30:00 AM 15.54 59.972 0.146 7.62 9.49 9.51
9/11/2021 5:45:00 AM 15.5 59.9 0.146 7.63 9.28 9.53
9/11/2021 6:00:00 AM 15.46 59.828 0.146 7.62 9.27 9.53
9/11/2021 6:15:00 AM 15.42 59.756 0.146 7.63 9.25 9.55
9/11/2021 6:30:00 AM 15.39 59.702 0.146 7.63 9.27 9.56
9/11/2021 6:45:00 AM 15.36 59.648 0.146 7.63 9.26 9.57
9/11/2021 7:00:00 AM 15.33 59.594 0.146 7.63 9.32 9.59
9/11/2021 7:15:00 AM 15.3 59.54 0.146 7.63 9.26 9.64
9/11/2021 7:30:00 AM 15.28 59.504 0.146 7.63 9.19 9.7
9/11/2021 7:45:00 AM 15.28 59.504 0.146 7.65 9.14 9.79
9/11/2021 8:00:00 AM 15.27 59.486 0.146 7.68 9.1 9.87
9/11/2021 8:15:00 AM 15.26 59.468 0.146 7.69 9.04 9.92
9/11/2021 8:30:00 AM 15.26 59.468 0.146 7.71 9.1 10.01
9/11/2021 8:45:00 AM 15.28 59.504 0.146 7.74 8.94 10.12
9/11/2021 9:00:00 AM 15.3 59.54 0.146 7.78 9.03 10.23
9/11/2021 9:15:00 AM 15.33 59.594 0.146 7.82 8.93 10.33
9/11/2021 9:30:00 AM 15.39 59.702 0.145 7.86 9.01 10.45
9/11/2021 9:45:00 AM 15.45 59.81 0.145 7.92 8.88 10.56
9/11/2021 10:00:00 AM 15.5 59.9 0.145 7.98 8.84 10.58
9/11/2021 10:15:00 AM 15.61 60.098 0.145 8.03 8.75 10.66
9/11/2021 10:30:00 AM 15.67 60.206 0.145 8.09 8.89 10.67
9/11/2021 10:45:00 AM 15.76 60.368 0.145 8.14 8.87 10.68
9/11/2021 11:00:00 AM 15.87 60.566 0.145 8.18 8.75 10.71
9/11/2021 11:15:00 AM 16.01 60.818 0.145 8.24 8.57 10.69
9/11/2021 11:30:00 AM 16.16 61.088 0.145 8.29 8.5 10.7
9/11/2021 11:45:00 AM 16.34 61.412 0.145 8.34 8.45 10.7
9/11/2021 12:00:00 PM 16.54 61.772 0.145 8.4 8.33 10.68
9/11/2021 12:15:00 PM 16.74 62.132 0.144 8.47 851.09 10.66
9/11/2021 12:30:00 PM 16.94 62.492 0.145 8.52 8.9 10.62
9/11/2021 12:45:00 PM 17.14 62.852 0.145 8.56 8.37 10.59
9/11/2021 1:00:00 PM 17.32 63.176 0.145 8.62 8.24 10.58
9/11/2021 1:15:00 PM 17.45 63.41 0.145 8.65 8.35 10.52
9/11/2021 1:30:00 PM 17.52 63.536 0.145 8.68 8.12 10.44
9/11/2021 1:45:00 PM 17.65 63.77 0.145 8.69 8.08 10.42
9/11/2021 2:00:00 PM 17.69 63.842 0.145 8.7 8.06 10.34
9/11/2021 2:15:00 PM 17.77 63.986 0.145 8.7 7.99 10.32
9/11/2021 2:30:00 PM 17.84 64.112 0.145 8.71 8.09 10.3
9/11/2021 2:45:00 PM 17.97 64.346 0.144 8.72 386.01 10.26
9/11/2021 3:00:00 PM 18.08 64.544 0.144 8.76 409.52 10.27
9/11/2021 3:15:00 PM 18.2 64.76 0.144 8.78 375.06 10.25
9/11/2021 3:30:00 PM 18.38 65.084 0.144 8.82 369.66 10.22
9/11/2021 3:45:00 PM 18.45 65.21 0.144 8.86 871.96 10.17
9/11/2021 4:00:00 PM 18.45 65.21 0.144 8.86 414 10.15
9/11/2021 4:15:00 PM 18.43 65.174 0.144 8.85 467.81 10.1
9/11/2021 4:30:00 PM 18.43 65.174 0.145 8.84 478.75 10.06
9/11/2021 4:45:00 PM 18.39 65.102 0.144 8.81 342.95 10.01
9/11/2021 5:00:00 PM 18.29 64.922 0.145 8.77 319.26 9.95
9/11/2021 5:15:00 PM 18.18 64.724 0.145 8.71 366.73 9.9
9/11/2021 5:30:00 PM 18.08 64.544 0.145 8.65 294.09 9.85
9/11/2021 5:45:00 PM 18 64.4 0.145 8.57 399.41 9.78
9/11/2021 6:00:00 PM 17.92 64.256 0.145 8.48 283.36 9.71
9/11/2021 6:15:00 PM 17.85 64.13 0.146 8.38 673.63 9.63
9/11/2021 6:30:00 PM 17.79 64.022 0.146 8.28 621.69 9.53
9/11/2021 6:45:00 PM 17.73 63.914 0.147 8.19 7.89 9.45
9/11/2021 7:00:00 PM 17.69 63.842 0.147 8.1 7.85 9.37
9/11/2021 7:15:00 PM 17.64 63.752 0.147 8.03 7.87 9.3
9/11/2021 7:30:00 PM 17.61 63.698 0.147 7.97 844.8 9.24
9/11/2021 7:45:00 PM 17.59 63.662 0.147 7.91 845.2 9.18
9/11/2021 8:00:00 PM 17.57 63.626 0.147 7.84 8.2 9.15
9/11/2021 8:15:00 PM 17.56 63.608 0.147 7.82 933.83 9.12
9/11/2021 8:30:00 PM 17.55 63.59 0.147 7.79 8.29 9.1
9/11/2021 8:45:00 PM 17.54 63.572 0.147 7.77 8.26 9.09
9/11/2021 9:00:00 PM 17.53 63.554 0.147 7.75 8.26 9.07
9/11/2021 9:15:00 PM 17.52 63.536 0.147 7.73 8.3 9.07
9/11/2021 9:30:00 PM 17.51 63.518 0.147 7.73 8.33 9.07
9/11/2021 9:45:00 PM 17.49 63.482 0.147 7.71 8.55 9.07
9/11/2021 10:00:00 PM 17.46 63.428 0.147 7.7 8.36 9.07
9/11/2021 10:15:00 PM 17.44 63.392 0.147 7.7 984.17 9.06
9/11/2021 10:30:00 PM 17.41 63.338 0.147 7.68 1221.73 9.06
9/11/2021 10:45:00 PM 17.37 63.266 0.147 7.68 1391.94 9.07
9/11/2021 11:00:00 PM 17.34 63.212 0.147 7.67 12.9 9.09
9/11/2021 11:15:00 PM 17.3 63.14 0.147 7.68 854.75 9.08
9/11/2021 11:30:00 PM 17.26 63.068 0.147 7.67 1522.32 9.08
9/11/2021 11:45:00 PM 17.22 62.996 0.147 7.66 946.06 9.1
9/12/2021 12:00:00 AM 17.17 62.906 0.147 7.66 1741.6 9.11
9/12/2021 12:15:00 AM 17.13 62.834 0.147 7.65 1569.84 9.12
9/12/2021 12:30:00 AM 17.09 62.762 0.147 7.65 1333.03 9.13
9/12/2021 12:45:00 AM 17.05 62.69 0.148 7.65 206.68 9.14
9/12/2021 1:00:00 AM 17 62.6 0.148 7.64 8.76 9.14
9/12/2021 1:15:00 AM 16.95 62.51 0.147 7.66 175.55 9.16
9/12/2021 1:30:00 AM 16.91 62.438 0.147 7.63 52.85 9.16
9/12/2021 1:45:00 AM 16.86 62.348 0.147 7.64 602.75 9.17
9/12/2021 2:00:00 AM 16.81 62.258 0.147 7.65 433.85 9.19
9/12/2021 2:15:00 AM 16.77 62.186 0.147 7.63 458.58 9.19
9/12/2021 2:30:00 AM 16.73 62.114 0.147 7.62 222.07 9.21
9/12/2021 2:45:00 AM 16.7 62.06 0.147 7.62 794 9.21
9/12/2021 3:00:00 AM 16.68 62.024 0.148 7.62 1201.89 9.22
9/12/2021 3:15:00 AM 16.66 61.988 0.149 7.62 13.66 9.21
9/12/2021 3:30:00 AM 16.64 61.952 0.149 7.62 9.27 9.22
9/12/2021 3:45:00 AM 16.62 61.916 0.149 7.63 626.54 9.23
9/12/2021 4:00:00 AM 16.59 61.862 0.149 7.63 1488.8 9.23
9/12/2021 4:15:00 AM 16.57 61.826 0.149 7.63 1308.55 9.23
9/12/2021 4:30:00 AM 16.54 61.772 0.149 7.62 8.81 9.24
9/12/2021 4:45:00 AM 16.5 61.7 0.149 7.62 8.93 9.25
9/12/2021 5:00:00 AM 16.47 61.646 0.149 7.62 1568.58 9.26
9/12/2021 5:15:00 AM 16.44 61.592 0.149 7.63 84.47 9.26
9/12/2021 5:30:00 AM 16.43 61.574 0.149 7.62 1664.75 9.27
9/12/2021 5:45:00 AM 16.41 61.538 0.149 7.62 64.81 9.27
9/12/2021 6:00:00 AM 16.38 61.484 0.149 7.62 8.71 9.28
9/12/2021 6:15:00 AM 16.35 61.43 0.149 7.61 8.71 9.28
9/12/2021 6:30:00 AM 16.33 61.394 0.149 7.62 8.77 9.28
9/12/2021 6:45:00 AM 16.32 61.376 0.149 7.62 8.67 9.29
9/12/2021 7:00:00 AM 16.3 61.34 0.149 7.62 8.76 9.3
9/12/2021 7:15:00 AM 16.29 61.322 0.149 7.63 9.15 9.32
9/12/2021 7:30:00 AM 16.28 61.304 0.149 7.63 8.84 9.37
9/12/2021 7:45:00 AM 16.28 61.304 0.149 7.63 8.67 9.42
9/12/2021 8:00:00 AM 16.29 61.322 0.149 7.66 9.06 9.5
9/12/2021 8:15:00 AM 16.3 61.34 0.149 7.66 8.65 9.54
9/12/2021 8:30:00 AM 16.31 61.358 0.149 7.7 8.68 9.62
9/12/2021 8:45:00 AM 16.33 61.394 0.149 7.71 9.08 9.71
9/12/2021 9:00:00 AM 16.35 61.43 0.149 7.74 8.65 9.83
9/12/2021 9:15:00 AM 16.4 61.52 0.148 7.78 8.55 10
9/12/2021 9:30:00 AM 16.47 61.646 0.148 7.84 8.63 10.1
9/12/2021 9:45:00 AM 16.55 61.79 0.148 7.89 8.71 10.22
9/12/2021 10:00:00 AM 16.64 61.952 0.148 7.95 8.62 10.33
9/12/2021 10:15:00 AM 16.76 62.168 0.147 8.04 8.4 10.42
9/12/2021 10:30:00 AM 16.9 62.42 0.147 8.14 621.66 10.47
9/12/2021 10:45:00 AM 17.01 62.618 0.146 8.22 434.85 10.52
9/12/2021 11:00:00 AM 17.13 62.834 0.146 8.31 394.54 10.54
9/12/2021 11:15:00 AM 17.28 63.104 0.146 8.41 402.51 10.57
9/12/2021 11:30:00 AM 17.42 63.356 0.146 8.51 276.9 10.58
9/12/2021 11:45:00 AM 17.56 63.608 0.146 8.59 304.31 10.54
9/12/2021 12:00:00 PM 17.62 63.716 0.145 8.64 100.82 10.39
9/12/2021 12:15:00 PM 17.62 63.716 0.146 8.64 327.8 10.25
9/12/2021 12:30:00 PM 17.6 63.68 0.146 8.61 257.26 10.13
9/12/2021 12:45:00 PM 17.66 63.788 0.145 8.6 1438.4 10.24
9/12/2021 1:00:00 PM 17.72 63.896 0.145 8.62 340.26 10.3
9/12/2021 1:15:00 PM 17.81 64.058 0.145 8.69 294.62 10.36
9/12/2021 1:30:00 PM 17.9 64.22 0.145 8.77 149.75 10.42
9/12/2021 1:45:00 PM 18.01 64.418 0.145 8.84 325.04 10.39
9/12/2021 2:00:00 PM 18.09 64.562 0.145 8.86 72.53 10.18
9/12/2021 2:15:00 PM 18.14 64.652 0.145 8.86 8.96 10.05
9/12/2021 2:30:00 PM 18.19 64.742 0.145 8.82 7.89 9.94
9/12/2021 2:45:00 PM 18.23 64.814 0.145 8.79 7.8 9.92
9/12/2021 3:00:00 PM 18.26 64.868 0.145 8.77 906.21 9.98
9/12/2021 3:15:00 PM 18.31 64.958 0.145 8.79 7.78 10.07
9/12/2021 3:30:00 PM 18.34 65.012 0.145 8.83 7.89 10.1
9/12/2021 3:45:00 PM 18.39 65.102 0.145 8.87 7.73 10.14
9/12/2021 4:00:00 PM 18.45 65.21 0.145 8.91 8.03 10.15
9/12/2021 4:15:00 PM 18.51 65.318 0.145 8.95 8.04 10.13
9/12/2021 4:30:00 PM 18.59 65.462 0.145 8.98 8.02 10.15
9/12/2021 4:45:00 PM 18.64 65.552 0.145 8.99 8.08 10.09
9/12/2021 5:00:00 PM 18.66 65.588 0.145 8.99 8.05 10.07
9/12/2021 5:15:00 PM 18.63 65.534 0.145 8.97 8.14 9.96
9/12/2021 5:30:00 PM 18.63 65.534 0.145 8.93 7.66 9.87
9/12/2021 5:45:00 PM 18.59 65.462 0.145 8.88 7.68 9.75
9/12/2021 6:00:00 PM 18.56 65.408 0.145 8.81 7.64 9.67
9/12/2021 6:15:00 PM 18.53 65.354 0.146 8.74 7.66 9.57
9/12/2021 6:30:00 PM 18.49 65.282 0.146 8.64 7.73 9.47
9/12/2021 6:45:00 PM 18.44 65.192 0.146 8.53 7.81 9.37
9/12/2021 7:00:00 PM 18.39 65.102 0.146 8.4 7.86 9.28
9/12/2021 7:15:00 PM 18.34 65.012 0.147 8.26 7.93 9.19
9/12/2021 7:30:00 PM 18.29 64.922 0.147 8.14 8.15 9.11
9/12/2021 7:45:00 PM 18.25 64.85 0.147 8.03 8.13 9.04
9/12/2021 8:00:00 PM 18.22 64.796 0.147 7.94 8.22 8.99
9/12/2021 8:15:00 PM 18.19 64.742 0.148 7.88 8.18 8.97
9/12/2021 8:30:00 PM 18.17 64.706 0.148 7.84 8.23 8.95
9/12/2021 8:45:00 PM 18.16 64.688 0.148 7.8 8.26 8.93
9/12/2021 9:00:00 PM 18.15 64.67 0.148 7.77 8.29 8.92
9/12/2021 9:15:00 PM 18.15 64.67 0.148 7.73 873.84 8.91
9/12/2021 9:30:00 PM 18.15 64.67 0.148 7.72 174.24 8.89
9/12/2021 9:45:00 PM 18.14 64.652 0.149 7.69 718.31 8.89
9/12/2021 10:00:00 PM 18.14 64.652 0.149 7.68 8.53 8.88
9/12/2021 10:15:00 PM 18.14 64.652 0.149 7.67 8.46 8.88
9/12/2021 10:30:00 PM 18.14 64.652 0.149 7.66 8.69 8.88
9/12/2021 10:45:00 PM 18.14 64.652 0.149 7.65 8.59 8.88
9/12/2021 11:00:00 PM 18.13 64.634 0.149 7.64 52.45 8.87
9/12/2021 11:15:00 PM 18.13 64.634 0.149 7.62 668.52 8.87
9/12/2021 11:30:00 PM 18.12 64.616 0.149 7.61 45.18 8.86
9/12/2021 11:45:00 PM 18.11 64.598 0.149 7.61 249.18 8.86
9/13/2021 12:00:00 AM 18.1 64.58 0.149 7.6 1084.93 8.86
9/13/2021 12:15:00 AM 18.08 64.544 0.149 7.6 970.75 8.85
9/13/2021 12:30:00 AM 18.07 64.526 0.149 7.59 1304.06 8.85
9/13/2021 12:45:00 AM 18.06 64.508 0.149 7.59 116.56 8.86
9/13/2021 1:00:00 AM 18.05 64.49 0.149 7.58 26.74 8.86
9/13/2021 1:15:00 AM 18.05 64.49 0.149 7.58 12.14 8.87
9/13/2021 1:30:00 AM 18.05 64.49 0.148 7.58 566.71 8.86
9/13/2021 1:45:00 AM 18.05 64.49 0.149 7.59 29.64 8.87
9/13/2021 2:00:00 AM 18.05 64.49 0.148 7.57 27.49 8.87
9/13/2021 2:15:00 AM 18.05 64.49 0.148 7.58 32.91 8.87
9/13/2021 2:30:00 AM 18.06 64.508 0.148 7.57 35.41 8.87
9/13/2021 2:45:00 AM 18.05 64.49 0.149 7.58 934.91 8.86
9/13/2021 3:00:00 AM 18.04 64.472 0.148 7.58 20.15 8.86
9/13/2021 3:15:00 AM 18.03 64.454 0.149 7.57 35.38 8.87
9/13/2021 3:30:00 AM 18.02 64.436 0.149 7.59 26.02 8.87
9/13/2021 3:45:00 AM 18 64.4 0.149 7.56 9.12 8.88
9/13/2021 4:00:00 AM 17.99 64.382 0.149 7.59 29.81 8.88
9/13/2021 4:15:00 AM 17.97 64.346 0.149 7.56 78.08 8.88
9/13/2021 4:30:00 AM 17.96 64.328 0.149 7.57 35.73 8.88
9/13/2021 4:45:00 AM 17.94 64.292 0.149 7.58 359.96 8.89
9/13/2021 5:00:00 AM 17.93 64.274 0.149 7.57 95.62 8.89
9/13/2021 5:15:00 AM 17.91 64.238 0.149 7.58 55.6 8.89
9/13/2021 5:30:00 AM 17.89 64.202 0.149 7.58 47.53 8.9
9/13/2021 5:45:00 AM 17.88 64.184 0.149 7.57 11.87 8.91
9/13/2021 6:00:00 AM 17.86 64.148 0.149 7.57 9.27 8.91
9/13/2021 6:15:00 AM 17.84 64.112 0.149 7.57 41.96 8.9
9/13/2021 6:30:00 AM 17.82 64.076 0.149 7.57 1026.24 8.91
9/13/2021 6:45:00 AM 17.8 64.04 0.15 7.57 44.14 8.92
9/13/2021 7:00:00 AM 17.8 64.04 0.15 7.58 407.15 8.93
9/13/2021 7:15:00 AM 17.79 64.022 0.15 7.59 195.56 8.98
9/13/2021 7:30:00 AM 17.8 64.04 0.15 7.59 350.38 9.04
9/13/2021 7:45:00 AM 17.81 64.058 0.15 7.61 411.43 9.1
9/13/2021 8:00:00 AM 17.84 64.112 0.15 7.63 159.16 9.18
9/13/2021 8:15:00 AM 17.86 64.148 0.15 7.65 119.9 9.2
9/13/2021 8:30:00 AM 17.88 64.184 0.15 7.67 34.33 9.22
9/13/2021 8:45:00 AM 17.91 64.238 0.15 7.7 316.1 9.27
9/13/2021 9:00:00 AM 17.94 64.292 0.15 7.72 19.58 9.41
9/13/2021 9:15:00 AM 17.97 64.346 0.15 7.75 22.13 9.46
9/13/2021 9:30:00 AM 18.02 64.436 0.149 7.79 28.01 9.58
9/13/2021 9:45:00 AM 18.07 64.526 0.149 7.83 21.56 9.68
9/13/2021 10:00:00 AM 18.1 64.58 0.149 7.88 25.56 9.69
9/13/2021 10:15:00 AM 18.15 64.67 0.149 7.9 579.4 9.73
9/13/2021 10:30:00 AM 18.19 64.742 0.149 7.95 512.09 9.79
9/13/2021 10:45:00 AM 18.22 64.796 0.149 7.99 521.51 9.81
9/13/2021 11:00:00 AM 18.3 64.94 0.148 8.03 470.91 9.98
9/13/2021 11:15:00 AM 18.35 65.03 0.149 8.09 394.62 9.99
9/13/2021 11:30:00 AM 18.44 65.192 0.148 8.14 9.4 10.1
9/13/2021 11:45:00 AM 18.54 65.372 0.148 8.26 8.69 10.23
9/13/2021 12:00:00 PM 18.68 65.624 0.148 8.38 9.5 10.31
9/13/2021 12:15:00 PM 18.8 65.84 0.147 8.51 9.05 10.3
9/13/2021 12:30:00 PM 18.86 65.948 0.146 8.56 9.6 10.12
9/13/2021 12:45:00 PM 18.9 66.02 0.146 8.59 9.38 10.08
9/13/2021 1:00:00 PM 18.95 66.11 0.147 8.62 9.07 10.11
9/13/2021 1:15:00 PM 19.07 66.326 0.147 8.69 9.1 10.2
9/13/2021 1:30:00 PM 19.21 66.578 0.146 8.79 9.12 10.24
9/13/2021 1:45:00 PM 19.35 66.83 0.146 8.87 8.85 10.23
9/13/2021 2:00:00 PM 19.47 67.046 0.146 8.94 8.49 10.19
9/13/2021 2:15:00 PM 19.66 67.388 0.146 9 9.01 10.18
9/13/2021 2:30:00 PM 19.87 67.766 0.145 9.05 8.72 10.13
9/13/2021 2:45:00 PM 20.12 68.216 0.145 9.11 9.39 10.07
9/13/2021 3:00:00 PM 20.31 68.558 0.145 9.15 9.02 10.03
9/13/2021 3:15:00 PM 20.42 68.756 0.145 9.17 8.71 9.95
9/13/2021 3:30:00 PM 20.44 68.792 0.145 9.19 8.75 9.87
9/13/2021 3:45:00 PM 20.43 68.774 0.145 9.19 8.6 9.79
9/13/2021 4:00:00 PM 20.43 68.774 0.145 9.2 8.84 9.8
9/13/2021 4:15:00 PM 20.43 68.774 0.145 9.2 8.47 9.78
9/13/2021 4:30:00 PM 20.41 68.738 0.145 9.2 8.46 9.73
9/13/2021 4:45:00 PM 20.36 68.648 0.145 9.18 8.39 9.65
9/13/2021 5:00:00 PM 20.31 68.558 0.145 9.16 8.52 9.58
9/13/2021 5:15:00 PM 20.28 68.504 0.145 9.13 8.62 9.54
9/13/2021 5:30:00 PM 20.25 68.45 0.146 9.11 8.33 9.48
9/13/2021 5:45:00 PM 20.21 68.378 0.146 9.08 526.67 9.42
9/13/2021 6:00:00 PM 20.14 68.252 0.146 9 34.93 9.33
9/13/2021 6:15:00 PM 20.06 68.108 0.146 8.95 204 9.24
9/13/2021 6:30:00 PM 19.98 67.964 0.147 8.85 20.84 9.15
9/13/2021 6:45:00 PM 19.89 67.802 0.147 8.73 8.59 9.03
9/13/2021 7:00:00 PM 19.82 67.676 0.148 8.58 13.72 8.91
9/13/2021 7:15:00 PM 19.75 67.55 0.148 8.43 13.44 8.82
9/13/2021 7:30:00 PM 19.7 67.46 0.149 8.28 8.66 8.75
9/13/2021 7:45:00 PM 19.66 67.388 0.149 8.15 8.51 8.71
9/13/2021 8:00:00 PM 19.63 67.334 0.149 8.05 110.04 8.66
9/13/2021 8:15:00 PM 19.6 67.28 0.149 7.97 8.68 8.65
9/13/2021 8:30:00 PM 19.58 67.244 0.15 7.91 9.02 8.62
9/13/2021 8:45:00 PM 19.55 67.19 0.15 7.87 9.27 8.6
9/13/2021 9:00:00 PM 19.53 67.154 0.149 7.84 75.76 8.55
9/13/2021 9:15:00 PM 19.49 67.082 0.15 7.8 76.51 8.59
9/13/2021 9:30:00 PM 19.46 67.028 0.15 7.78 45.4 8.58
9/13/2021 9:45:00 PM 19.43 66.974 0.15 7.76 40.93 8.57
9/13/2021 10:00:00 PM 19.4 66.92 0.15 7.75 31.66 8.59
9/13/2021 10:15:00 PM 19.37 66.866 0.15 7.74 141.74 8.58
9/13/2021 10:30:00 PM 19.34 66.812 0.15 7.72 33.55 8.58
9/13/2021 10:45:00 PM 19.3 66.74 0.15 7.71 64.65 8.59
9/13/2021 11:00:00 PM 19.26 66.668 0.15 7.7 89.96 8.6
9/13/2021 11:15:00 PM 19.22 66.596 0.15 7.69 40.29 8.61
9/13/2021 11:30:00 PM 19.17 66.506 0.15 7.68 38.16 8.62
9/13/2021 11:45:00 PM 19.14 66.452 0.15 7.68 9.54 8.64
9/14/2021 12:00:00 AM 19.11 66.398 0.15 7.67 9.47 8.64
9/14/2021 12:15:00 AM 19.08 66.344 0.15 7.66 46.51 8.64
9/14/2021 12:30:00 AM 19.05 66.29 0.15 7.66 32.87 8.64
9/14/2021 12:45:00 AM 19.03 66.254 0.15 7.66 37.15 8.66
9/14/2021 1:00:00 AM 19.01 66.218 0.15 7.66 41.04 8.66
9/14/2021 1:15:00 AM 18.98 66.164 0.15 7.66 755.27 8.67
9/14/2021 1:30:00 AM 18.95 66.11 0.149 7.66 25.45 8.66
9/14/2021 1:45:00 AM 18.92 66.056 0.149 7.65 9.85 8.69
9/14/2021 2:00:00 AM 18.89 66.002 0.149 7.65 9.45 8.67
9/14/2021 2:15:00 AM 18.86 65.948 0.149 7.64 9.47 8.68
9/14/2021 2:30:00 AM 18.83 65.894 0.149 7.65 1342.16 8.68
9/14/2021 2:45:00 AM 18.81 65.858 0.149 7.64 49.28 8.69
9/14/2021 3:00:00 AM 18.79 65.82201 0.149 7.63 9.34 8.71
9/14/2021 3:15:00 AM 18.77 65.786 0.149 7.63 9.25 8.7
9/14/2021 3:30:00 AM 18.75 65.75 0.149 7.64 9.4 8.71
9/14/2021 3:45:00 AM 18.73 65.714 0.149 7.63 9.64 8.71
9/14/2021 4:00:00 AM 18.71 65.67799 0.149 7.64 9.32 8.72
9/14/2021 4:15:00 AM 18.69 65.642 0.149 7.64 9.62 8.71
9/14/2021 4:30:00 AM 18.67 65.606 0.149 7.63 119.89 8.71
9/14/2021 4:45:00 AM 18.65 65.57 0.149 7.63 98.4 8.73
9/14/2021 5:00:00 AM 18.62 65.516 0.149 7.64 136.53 8.73
9/14/2021 5:15:00 AM 18.59 65.462 0.149 7.62 9.43 8.74
9/14/2021 5:30:00 AM 18.56 65.408 0.149 7.62 9.55 8.74
9/14/2021 5:45:00 AM 18.53 65.354 0.15 7.62 9.46 8.75
9/14/2021 6:00:00 AM 18.5 65.3 0.15 7.63 9.79 8.76
9/14/2021 6:15:00 AM 18.48 65.264 0.15 7.65 33.56 8.75
9/14/2021 6:30:00 AM 18.46 65.228 0.15 7.64 79.84 8.77
9/14/2021 6:45:00 AM 18.44 65.192 0.15 7.63 53.16 8.77
9/14/2021 7:00:00 AM 18.41 65.138 0.15 7.64 50.89 8.79
9/14/2021 7:15:00 AM 18.39 65.102 0.15 7.65 78.08 8.82
9/14/2021 7:30:00 AM 18.37 65.066 0.15 7.64 9.62 8.89
9/14/2021 7:45:00 AM 18.36 65.048 0.15 7.66 9.83 8.95
9/14/2021 8:00:00 AM 18.36 65.048 0.15 7.68 9.65 8.97
9/14/2021 8:15:00 AM 18.36 65.048 0.15 7.69 9.7 9.03
9/14/2021 8:30:00 AM 18.37 65.066 0.15 7.7 9.69 9.1
9/14/2021 8:45:00 AM 18.39 65.102 0.15 7.72 9.68 9.15
9/14/2021 9:00:00 AM 18.41 65.138 0.15 7.75 9.66 9.25
9/14/2021 9:15:00 AM 18.45 65.21 0.15 7.77 9.72 9.4
9/14/2021 9:30:00 AM 18.5 65.3 0.15 7.82 9.9 9.52
9/14/2021 9:45:00 AM 18.54 65.372 0.15 7.86 9.68 9.56
9/14/2021 10:00:00 AM 18.59 65.462 0.15 7.91 9.83 9.66
9/14/2021 10:15:00 AM 18.67 65.606 0.15 7.97 9.79 9.84
9/14/2021 10:30:00 AM 18.77 65.786 0.149 8.05 10.01 9.94
9/14/2021 10:45:00 AM 18.87 65.966 0.149 8.15 10.08 10.04
9/14/2021 11:00:00 AM 19.01 66.218 0.149 8.26 10.57 10.14
9/14/2021 11:15:00 AM 19.14 66.452 0.149 8.38 10.44 10.17
9/14/2021 11:30:00 AM 19.32 66.776 0.148 8.5 10.38 10.19
9/14/2021 11:45:00 AM 19.47 67.046 0.148 8.62 10.38 10.18
9/14/2021 12:00:00 PM 19.65 67.37 0.148 8.71 10.68 10.17
9/14/2021 12:15:00 PM 19.81 67.658 0.148 8.8 10.55 10.14
9/14/2021 12:30:00 PM 20.02 68.036 0.147 8.88 9.93 10.14
9/14/2021 12:45:00 PM 20.25 68.45 0.147 8.95 9.94 10.09
9/14/2021 1:00:00 PM 20.48 68.864 0.147 9.01 9.82 10.08
9/14/2021 1:15:00 PM 20.64 69.152 0.147 9.06 10.37 9.97
9/14/2021 1:30:00 PM 20.81 69.458 0.147 9.1 500.18 9.99
9/14/2021 1:45:00 PM 20.93 69.674 0.147 9.13 9.63 9.93
9/14/2021 2:00:00 PM 21.12 70.016 0.147 9.17 9.97 9.9
9/14/2021 2:15:00 PM 21.28 70.304 0.146 9.2 9.56 9.83
9/14/2021 2:30:00 PM 21.39 70.502 0.146 9.23 9.8 9.76
9/14/2021 2:45:00 PM 21.49 70.682 0.146 9.25 10.29 9.74
9/14/2021 3:00:00 PM 21.59 70.862 0.146 9.26 10.05 9.7
9/14/2021 3:15:00 PM 21.69 71.042 0.146 9.27 9.88 9.63
9/14/2021 3:30:00 PM 21.79 71.222 0.146 9.29 9.29 9.58
9/14/2021 3:45:00 PM 21.84 71.312 0.146 9.3 9.16 9.52
9/14/2021 4:00:00 PM 21.87 71.366 0.146 9.3 10.63 9.46
9/14/2021 4:15:00 PM 21.88 71.384 0.146 9.3 8.67 9.4
9/14/2021 4:30:00 PM 21.88 71.384 0.146 9.29 8.79 9.36
9/14/2021 4:45:00 PM 21.85 71.33 0.146 9.28 8.98 9.3
9/14/2021 5:00:00 PM 21.8 71.24 0.146 9.25 8.6 9.25
9/14/2021 5:15:00 PM 21.71 71.078 0.147 9.22 8.35 9.14
9/14/2021 5:30:00 PM 21.63 70.934 0.147 9.17 8.71 9.06
9/14/2021 5:45:00 PM 21.53 70.754 0.147 9.11 8.56 8.96
9/14/2021 6:00:00 PM 21.44 70.592 0.148 9.04 9.39 8.87
9/14/2021 6:15:00 PM 21.35 70.43 0.148 8.95 8.65 8.8
9/14/2021 6:30:00 PM 21.26 70.268 0.136 8.85 8.73 8.75
9/14/2021 6:45:00 PM 21.17 70.106 0.149 8.74 8.77 8.68
9/14/2021 7:00:00 PM 21.07 69.926 0.149 8.61 8.9 8.6
9/14/2021 7:15:00 PM 20.98 69.764 0.15 8.47 8.92 8.53
9/14/2021 7:30:00 PM 20.89 69.602 0.15 8.32 8.99 8.46
9/14/2021 7:45:00 PM 20.81 69.458 0.151 8.18 9.17 8.41
9/14/2021 8:00:00 PM 20.74 69.332 0.151 8.07 9.69 8.38
9/14/2021 8:15:00 PM 20.68 69.224 0.152 7.99 9.29 8.36
9/14/2021 8:30:00 PM 20.62 69.116 0.152 7.92 9.52 8.34
9/14/2021 8:45:00 PM 20.57 69.026 0.152 7.87 9.56 8.34
9/14/2021 9:00:00 PM 20.53 68.954 0.152 7.83 9.49 8.33
9/14/2021 9:15:00 PM 20.49 68.882 0.152 7.81 9.65 8.33
9/14/2021 9:30:00 PM 20.46 68.828 0.152 7.78 9.73 8.32
9/14/2021 9:45:00 PM 20.43 68.774 0.152 7.76 9.57 8.32
9/14/2021 10:00:00 PM 20.4 68.72 0.152 7.75 9.43 8.33
9/14/2021 10:15:00 PM 20.36 68.648 0.152 7.73 9.18 8.32
9/14/2021 10:30:00 PM 20.33 68.594 0.152 7.72 9.1 8.33
9/14/2021 10:45:00 PM 20.29 68.522 0.152 7.71 9.19 8.34
9/14/2021 11:00:00 PM 20.25 68.45 0.152 7.7 9.18 8.34
9/14/2021 11:15:00 PM 20.21 68.378 0.152 7.7 9.41 8.35
9/14/2021 11:30:00 PM 20.17 68.306 0.152 7.69 9.51 8.36
9/14/2021 11:45:00 PM 20.13 68.234 0.152 7.68 9.83 8.36
9/15/2021 12:00:00 AM 20.09 68.162 0.152 7.68 9.76 8.36
9/15/2021 12:15:00 AM 20.05 68.09 0.152 7.67 9.77 8.37
9/15/2021 12:30:00 AM 20.01 68.018 0.152 7.67 9.7 8.37
9/15/2021 12:45:00 AM 19.97 67.946 0.152 7.66 9.49 8.39
9/15/2021 1:00:00 AM 19.94 67.892 0.152 7.66 9.46 8.4
9/15/2021 1:15:00 AM 19.91 67.838 0.152 7.66 9.74 8.39
9/15/2021 1:30:00 AM 19.88 67.784 0.152 7.66 9.57 8.41
9/15/2021 1:45:00 AM 19.85 67.73 0.152 7.65 9.66 8.41
9/15/2021 2:00:00 AM 19.82 67.676 0.152 7.65 9.69 8.42
9/15/2021 2:15:00 AM 19.8 67.64 0.152 7.66 9.63 8.42
9/15/2021 2:30:00 AM 19.77 67.586 0.152 7.66 9.58 8.44
9/15/2021 2:45:00 AM 19.74 67.532 0.152 7.65 9.74 8.44
9/15/2021 3:00:00 AM 19.71 67.478 0.151 7.65 9.99 8.45
9/15/2021 3:15:00 AM 19.68 67.424 0.152 7.65 9.89 8.45
9/15/2021 3:30:00 AM 19.66 67.388 0.152 7.65 9.8 8.46
9/15/2021 3:45:00 AM 19.63 67.334 0.152 7.65 9.81 8.46
9/15/2021 4:00:00 AM 19.6 67.28 0.152 7.65 10.08 8.46
9/15/2021 4:15:00 AM 19.57 67.226 0.152 7.64 40.24 8.44
9/15/2021 4:30:00 AM 19.54 67.172 0.152 7.64 9.9 8.48
9/15/2021 4:45:00 AM 19.52 67.136 0.152 7.64 9.89 8.48
9/15/2021 5:00:00 AM 19.49 67.082 0.151 7.63 9.9 8.49
9/15/2021 5:15:00 AM 19.47 67.046 0.152 7.63 9.85 8.49
9/15/2021 5:30:00 AM 19.45 67.01 0.152 7.63 9.81 8.5
9/15/2021 5:45:00 AM 19.43 66.974 0.151 7.62 10.16 8.51
9/15/2021 6:00:00 AM 19.42 66.956 0.152 7.64 24.98 8.49
9/15/2021 6:15:00 AM 19.4 66.92 0.151 7.61 10.5 8.49
9/15/2021 6:30:00 AM 19.38 66.884 0.151 7.61 401.71 8.49
9/15/2021 6:45:00 AM 19.35 66.83 0.151 7.6 1069.74 8.5
9/15/2021 7:00:00 AM 19.32 66.776 0.151 7.6 9.76 8.49
9/15/2021 7:15:00 AM 19.3 66.74 0.151 7.61 9.61 8.56
9/15/2021 7:30:00 AM 19.28 66.704 0.151 7.63 9.65 8.62
9/15/2021 7:45:00 AM 19.27 66.686 0.151 7.64 9.69 8.69
9/15/2021 8:00:00 AM 19.26 66.668 0.151 7.65 9.75 8.77
9/15/2021 8:15:00 AM 19.27 66.686 0.151 7.67 9.71 8.87
9/15/2021 8:30:00 AM 19.29 66.722 0.151 7.7 9.65 8.97
9/15/2021 8:45:00 AM 19.33 66.794 0.151 7.74 9.76 9.06
9/15/2021 9:00:00 AM 19.38 66.884 0.151 7.78 9.66 9.16
9/15/2021 9:15:00 AM 19.44 66.992 0.151 7.82 9.61 9.27
9/15/2021 9:30:00 AM 19.5 67.1 0.151 7.87 9.79 9.36
9/15/2021 9:45:00 AM 19.57 67.226 0.151 7.93 9.69 9.46
9/15/2021 10:00:00 AM 19.66 67.388 0.151 7.99 9.6 9.54
9/15/2021 10:15:00 AM 19.76 67.568 0.151 8.05 9.78 9.61
9/15/2021 10:30:00 AM 19.87 67.766 0.151 8.12 9.49 9.66
9/15/2021 10:45:00 AM 20.02 68.036 0.151 8.21 9.62 9.71
9/15/2021 11:00:00 AM 20.16 68.288 0.151 8.29 9.81 9.75
9/15/2021 11:15:00 AM 20.31 68.558 0.151 8.38 9.64 9.8
9/15/2021 11:30:00 AM 20.48 68.864 0.15 8.47 9.48 9.84
9/15/2021 11:45:00 AM 20.65 69.17 0.15 8.58 9.14 9.85
9/15/2021 12:00:00 PM 20.86 69.548 0.15 8.67 9.04 9.89
9/15/2021 12:15:00 PM 21.06 69.908 0.15 8.75 9.29 9.88
9/15/2021 12:30:00 PM 21.25 70.25 0.15 8.83 9.59 9.85
9/15/2021 12:45:00 PM 21.42 70.556 0.15 8.91 611.48 9.82
9/15/2021 1:00:00 PM 21.53 70.754 0.149 8.95 9.48 9.79
9/15/2021 1:15:00 PM 21.59 70.862 0.149 8.99 9.36 9.63
9/15/2021 1:30:00 PM 21.7 71.06 0.149 9.02 9.3 9.62
9/15/2021 1:45:00 PM 21.75 71.15 0.149 9.03 9.2 9.51
9/15/2021 2:00:00 PM 21.79 71.222 0.148 9.03 8.94 9.28
9/15/2021 2:15:00 PM 21.74 71.132 0.149 9 8.88 9.11
9/15/2021 2:30:00 PM 21.65 70.97 0.149 8.93 8.81 8.95
9/15/2021 2:45:00 PM 21.57 70.826 0.149 8.83 8.9 8.82
9/15/2021 3:00:00 PM 21.49 70.682 0.149 8.73 8.59 8.71
9/15/2021 3:15:00 PM 21.41 70.538 0.15 8.62 8.61 8.65
9/15/2021 3:30:00 PM 21.35 70.43 0.15 8.51 8.65 8.62
9/15/2021 3:45:00 PM 21.28 70.304 0.151 8.4 8.83 8.58
9/15/2021 4:00:00 PM 21.22 70.196 0.151 8.29 8.85 8.54
9/15/2021 4:15:00 PM 21.14 70.052 0.151 8.2 8.76 8.49
9/15/2021 4:30:00 PM 21.06 69.908 0.152 8.12 8.92 8.45
9/15/2021 4:45:00 PM 20.98 69.764 0.152 8.05 1098.14 8.42
9/15/2021 5:00:00 PM 20.89 69.602 0.153 7.97 1231.58 8.4
9/15/2021 5:15:00 PM 20.81 69.458 0.153 7.93 1216.64 8.39
9/15/2021 5:30:00 PM 20.73 69.314 0.153 7.89 1253.61 8.41
9/15/2021 5:45:00 PM 20.67 69.206 0.153 7.86 1129.22 8.42
9/15/2021 6:00:00 PM 20.6 69.08 0.153 7.84 996.53 8.44
9/15/2021 6:15:00 PM 20.53 68.954 0.153 7.83 978.3 8.43
9/15/2021 6:30:00 PM 20.47 68.846 0.152 7.82 941.63 8.44
9/15/2021 6:45:00 PM 20.42 68.756 0.152 7.8 854.73 8.45
9/15/2021 7:00:00 PM 20.37 68.666 0.153 7.79 1103.96 8.45
9/15/2021 7:15:00 PM 20.32 68.576 0.153 7.78 750.64 8.45
9/15/2021 7:30:00 PM 20.27 68.486 0.154 7.76 112.84 8.44
9/15/2021 7:45:00 PM 20.22 68.396 0.154 7.76 9.5 8.44
9/15/2021 8:00:00 PM 20.17 68.306 0.154 7.76 13.33 8.43
9/15/2021 8:15:00 PM 20.13 68.234 0.154 7.73 1671.24 8.45
9/15/2021 8:30:00 PM 20.09 68.162 0.153 7.73 1580.52 8.45
9/15/2021 8:45:00 PM 20.07 68.126 0.153 7.71 1438.3 8.46
9/15/2021 9:00:00 PM 20.04 68.07201 0.153 7.71 1851.72 8.46
9/15/2021 9:15:00 PM 20.01 68.018 0.152 7.71 966.08 8.47
9/15/2021 9:30:00 PM 19.98 67.964 0.152 7.69 1392.72 8.48
9/15/2021 9:45:00 PM 19.95 67.91 0.151 7.69 9.75 8.5
9/15/2021 10:00:00 PM 19.91 67.838 0.151 7.67 9.75 8.5
9/15/2021 10:15:00 PM 19.88 67.784 0.15 7.69 49.67 8.51
9/15/2021 10:30:00 PM 19.85 67.73 0.149 7.66 1121.76 8.52
9/15/2021 10:45:00 PM 19.82 67.676 0.149 7.63 14.21 8.53
9/15/2021 11:00:00 PM 19.79 67.622 0.148 7.65 1204.49 8.53
9/15/2021 11:15:00 PM 19.77 67.586 0.148 7.65 1013.74 8.53
9/15/2021 11:30:00 PM 19.74 67.532 0.148 7.65 825.04 8.53
9/15/2021 11:45:00 PM 19.71 67.478 0.148 7.64 9.87 8.53
9/16/2021 12:00:00 AM 19.68 67.424 0.148 7.65 906.46 8.53
9/16/2021 12:15:00 AM 19.65 67.37 0.147 7.63 807.17 8.52
9/16/2021 12:30:00 AM 19.63 67.334 0.147 7.64 34.21 8.52
9/16/2021 12:45:00 AM 19.6 67.28 0.147 7.65 610.12 8.53
9/16/2021 1:00:00 AM 19.56 67.208 0.148 7.65 10.08 8.54
9/16/2021 1:15:00 AM 19.53 67.154 0.148 7.64 10.23 8.55
9/16/2021 1:30:00 AM 19.48 67.064 0.148 7.64 10.4 8.56
9/16/2021 1:45:00 AM 19.44 66.992 0.148 7.64 10.44 8.57
9/16/2021 2:00:00 AM 19.39 66.902 0.148 7.65 10.46 8.58
9/16/2021 2:15:00 AM 19.34 66.812 0.148 7.64 10.82 8.57
9/16/2021 2:30:00 AM 19.29 66.722 0.148 7.64 10.76 8.59
9/16/2021 2:45:00 AM 19.24 66.632 0.149 7.64 11.03 8.6
9/16/2021 3:00:00 AM 19.19 66.542 0.149 7.63 11.18 8.64
9/16/2021 3:15:00 AM 19.15 66.47 0.149 7.63 11.35 8.65
9/16/2021 3:30:00 AM 19.12 66.416 0.15 7.64 11.26 8.66
9/16/2021 3:45:00 AM 19.09 66.362 0.15 7.63 11.41 8.66
9/16/2021 4:00:00 AM 19.06 66.308 0.149 7.63 11.64 8.68
9/16/2021 4:15:00 AM 19.03 66.254 0.149 7.64 11.87 8.71
9/16/2021 4:30:00 AM 19 66.2 0.149 7.64 11.85 8.72
9/16/2021 4:45:00 AM 18.98 66.164 0.149 7.64 11.72 8.73
9/16/2021 5:00:00 AM 18.94 66.092 0.15 7.65 11.84 8.74
9/16/2021 5:15:00 AM 18.91 66.038 0.15 7.64 12 8.75
9/16/2021 5:30:00 AM 18.88 65.984 0.15 7.64 12.09 8.75
9/16/2021 5:45:00 AM 18.85 65.93 0.151 7.64 12.33 8.77
9/16/2021 6:00:00 AM 18.83 65.894 0.15 7.64 110.21 8.77
9/16/2021 6:15:00 AM 18.8 65.84 0.15 7.64 12.26 8.77
9/16/2021 6:30:00 AM 18.78 65.804 0.149 7.64 45.99 8.77
9/16/2021 6:45:00 AM 18.76 65.768 0.148 7.65 13.5 8.77
9/16/2021 7:00:00 AM 18.74 65.732 0.148 7.65 12.48 8.81
9/16/2021 7:15:00 AM 18.72 65.696 0.147 7.65 12.71 8.81
9/16/2021 7:30:00 AM 18.7 65.66 0.146 7.64 12.63 8.82
9/16/2021 7:45:00 AM 18.69 65.642 0.146 7.65 12.81 8.84
9/16/2021 8:00:00 AM 18.68 65.624 0.145 7.66 12.68 8.89
9/16/2021 8:15:00 AM 18.67 65.606 0.145 7.67 12.49 8.91
9/16/2021 8:30:00 AM 18.67 65.606 0.144 7.67 12.32 8.97
9/16/2021 8:45:00 AM 18.66 65.588 0.144 7.69 12.58 8.99
9/16/2021 9:00:00 AM 18.66 65.588 0.144 7.69 12.85 9.02
9/16/2021 9:15:00 AM 18.65 65.57 0.145 7.71 12.96 9.04
9/16/2021 9:30:00 AM 18.65 65.57 0.145 7.72 12.39 9.11
9/16/2021 9:45:00 AM 18.66 65.588 0.146 7.74 12.41 9.16
9/16/2021 10:00:00 AM 18.68 65.624 0.146 7.76 12.36 9.25
9/16/2021 10:15:00 AM 18.71 65.67799 0.147 7.78 12.4 9.32
9/16/2021 10:30:00 AM 18.7 65.66 0.148 7.8 12.45 9.31
9/16/2021 10:45:00 AM 18.7 65.66 0.149 7.81 12.42 9.33
9/16/2021 11:00:00 AM 18.71 65.67799 0.15 7.83 12.56 9.38
9/16/2021 11:15:00 AM 18.72 65.696 0.15 7.84 12.47 9.35
9/16/2021 11:30:00 AM 18.74 65.732 0.15 7.86 12.38 9.37
9/16/2021 11:45:00 AM 18.76 65.768 0.15 7.87 12.56 9.35
9/16/2021 12:00:00 PM 18.79 65.82201 0.15 7.86 12.54 9.37
9/16/2021 12:15:00 PM 18.9 66.02 0.15 7.88 12.36 9.45
9/16/2021 12:30:00 PM 18.98 66.164 0.149 7.93 12.24 9.53
9/16/2021 12:45:00 PM 19.11 66.398 0.149 7.96 11.99 9.59
9/16/2021 1:00:00 PM 19.24 66.632 0.148 8.02 11.95 9.61
9/16/2021 1:15:00 PM 19.4 66.92 0.148 8.07 11.8 9.63
9/16/2021 1:30:00 PM 19.47 67.046 0.147 8.1 11.78 9.62
9/16/2021 1:45:00 PM 19.56 67.208 0.147 8.13 11.61 9.62
9/16/2021 2:00:00 PM 19.68 67.424 0.146 8.16 11.54 9.64
9/16/2021 2:15:00 PM 19.72 67.496 0.146 8.18 11.5 9.61
9/16/2021 2:30:00 PM 19.74 67.532 0.145 8.19 11.45 9.52
9/16/2021 2:45:00 PM 19.74 67.532 0.145 8.17 11.43 9.46
9/16/2021 3:00:00 PM 19.78 67.604 0.145 8.14 11.39 9.42
9/16/2021 3:15:00 PM 19.84 67.712 0.144 8.13 11.38 9.42
9/16/2021 3:30:00 PM 19.88 67.784 0.144 8.12 11.45 9.39
9/16/2021 3:45:00 PM 19.89 67.802 0.144 8.12 11.45 9.39
9/16/2021 4:00:00 PM 19.9 67.82 0.144 8.12 11.47 9.37
9/16/2021 4:15:00 PM 19.92 67.856 0.145 8.1 11.4 9.3
9/16/2021 4:30:00 PM 19.94 67.892 0.145 8.08 11.63 9.25
9/16/2021 4:45:00 PM 19.96 67.92799 0.146 8.05 11.54 9.18
9/16/2021 5:00:00 PM 19.98 67.964 0.147 8.02 11.56 9.14
9/16/2021 5:15:00 PM 20.01 68.018 0.147 7.99 11.79 9.1
9/16/2021 5:30:00 PM 20.03 68.054 0.148 7.97 11.63 9.04
9/16/2021 5:45:00 PM 20.05 68.09 0.149 7.95 11.6 9.02
9/16/2021 6:00:00 PM 20.06 68.108 0.15 7.92 11.62 8.96
9/16/2021 6:15:00 PM 20.07 68.126 0.15 7.89 11.65 8.91
9/16/2021 6:30:00 PM 20.07 68.126 0.15 7.86 11.69 8.86
9/16/2021 6:45:00 PM 20.06 68.108 0.15 7.84 11.71 8.81
9/16/2021 7:00:00 PM 20.04 68.07201 0.15 7.81 24.14 8.76
9/16/2021 7:15:00 PM 20.01 68.018 0.15 7.79 23.57 8.72
9/16/2021 7:30:00 PM 19.99 67.982 0.15 7.76 22.83 8.71
9/16/2021 7:45:00 PM 19.96 67.92799 0.149 7.75 11.8 8.7
9/16/2021 8:00:00 PM 19.94 67.892 0.149 7.73 11.83 8.68
9/16/2021 8:15:00 PM 19.92 67.856 0.149 7.72 11.84 8.67
9/16/2021 8:30:00 PM 19.9 67.82 0.149 7.7 11.85 8.67
9/16/2021 8:45:00 PM 19.88 67.784 0.149 7.69 11.59 8.68
9/16/2021 9:00:00 PM 19.87 67.766 0.149 7.69 11.82 8.66
9/16/2021 9:15:00 PM 19.85 67.73 0.149 7.68 11.44 8.65
9/16/2021 9:30:00 PM 19.83 67.694 0.149 7.67 11.4 8.66
9/16/2021 9:45:00 PM 19.8 67.64 0.15 7.66 11.14 8.65
9/16/2021 10:00:00 PM 19.77 67.586 0.15 7.66 54.05 8.63
9/16/2021 10:15:00 PM 19.74 67.532 0.151 7.65 50.33 8.63
9/16/2021 10:30:00 PM 19.72 67.496 0.151 7.65 744.36 8.66
9/16/2021 10:45:00 PM 19.69 67.442 0.151 7.66 11.05 8.66
9/16/2021 11:00:00 PM 19.66 67.388 0.152 7.64 25.76 8.65
9/16/2021 11:15:00 PM 19.64 67.352 0.152 7.64 10.91 8.66
9/16/2021 11:30:00 PM 19.61 67.298 0.153 7.64 10.91 8.68
9/16/2021 11:45:00 PM 19.57 67.226 0.153 7.64 91.45 8.66
9/17/2021 12:00:00 AM 19.54 67.172 0.154 7.64 33.06 8.67
9/17/2021 12:15:00 AM 19.49 67.082 0.154 7.64 11.07 8.69
9/17/2021 12:30:00 AM 19.45 67.01 0.154 7.63 11.53 8.7
9/17/2021 12:45:00 AM 19.41 66.938 0.154 7.63 76.23 8.7
9/17/2021 1:00:00 AM 19.37 66.866 0.154 7.63 305.91 8.68
9/17/2021 1:15:00 AM 19.33 66.794 0.154 7.63 54.5 8.7
9/17/2021 1:30:00 AM 19.3 66.74 0.154 7.63 39.51 8.72
9/17/2021 1:45:00 AM 19.27 66.686 0.154 7.63 33.3 8.71
9/17/2021 2:00:00 AM 19.24 66.632 0.154 7.63 66.7 8.72
9/17/2021 2:15:00 AM 19.21 66.578 0.153 7.64 44.88 8.73
9/17/2021 2:30:00 AM 19.19 66.542 0.153 7.63 48.92 8.74
9/17/2021 2:45:00 AM 19.16 66.488 0.153 7.63 39.04 8.74
9/17/2021 3:00:00 AM 19.14 66.452 0.152 7.63 11.09 8.75
9/17/2021 3:15:00 AM 19.12 66.416 0.152 7.63 11.05 8.77
9/17/2021 3:30:00 AM 19.1 66.38 0.151 7.63 11.28 8.75
9/17/2021 3:45:00 AM 19.08 66.344 0.151 7.62 11.03 8.76
9/17/2021 4:00:00 AM 19.06 66.308 0.151 7.62 11.13 8.76
9/17/2021 4:15:00 AM 19.05 66.29 0.151 7.61 11.07 8.77
9/17/2021 4:30:00 AM 19.03 66.254 0.15 7.62 11.07 8.76
9/17/2021 4:45:00 AM 19.02 66.236 0.15 7.61 10.91 8.76
9/17/2021 5:00:00 AM 19.01 66.218 0.15 7.62 11.15 8.77
9/17/2021 5:15:00 AM 19 66.2 0.149 7.61 10.91 8.77
9/17/2021 5:30:00 AM 18.98 66.164 0.149 7.62 10.87 8.76
9/17/2021 5:45:00 AM 18.97 66.146 0.149 7.61 10.81 8.77
9/17/2021 6:00:00 AM 18.96 66.128 0.149 7.6 10.95 8.75
9/17/2021 6:15:00 AM 18.95 66.11 0.148 7.59 10.94 8.77
9/17/2021 6:30:00 AM 18.94 66.092 0.148 7.6 138.14 8.76
9/17/2021 6:45:00 AM 18.93 66.074 0.148 7.6 10.78 8.76
9/17/2021 7:00:00 AM 18.92 66.056 0.148 7.6 10.75 8.76
9/17/2021 7:15:00 AM 18.91 66.038 0.148 7.6 10.59 8.78
9/17/2021 7:30:00 AM 18.9 66.02 0.148 7.6 10.6 8.79
9/17/2021 7:45:00 AM 18.9 66.02 0.147 7.6 13.88 8.82
9/17/2021 8:00:00 AM 18.9 66.02 0.147 7.61 10.37 8.83
9/17/2021 8:15:00 AM 18.9 66.02 0.147 7.61 14.51 8.85
9/17/2021 8:30:00 AM 18.9 66.02 0.147 7.62 13.39 8.88
9/17/2021 8:45:00 AM 18.91 66.038 0.147 7.63 9.92 8.94
9/17/2021 9:00:00 AM 18.91 66.038 0.147 7.64 9.93 8.95
9/17/2021 9:15:00 AM 18.92 66.056 0.147 7.66 9.87 8.94
9/17/2021 9:30:00 AM 18.93 66.074 0.147 7.67 9.8 9.05
9/17/2021 9:45:00 AM 18.95 66.11 0.146 7.68 14.67 8.96
9/17/2021 10:00:00 AM 18.98 66.164 0.146 7.7 10.08 9.2
9/17/2021 10:15:00 AM 19.03 66.254 0.146 7.72 9.79 9.31
9/17/2021 10:30:00 AM 19.07 66.326 0.146 7.77 9.55 9.37
9/17/2021 10:45:00 AM 19.13 66.434 0.146 7.8 9.45 9.48
9/17/2021 11:00:00 AM 19.18 66.524 0.146 7.84 9.41 9.48
9/17/2021 11:15:00 AM 19.22 66.596 0.146 7.87 9.26 9.56
9/17/2021 11:30:00 AM 19.28 66.704 0.146 7.91 9.2 9.62
9/17/2021 11:45:00 AM 19.32 66.776 0.145 7.95 9.28 9.64
9/17/2021 12:00:00 PM 19.35 66.83 0.145 7.98 13.4 9.61
9/17/2021 12:15:00 PM 19.38 66.884 0.145 8 9.01 9.61
9/17/2021 12:30:00 PM 19.45 67.01 0.145 8.03 8.82 9.7
9/17/2021 12:45:00 PM 19.55 67.19 0.145 8.09 10.78 9.79
9/17/2021 1:00:00 PM 19.65 67.37 0.145 8.16 8.92 9.86
9/17/2021 1:15:00 PM 19.8 67.64 0.144 8.24 8.59 9.9
9/17/2021 1:30:00 PM 19.95 67.91 0.144 8.33 8.57 9.93
9/17/2021 1:45:00 PM 20.07 68.126 0.144 8.42 8.48 9.95
9/17/2021 2:00:00 PM 20.18 68.324 0.144 8.51 8.54 9.92
9/17/2021 2:15:00 PM 20.3 68.54 0.143 8.58 8.28 9.89
9/17/2021 2:30:00 PM 20.41 68.738 0.143 8.63 8.21 9.86
9/17/2021 2:45:00 PM 20.49 68.882 0.143 8.67 8.11 9.87
9/17/2021 3:00:00 PM 20.5 68.9 0.143 8.7 8.45 9.79
9/17/2021 3:15:00 PM 20.54 68.972 0.143 8.74 52.96 9.78
9/17/2021 3:30:00 PM 20.59 69.062 0.143 8.76 140.42 9.73
9/17/2021 3:45:00 PM 20.62 69.116 0.143 8.76 7.99 9.66
9/17/2021 4:00:00 PM 20.67 69.206 0.143 8.76 7.96 9.61
9/17/2021 4:15:00 PM 20.72 69.296 0.143 8.73 7.95 9.55
9/17/2021 4:30:00 PM 20.75 69.35 0.143 8.72 7.92 9.53
9/17/2021 4:45:00 PM 20.78 69.404 0.143 8.69 55.06 9.53
9/17/2021 5:00:00 PM 20.8 69.44 0.143 8.66 25.11 9.48
9/17/2021 5:15:00 PM 20.77 69.386 0.143 8.63 54.84 9.39
9/17/2021 5:30:00 PM 20.7 69.26 0.143 8.55 27.73 9.23
9/17/2021 5:45:00 PM 20.65 69.17 0.144 8.45 30.96 9.12
9/17/2021 6:00:00 PM 20.6 69.08 0.144 8.34 22.39 9.02
9/17/2021 6:15:00 PM 20.55 68.99 0.144 8.23 27.9 8.95
9/17/2021 6:30:00 PM 20.5 68.9 0.145 8.13 30.61 8.87
9/17/2021 6:45:00 PM 20.44 68.792 0.145 8.06 93.44 8.81
9/17/2021 7:00:00 PM 20.4 68.72 0.145 7.97 120.51 8.74
9/17/2021 7:15:00 PM 20.35 68.63 0.145 7.91 2135.44 8.69
9/17/2021 7:30:00 PM 20.33 68.594 0.145 7.86 33.72 8.64
9/17/2021 7:45:00 PM 20.31 68.558 0.145 7.82 8.43 8.6
9/17/2021 8:00:00 PM 20.3 68.54 0.145 7.78 8.42 8.59
9/17/2021 8:15:00 PM 20.3 68.54 0.145 7.76 10.82 8.56
9/17/2021 8:30:00 PM 20.29 68.522 0.145 7.74 39.8 8.54
9/17/2021 8:45:00 PM 20.29 68.522 0.145 7.72 464.88 8.53
9/17/2021 9:00:00 PM 20.27 68.486 0.145 7.7 385.14 8.53
9/17/2021 9:15:00 PM 20.25 68.45 0.145 7.68 483.85 8.51
9/17/2021 9:30:00 PM 20.22 68.396 0.145 7.67 62.47 8.53
9/17/2021 9:45:00 PM 20.2 68.36 0.145 7.67 23.13 8.51
9/17/2021 10:00:00 PM 20.17 68.306 0.145 7.66 35.87 8.51
9/17/2021 10:15:00 PM 20.14 68.252 0.145 7.66 27.33 8.52
9/17/2021 10:30:00 PM 20.1 68.18 0.145 7.65 16.67 8.52
9/17/2021 10:45:00 PM 20.07 68.126 0.145 7.65 78.88 8.51
9/17/2021 11:00:00 PM 20.03 68.054 0.145 7.64 8.49 8.53
9/17/2021 11:15:00 PM 19.99 67.982 0.145 7.64 8.5 8.53
9/17/2021 11:30:00 PM 19.95 67.91 0.145 7.65 8.79 8.54
9/17/2021 11:45:00 PM 19.91 67.838 0.145 7.65 11.42 8.54
9/18/2021 12:00:00 AM 19.88 67.784 0.145 7.64 76.87 8.54
9/18/2021 12:15:00 AM 19.85 67.73 0.145 7.63 516.77 8.55
9/18/2021 12:30:00 AM 19.83 67.694 0.145 7.63 67.34 8.55
9/18/2021 12:45:00 AM 19.8 67.64 0.145 7.63 8.34 8.58
9/18/2021 1:00:00 AM 19.77 67.586 0.145 7.62 8.48 8.58
9/18/2021 1:15:00 AM 19.75 67.55 0.146 7.62 8.43 8.58
9/18/2021 1:30:00 AM 19.72 67.496 0.146 7.63 8.42 8.59
9/18/2021 1:45:00 AM 19.68 67.424 0.146 7.62 8.41 8.59
9/18/2021 2:00:00 AM 19.64 67.352 0.146 7.63 8.38 8.59
9/18/2021 2:15:00 AM 19.59 67.262 0.146 7.63 8.51 8.61
9/18/2021 2:30:00 AM 19.55 67.19 0.146 7.62 8.57 8.61
9/18/2021 2:45:00 AM 19.5 67.1 0.144 7.62 8.48 8.61
9/18/2021 3:00:00 AM 19.47 67.046 0.146 7.62 8.38 8.63
9/18/2021 3:15:00 AM 19.43 66.974 0.145 7.61 8.48 8.65
9/18/2021 3:30:00 AM 19.4 66.92 0.146 7.61 8.59 8.65
9/18/2021 3:45:00 AM 19.37 66.866 0.147 7.61 8.62 8.65
9/18/2021 4:00:00 AM 19.35 66.83 0.143 7.61 8.46 8.66
9/18/2021 4:15:00 AM 19.33 66.794 0.147 7.62 8.63 8.67
9/18/2021 4:30:00 AM 19.31 66.758 0.147 7.62 8.53 8.68
9/18/2021 4:45:00 AM 19.28 66.704 0.147 7.63 8.58 8.67
9/18/2021 5:00:00 AM 19.26 66.668 0.147 7.62 8.51 8.69
9/18/2021 5:15:00 AM 19.23 66.614 0.147 7.62 8.57 8.69
9/18/2021 5:30:00 AM 19.21 66.578 0.147 7.61 8.58 8.7
9/18/2021 5:45:00 AM 19.19 66.542 0.147 7.62 8.56 8.69
9/18/2021 6:00:00 AM 19.17 66.506 0.146 7.6 120.18 8.69
9/18/2021 6:15:00 AM 19.15 66.47 0.146 7.6 8.63 8.7
9/18/2021 6:30:00 AM 19.12 66.416 0.147 7.61 8.54 8.71
9/18/2021 6:45:00 AM 19.1 66.38 0.147 7.62 8.57 8.71
9/18/2021 7:00:00 AM 19.07 66.326 0.147 7.61 8.52 8.73
9/18/2021 7:15:00 AM 19.06 66.308 0.147 7.63 8.6 8.74
9/18/2021 7:30:00 AM 19.04 66.272 0.147 7.63 8.69 8.75
9/18/2021 7:45:00 AM 19.03 66.254 0.147 7.64 8.44 8.79
9/18/2021 8:00:00 AM 19.02 66.236 0.147 7.63 8.54 8.84
9/18/2021 8:15:00 AM 19.02 66.236 0.147 7.64 8.5 8.93
9/18/2021 8:30:00 AM 19.04 66.272 0.147 7.68 8.44 9.05
9/18/2021 8:45:00 AM 19.06 66.308 0.147 7.71 8.33 9.13
9/18/2021 9:00:00 AM 19.08 66.344 0.147 7.72 8.43 9.18
9/18/2021 9:15:00 AM 19.11 66.398 0.147 7.76 8.21 9.29
9/18/2021 9:30:00 AM 19.16 66.488 0.147 7.81 8.22 9.38
9/18/2021 9:45:00 AM 19.22 66.596 0.147 7.84 8.26 9.47
9/18/2021 10:00:00 AM 19.31 66.758 0.147 7.9 8.18 9.56
9/18/2021 10:15:00 AM 19.36 66.848 0.147 7.95 8.08 9.62
9/18/2021 10:30:00 AM 19.38 66.884 0.147 8 8.01 9.63
9/18/2021 10:45:00 AM 19.4 66.92 0.147 8.03 7.91 9.65
9/18/2021 11:00:00 AM 19.42 66.956 0.147 8.04 7.86 9.7
9/18/2021 11:15:00 AM 19.52 67.136 0.146 8.12 7.8 9.84
9/18/2021 11:30:00 AM 19.64 67.352 0.146 8.18 7.75 9.86
9/18/2021 11:45:00 AM 19.72 67.496 0.146 8.26 7.69 9.84
9/18/2021 12:00:00 PM 19.91 67.838 0.146 8.31 7.68 9.86
9/18/2021 12:15:00 PM 20.06 68.108 0.146 8.41 7.65 9.84
9/18/2021 12:30:00 PM 20.26 68.468 0.145 8.46 7.49 9.85
9/18/2021 12:45:00 PM 20.45 68.81 0.146 8.52 7.55 9.79
9/18/2021 1:00:00 PM 20.58 69.044 0.146 8.6 7.45 9.78
9/18/2021 1:15:00 PM 20.72 69.296 0.146 8.62 7.48 9.74
9/18/2021 1:30:00 PM 20.81 69.458 0.146 8.65 7.43 9.73
9/18/2021 1:45:00 PM 20.9 69.62 0.146 8.7 7.35 9.72
9/18/2021 2:00:00 PM 21.03 69.854 0.146 8.75 7.44 9.71
9/18/2021 2:15:00 PM 21.18 70.124 0.146 8.8 7.3 9.71
9/18/2021 2:30:00 PM 21.29 70.32201 0.146 8.83 7.29 9.65
9/18/2021 2:45:00 PM 21.38 70.484 0.146 8.85 7.21 9.6
9/18/2021 3:00:00 PM 21.46 70.628 0.146 8.87 7.2 9.58
9/18/2021 3:15:00 PM 21.49 70.682 0.146 8.89 7.18 9.57
9/18/2021 3:30:00 PM 21.41 70.538 0.146 8.88 7.11 9.52
9/18/2021 3:45:00 PM 21.34 70.412 0.147 8.85 7.23 9.46
9/18/2021 4:00:00 PM 21.26 70.268 0.147 8.84 7.14 9.36
9/18/2021 4:15:00 PM 21.19 70.142 0.147 8.78 7.08 9.31
9/18/2021 4:30:00 PM 21.14 70.052 0.147 8.73 7.16 9.29
9/18/2021 4:45:00 PM 21.1 69.98 0.147 8.72 7.14 9.3
9/18/2021 5:00:00 PM 21.07 69.926 0.147 8.67 7.07 9.26
9/18/2021 5:15:00 PM 21.02 69.836 0.147 8.63 7.05 9.23
9/18/2021 5:30:00 PM 20.97 69.746 0.148 8.58 7.04 9.17
9/18/2021 5:45:00 PM 20.93 69.674 0.148 8.5 7.08 9.12
9/18/2021 6:00:00 PM 20.9 69.62 0.148 8.43 7.06 9.06
9/18/2021 6:15:00 PM 20.88 69.584 0.148 8.35 7.04 8.97
9/18/2021 6:30:00 PM 20.87 69.566 0.148 8.26 7.13 8.88
9/18/2021 6:45:00 PM 20.86 69.548 0.148 8.17 1144.83 8.78
9/18/2021 7:00:00 PM 20.85 69.53 0.148 8.09 1832.11 8.69
9/18/2021 7:15:00 PM 20.83 69.494 0.149 8 1151.69 8.61
9/18/2021 7:30:00 PM 20.8 69.44 0.149 7.9 9.76 8.53
9/18/2021 7:45:00 PM 20.77 69.386 0.149 7.85 78.25 8.48
9/18/2021 8:00:00 PM 20.73 69.314 0.149 7.81 1268.15 8.45
9/18/2021 8:15:00 PM 20.7 69.26 0.149 7.78 535.3 8.42
9/18/2021 8:30:00 PM 20.67 69.206 0.149 7.76 452.7 8.42
9/18/2021 8:45:00 PM 20.64 69.152 0.149 7.73 1049.59 8.42
9/18/2021 9:00:00 PM 20.6 69.08 0.149 7.73 215.42 8.41
9/18/2021 9:15:00 PM 20.56 69.008 0.149 7.7 974.38 8.42
9/18/2021 9:30:00 PM 20.51 68.918 0.149 7.68 922.69 8.42
9/18/2021 9:45:00 PM 20.47 68.846 0.15 7.68 1131.03 8.43
9/18/2021 10:00:00 PM 20.42 68.756 0.15 7.68 1354.26 8.42
9/18/2021 10:15:00 PM 20.36 68.648 0.15 7.67 1193.33 8.43
9/18/2021 10:30:00 PM 20.31 68.558 0.15 7.66 1848.81 8.44
9/18/2021 10:45:00 PM 20.25 68.45 0.15 7.66 69.43 8.45
9/18/2021 11:00:00 PM 20.2 68.36 0.15 7.65 7.58 8.47
9/18/2021 11:15:00 PM 20.14 68.252 0.15 7.66 7.63 8.48
9/18/2021 11:30:00 PM 20.08 68.144 0.15 7.65 7.55 8.49
9/18/2021 11:45:00 PM 20.01 68.018 0.15 7.65 7.66 8.5
9/19/2021 12:00:00 AM 19.95 67.91 0.15 7.64 7.75 8.51
9/19/2021 12:15:00 AM 19.88 67.784 0.15 7.64 7.55 8.53
9/19/2021 12:30:00 AM 19.81 67.658 0.149 7.65 7.51 8.55
9/19/2021 12:45:00 AM 19.73 67.514 0.15 7.64 7.83 8.56
9/19/2021 1:00:00 AM 19.66 67.388 0.15 7.64 7.53 8.58
9/19/2021 1:15:00 AM 19.59 67.262 0.15 7.63 7.53 8.59
9/19/2021 1:30:00 AM 19.52 67.136 0.15 7.64 7.56 8.61
9/19/2021 1:45:00 AM 19.44 66.992 0.15 7.64 7.61 8.62
9/19/2021 2:00:00 AM 19.36 66.848 0.15 7.63 7.61 8.64
9/19/2021 2:15:00 AM 19.28 66.704 0.151 7.64 7.68 8.65
9/19/2021 2:30:00 AM 19.2 66.56 0.146 7.63 7.68 8.67
9/19/2021 2:45:00 AM 19.12 66.416 0.151 7.64 7.77 8.69
9/19/2021 3:00:00 AM 19.05 66.29 0.151 7.64 7.72 8.7
9/19/2021 3:15:00 AM 18.97 66.146 0.151 7.63 7.7 8.72
9/19/2021 3:30:00 AM 18.9 66.02 0.151 7.64 7.79 8.73
9/19/2021 3:45:00 AM 18.82 65.876 0.151 7.64 7.72 8.75
9/19/2021 4:00:00 AM 18.75 65.75 0.151 7.64 7.77 8.77
9/19/2021 4:15:00 AM 18.68 65.624 0.151 7.63 7.73 8.78
9/19/2021 4:30:00 AM 18.62 65.516 0.151 7.63 7.79 8.8
9/19/2021 4:45:00 AM 18.55 65.39 0.151 7.63 7.75 8.81
9/19/2021 5:00:00 AM 18.49 65.282 0.151 7.64 7.85 8.83
9/19/2021 5:15:00 AM 18.42 65.156 0.151 7.64 7.76 8.84
9/19/2021 5:30:00 AM 18.36 65.048 0.152 7.64 8.02 8.86
9/19/2021 5:45:00 AM 18.31 64.958 0.152 7.64 382.52 8.87
9/19/2021 6:00:00 AM 18.25 64.85 0.152 7.65 611.54 8.88
9/19/2021 6:15:00 AM 18.2 64.76 0.152 7.64 677.42 8.89
9/19/2021 6:30:00 AM 18.15 64.67 0.152 7.64 7.98 8.9
9/19/2021 6:45:00 AM 18.09 64.562 0.152 7.64 8.38 8.92
9/19/2021 7:00:00 AM 18.05 64.49 0.152 7.64 7.76 8.94
9/19/2021 7:15:00 AM 18.01 64.418 0.152 7.66 7.76 8.98
9/19/2021 7:30:00 AM 17.97 64.346 0.152 7.66 7.67 9.02
9/19/2021 7:45:00 AM 17.93 64.274 0.152 7.68 7.73 9.08
9/19/2021 8:00:00 AM 17.9 64.22 0.152 7.68 7.7 9.17
9/19/2021 8:15:00 AM 17.87 64.166 0.152 7.7 7.57 9.26
9/19/2021 8:30:00 AM 17.83 64.094 0.152 7.73 7.62 9.35
9/19/2021 8:45:00 AM 17.82 64.076 0.152 7.76 7.64 9.46
9/19/2021 9:00:00 AM 17.82 64.076 0.151 7.8 7.57 9.6
9/19/2021 9:15:00 AM 17.82 64.076 0.151 7.84 7.58 9.73
9/19/2021 9:30:00 AM 17.84 64.112 0.151 7.89 7.53 9.77
9/19/2021 9:45:00 AM 17.87 64.166 0.151 7.92 7.45 9.79
9/19/2021 10:00:00 AM 17.91 64.238 0.151 7.96 7.32 9.83
9/19/2021 10:15:00 AM 17.99 64.382 0.151 7.99 7.41 9.87
9/19/2021 10:30:00 AM 18.07 64.526 0.151 8.03 7.34 9.91
9/19/2021 10:45:00 AM 18.16 64.688 0.151 8.08 7.33 9.96
9/19/2021 11:00:00 AM 18.25 64.85 0.151 8.13 7.21 9.99
9/19/2021 11:15:00 AM 18.35 65.03 0.151 8.19 7.32 10.03
9/19/2021 11:30:00 AM 18.45 65.21 0.151 8.25 7.13 10.05
9/19/2021 11:45:00 AM 18.55 65.39 0.15 8.29 7.12 10.08
9/19/2021 12:00:00 PM 18.69 65.642 0.15 8.36 7.17 10.09
9/19/2021 12:15:00 PM 18.84 65.912 0.15 8.43 7.03 10.09
9/19/2021 12:30:00 PM 18.99 66.182 0.15 8.49 7.15 10.07
9/19/2021 12:45:00 PM 19.15 66.47 0.149 8.54 7.32 10.07
9/19/2021 1:00:00 PM 19.31 66.758 0.149 8.6 7.12 10.05
9/19/2021 1:15:00 PM 19.44 66.992 0.149 8.66 7.53 10.02
9/19/2021 1:30:00 PM 19.59 67.262 0.149 8.72 6.84 10
9/19/2021 1:45:00 PM 19.72 67.496 0.149 8.76 6.83 9.96
9/19/2021 2:00:00 PM 19.84 67.712 0.149 8.8 6.85 9.94
9/19/2021 2:15:00 PM 19.94 67.892 0.149 8.83 6.76 9.9
9/19/2021 2:30:00 PM 20.03 68.054 0.149 8.86 6.81 9.84
9/19/2021 2:45:00 PM 20.09 68.162 0.149 8.87 6.76 9.81
9/19/2021 3:00:00 PM 20.13 68.234 0.149 8.89 6.67 9.79
9/19/2021 3:15:00 PM 20.16 68.288 0.149 8.89 6.66 9.76
9/19/2021 3:30:00 PM 20.17 68.306 0.149 8.88 6.64 9.73
9/19/2021 3:45:00 PM 20.17 68.306 0.149 8.88 229.62 9.68
9/19/2021 4:00:00 PM 20.15 68.27 0.149 8.86 666.48 9.64
9/19/2021 4:15:00 PM 20.09 68.162 0.149 8.84 336.81 9.6
9/19/2021 4:30:00 PM 20.01 68.018 0.149 8.81 351.93 9.57
9/19/2021 4:45:00 PM 19.91 67.838 0.15 8.76 276.91 9.53
9/19/2021 5:00:00 PM 19.8 67.64 0.15 8.7 24.7 9.48
9/19/2021 5:15:00 PM 19.68 67.424 0.15 8.62 43.38 9.42
9/19/2021 5:30:00 PM 19.55 67.19 0.151 8.55 82.3 9.37
9/19/2021 5:45:00 PM 19.41 66.938 0.151 8.46 330.06 9.31
9/19/2021 6:00:00 PM 19.28 66.704 0.151 8.35 26.24 9.25
9/19/2021 6:15:00 PM 19.15 66.47 0.152 8.26 94.33 9.18
9/19/2021 6:30:00 PM 19.02 66.236 0.152 8.16 91.38 9.11
9/19/2021 6:45:00 PM 18.89 66.002 0.152 8.07 1476.19 9.04
9/19/2021 7:00:00 PM 18.79 65.82201 0.152 7.98 6.81 9.01
9/19/2021 7:15:00 PM 18.69 65.642 0.152 7.93 6.79 8.98
9/19/2021 7:30:00 PM 18.61 65.498 0.152 7.89 6.93 8.94
9/19/2021 7:45:00 PM 18.53 65.354 0.152 7.85 6.9 8.93
9/19/2021 8:00:00 PM 18.47 65.246 0.152 7.83 6.94 8.92
9/19/2021 8:15:00 PM 18.42 65.156 0.152 7.81 6.9 8.91
9/19/2021 8:30:00 PM 18.37 65.066 0.152 7.79 6.92 8.91
9/19/2021 8:45:00 PM 18.33 64.994 0.152 7.77 6.84 8.91
9/19/2021 9:00:00 PM 18.28 64.904 0.152 7.76 6.83 8.91
9/19/2021 9:15:00 PM 18.24 64.832 0.152 7.77 32.5 8.87
9/19/2021 9:30:00 PM 18.19 64.742 0.152 7.73 462.77 8.91
9/19/2021 9:45:00 PM 18.15 64.67 0.152 7.71 6.96 8.91
9/19/2021 10:00:00 PM 18.1 64.58 0.152 7.71 61.6 8.92
9/19/2021 10:15:00 PM 18.06 64.508 0.151 7.7 117.36 8.91
9/19/2021 10:30:00 PM 18 64.4 0.152 7.7 148.58 8.92
9/19/2021 10:45:00 PM 17.95 64.31 0.152 7.7 167.99 8.94
9/19/2021 11:00:00 PM 17.89 64.202 0.152 7.69 7.1 8.97
9/19/2021 11:15:00 PM 17.82 64.076 0.152 7.68 7.02 8.98
9/19/2021 11:30:00 PM 17.76 63.968 0.152 7.68 7.09 9
9/19/2021 11:45:00 PM 17.69 63.842 0.152 7.68 11.46 9.01
9/20/2021 12:00:00 AM 17.63 63.734 0.152 7.68 7.1 9.03
9/20/2021 12:15:00 AM 17.55 63.59 0.152 7.68 7.12 9.05
9/20/2021 12:30:00 AM 17.48 63.464 0.152 7.67 7.32 9.05
9/20/2021 12:45:00 AM 17.41 63.338 0.152 7.67 7.3 9.07
9/20/2021 1:00:00 AM 17.33 63.194 0.152 7.67 7.14 9.09
9/20/2021 1:15:00 AM 17.25 63.05 0.152 7.66 7.18 9.11
9/20/2021 1:30:00 AM 17.18 62.924 0.152 7.67 7.23 9.12
9/20/2021 1:45:00 AM 17.11 62.798 0.152 7.66 59.13 9.13
9/20/2021 2:00:00 AM 17.03 62.654 0.152 7.67 273.76 9.15
9/20/2021 2:15:00 AM 16.96 62.528 0.152 7.66 122.98 9.17
9/20/2021 2:30:00 AM 16.88 62.384 0.152 7.67 7.46 9.19
9/20/2021 2:45:00 AM 16.8 62.24 0.152 7.67 7.37 9.21
9/20/2021 3:00:00 AM 16.72 62.096 0.152 7.67 7.36 9.21
9/20/2021 3:15:00 AM 16.65 61.97 0.152 7.65 25.53 9.24
9/20/2021 3:30:00 AM 16.57 61.826 0.152 7.66 22.58 9.25
9/20/2021 3:45:00 AM 16.49 61.682 0.152 7.66 20.05 9.28
9/20/2021 4:00:00 AM 16.41 61.538 0.152 7.66 20.05 9.29
9/20/2021 4:15:00 AM 16.33 61.394 0.152 7.66 19.28 9.32
9/20/2021 4:30:00 AM 16.25 61.25 0.153 7.66 18.66 9.34
9/20/2021 4:45:00 AM 16.17 61.106 0.153 7.65 18.92 9.35
9/20/2021 5:00:00 AM 16.1 60.98 0.153 7.66 7.5 9.37
9/20/2021 5:15:00 AM 16.03 60.854 0.153 7.66 7.46 9.4
9/20/2021 5:30:00 AM 15.95 60.71 0.153 7.66 8.44 9.4
9/20/2021 5:45:00 AM 15.88 60.584 0.153 7.66 7.51 9.43
9/20/2021 6:00:00 AM 15.8 60.44 0.153 7.66 7.46 9.45
9/20/2021 6:15:00 AM 15.74 60.332 0.153 7.66 7.52 9.47
9/20/2021 6:30:00 AM 15.67 60.206 0.153 7.66 7.43 9.49
9/20/2021 6:45:00 AM 15.6 60.08 0.153 7.66 7.48 9.49
9/20/2021 7:00:00 AM 15.53 59.954 0.153 7.66 7.54 9.54
9/20/2021 7:15:00 AM 15.47 59.846 0.153 7.66 7.42 9.57
9/20/2021 7:30:00 AM 15.41 59.738 0.153 7.68 7.44 9.62
9/20/2021 7:45:00 AM 15.36 59.648 0.153 7.68 7.39 9.67
9/20/2021 8:00:00 AM 15.32 59.576 0.153 7.69 9.89 9.73
9/20/2021 8:15:00 AM 15.29 59.522 0.153 7.7 7.37 9.79
9/20/2021 8:30:00 AM 15.27 59.486 0.153 7.72 7.27 9.87
9/20/2021 8:45:00 AM 15.27 59.486 0.153 7.74 7.27 9.94
9/20/2021 9:00:00 AM 15.29 59.522 0.153 7.77 7.24 10.02
9/20/2021 9:15:00 AM 15.32 59.576 0.153 7.79 7.23 10.1
9/20/2021 9:30:00 AM 15.38 59.684 0.153 7.82 7.17 10.18
9/20/2021 9:45:00 AM 15.46 59.828 0.153 7.85 7.13 10.25
9/20/2021 10:00:00 AM 15.57 60.026 0.153 7.89 7.11 10.32
9/20/2021 10:15:00 AM 15.69 60.242 0.153 7.93 6.99 10.36
9/20/2021 10:30:00 AM 15.83 60.494 0.153 7.98 6.99 10.4
9/20/2021 10:45:00 AM 15.99 60.782 0.152 8.02 6.98 10.45
9/20/2021 11:00:00 AM 16.15 61.07 0.152 8.08 6.9 10.48
9/20/2021 11:15:00 AM 16.31 61.358 0.152 8.13 6.86 10.5
9/20/2021 11:30:00 AM 16.5 61.7 0.152 8.18 6.8 10.52
9/20/2021 11:45:00 AM 16.67 62.006 0.152 8.25 6.79 10.52
9/20/2021 12:00:00 PM 16.86 62.348 0.151 8.32 6.75 10.51
9/20/2021 12:15:00 PM 17.06 62.708 0.151 8.38 6.81 10.5
9/20/2021 12:30:00 PM 17.28 63.104 0.151 8.44 6.67 10.47
9/20/2021 12:45:00 PM 17.51 63.518 0.151 8.5 6.68 10.45
9/20/2021 1:00:00 PM 17.74 63.932 0.15 8.57 6.63 10.41
9/20/2021 1:15:00 PM 18.02 64.436 0.148 8.3 3.12 11.18
9/20/2021 1:30:00 PM 18.12 64.616 0.426 8.5 2.95 11.24
9/20/2021 1:45:00 PM 18.32 64.976 0.623 8.52 3.1 11.2
9/20/2021 2:00:00 PM 18.51 65.318 0.388 8.6 2.9 11.17
9/20/2021 2:15:00 PM 18.69 65.642 0.439 8.62 3.08 11.12
9/20/2021 2:30:00 PM 18.84 65.912 0.908 8.65 2.95 11.05
9/20/2021 2:45:00 PM 18.97 66.146 0.238 8.68 3.03 11.03
9/20/2021 3:00:00 PM 19.06 66.308 1.241 8.7 3.07 10.95
9/20/2021 3:15:00 PM 19.14 66.452 0.16 8.72 2.97 10.95
9/20/2021 3:30:00 PM 19.18 66.524 1.498 8.74 2.81 10.87
9/20/2021 3:45:00 PM 19.22 66.596 1.04 8.74 2.8 10.84
9/20/2021 4:00:00 PM 19.22 66.596 0.861 8.73 3.07 10.79
9/20/2021 4:15:00 PM 19.2 66.56 0.147 8.71 2.85 10.77
9/20/2021 4:30:00 PM 19.14 66.452 0.148 8.7 3.09 10.74
9/20/2021 4:45:00 PM 19.06 66.308 0.148 8.66 2.89 10.7
9/20/2021 5:00:00 PM 18.94 66.092 0.148 8.6 3.09 10.62
9/20/2021 5:15:00 PM 18.85 65.93 0.148 8.54 2.9 10.59
9/20/2021 5:30:00 PM 18.75 65.75 0.149 8.48 3.26 10.55
9/20/2021 5:45:00 PM 18.66 65.588 0.151 8.41 3.06 10.51
9/20/2021 6:00:00 PM 18.54 65.372 4.7 8.29 3.33 10.29
9/20/2021 6:15:00 PM 18.42 65.156 5.029 8.15 3.04 10.19
9/20/2021 6:30:00 PM 18.3 64.94 5.185 7.98 3.25 10.08
9/20/2021 6:45:00 PM 18.18 64.724 5.082 7.86 3.12 10.01
9/20/2021 7:00:00 PM 18.08 64.544 4.742 7.75 3.32 9.95
9/20/2021 7:15:00 PM 17.97 64.346 0.153 7.71 3.38 10.04
9/20/2021 7:30:00 PM 17.88 64.184 0.153 7.63 3.26 9.99
9/20/2021 7:45:00 PM 17.8 64.04 0.152 7.58 3.17 9.97
9/20/2021 8:00:00 PM 17.73 63.914 0.152 7.56 3.31 9.95
9/20/2021 8:15:00 PM 17.68 63.824 0.151 7.54 3.25 9.93
9/20/2021 8:30:00 PM 17.63 63.734 0.152 7.52 3.13 9.93
9/20/2021 8:45:00 PM 17.6 63.68 9.009 7.46 3.31 9.63
9/20/2021 9:00:00 PM 17.57 63.626 6.05 7.45 3.07 9.73
9/20/2021 9:15:00 PM 17.54 63.572 6.213 7.44 3.28 9.82
9/20/2021 9:30:00 PM 17.51 63.518 7.843 7.41 3.07 9.67
9/20/2021 9:45:00 PM 17.49 63.482 6.062 7.4 3.71 9.72
9/20/2021 10:00:00 PM 17.46 63.428 6.022 7.4 3.52 9.72
9/20/2021 10:15:00 PM 17.44 63.392 6.065 7.4 3.09 9.72
9/20/2021 10:30:00 PM 17.42 63.356 5.959 7.4 3.43 9.73
9/20/2021 10:45:00 PM 17.39 63.302 6.062 7.39 3.37 9.74
9/20/2021 11:00:00 PM 17.37 63.266 6.088 7.39 3.15 9.74
9/20/2021 11:15:00 PM 17.35 63.23 6.19 7.39 3.43 9.74
9/20/2021 11:30:00 PM 17.33 63.194 6.149 7.39 3.42 9.74
9/20/2021 11:45:00 PM 17.32 63.176 6.248 7.39 3.5 9.74
9/21/2021 12:00:00 AM 17.3 63.14 6.091 7.38 3.27 9.76
9/21/2021 12:15:00 AM 17.29 63.122 6.201 7.39 3.18 9.76
9/21/2021 12:30:00 AM 17.27 63.086 5.794 7.4 3.26 9.78
9/21/2021 12:45:00 AM 17.24 63.032 6.243 7.4 3.13 9.77
9/21/2021 1:00:00 AM 17.2 62.96 6.345 7.39 3.49 9.77
9/21/2021 1:15:00 AM 17.17 62.906 6.375 7.4 3.16 9.78
9/21/2021 1:30:00 AM 17.14 62.852 6.449 7.4 3.45 9.79
9/21/2021 1:45:00 AM 17.1 62.78 6.356 7.4 3.15 9.8
9/21/2021 2:00:00 AM 17.07 62.726 6.19 7.39 3.46 9.81
9/21/2021 2:15:00 AM 17.04 62.672 0.295 7.42 3.21 10.03
9/21/2021 2:30:00 AM 17.01 62.618 6.299 7.4 3.75 9.83
9/21/2021 2:45:00 AM 16.98 62.564 0.153 7.43 3.53 10.04
9/21/2021 3:00:00 AM 16.95 62.51 0.28 7.4 3.82 10.04
9/21/2021 3:15:00 AM 16.92 62.456 0.126 7.41 3.84 10.05
9/21/2021 3:30:00 AM 16.89 62.402 0.153 7.4 3.26 10.05
9/21/2021 3:45:00 AM 16.87 62.366 0.35 7.38 3.55 10.05
9/21/2021 4:00:00 AM 16.84 62.312 6.463 7.39 3.19 9.86
9/21/2021 4:15:00 AM 16.81 62.258 6.715 7.4 3.6 10.06
9/21/2021 4:30:00 AM 16.77 62.186 0.119 7.4 3.6 10.08
9/21/2021 4:45:00 AM 16.73 62.114 6.074 7.36 3.71 9.89
9/21/2021 5:00:00 AM 16.69 62.042 6.27 7.39 3.7 9.9
9/21/2021 5:15:00 AM 16.64 61.952 6.32 7.38 3.64 9.9
9/21/2021 5:30:00 AM 16.59 61.862 6.022 7.37 3.45 9.93
9/21/2021 5:45:00 AM 16.53 61.754 6.03 7.36 3.47 9.94
9/21/2021 6:00:00 AM 16.48 61.664 5.975 7.37 3.62 9.96
9/21/2021 6:15:00 AM 16.42 61.556 6.221 7.37 3.58 9.96
9/21/2021 6:30:00 AM 16.36 61.448 0.068 7.39 3.65 10.18
9/21/2021 6:45:00 AM 16.3 61.34 5.912 7.37 3.44 10
9/21/2021 7:00:00 AM 16.24 61.232 5.922 7.37 3.67 10.02
9/21/2021 7:15:00 AM 16.19 61.142 5.76 7.38 3.48 10.07
9/21/2021 7:30:00 AM 16.14 61.052 0.155 7.42 3.43 10.31
9/21/2021 7:45:00 AM 16.1 60.98 0.154 7.44 3.29 10.4
9/21/2021 8:00:00 AM 16.07 60.926 0.153 7.46 3.42 10.49
9/21/2021 8:15:00 AM 16.06 60.908 0.154 7.49 3.36 10.58
9/21/2021 8:30:00 AM 16.05 60.89 6.357 7.48 3.21 10.44
9/21/2021 8:45:00 AM 16.06 60.908 6.429 7.52 3.34 10.51
9/21/2021 9:00:00 AM 16.08 60.944 6.29 7.56 3.12 10.62
9/21/2021 9:15:00 AM 16.1 60.98 6.232 7.6 3.33 10.68
9/21/2021 9:30:00 AM 16.15 61.07 0.153 7.67 3.05 10.95
9/21/2021 9:45:00 AM 16.22 61.196 0.153 7.75 3.02 11.15
9/21/2021 10:00:00 AM 16.31 61.358 0.152 7.85 3.29 11.31
9/21/2021 10:15:00 AM 16.4 61.52 0.203 7.95 3.09 11.4
9/21/2021 10:30:00 AM 16.5 61.7 6.469 8.02 3.18 11.19
9/21/2021 10:45:00 AM 16.56 61.808 6.446 8.08 3.35 11.19
9/21/2021 11:00:00 AM 16.71 62.078 6.365 8.18 2.98 11.28
9/21/2021 11:15:00 AM 16.8 62.24 6.344 8.25 3.08 11.26
9/21/2021 11:30:00 AM 16.95 62.51 6.229 8.32 2.89 11.19
9/21/2021 11:45:00 AM 17.05 62.69 0.151 8.42 2.9 11.44
9/21/2021 12:00:00 PM 17.12 62.816 0.151 8.46 3.16 11.48
9/21/2021 12:15:00 PM 17.25 63.05 0.15 8.54 3.11 11.57
9/21/2021 12:30:00 PM 17.37 63.266 0.15 8.62 3.11 11.55
9/21/2021 12:45:00 PM 17.55 63.59 0.15 8.68 2.84 11.56
9/21/2021 1:00:00 PM 17.66 63.788 0.149 8.73 3.12 11.54
9/21/2021 1:15:00 PM 17.81 64.058 0.149 8.78 2.99 11.55
9/21/2021 1:30:00 PM 17.9 64.22 0.148 8.82 2.91 11.46
9/21/2021 1:45:00 PM 17.99 64.382 0.148 8.86 3.14 11.45
9/21/2021 2:00:00 PM 18.05 64.49 0.148 8.88 3.04 11.33
9/21/2021 2:15:00 PM 18.11 64.598 0.148 8.89 3.02 11.27
9/21/2021 2:30:00 PM 18.14 64.652 0.148 8.89 3.03 11.21
9/21/2021 2:45:00 PM 18.2 64.76 0.148 8.91 3.08 11.25
9/21/2021 3:00:00 PM 18.24 64.832 0.147 8.92 2.82 11.2
9/21/2021 3:15:00 PM 18.28 64.904 0.147 8.93 2.8 11.16
9/21/2021 3:30:00 PM 18.3 64.94 0.148 8.94 3.1 11.09
9/21/2021 3:45:00 PM 18.31 64.958 0.148 8.93 2.86 11.04
9/21/2021 4:00:00 PM 18.33 64.994 0.147 8.93 2.89 11
9/21/2021 4:15:00 PM 18.34 65.012 0.147 8.92 2.94 10.94
9/21/2021 4:30:00 PM 18.36 65.048 0.148 8.91 2.96 10.88
9/21/2021 4:45:00 PM 18.36 65.048 0.148 8.88 2.98 10.76
9/21/2021 5:00:00 PM 18.36 65.048 0.148 8.85 2.94 10.74
9/21/2021 5:15:00 PM 18.36 65.048 0.148 8.82 3 10.75
9/21/2021 5:30:00 PM 18.36 65.048 0.148 8.81 3.18 10.72
9/21/2021 5:45:00 PM 18.35 65.03 0.148 8.78 3.16 10.67
9/21/2021 6:00:00 PM 18.33 64.994 0.149 8.74 2.83 10.6
9/21/2021 6:15:00 PM 18.3 64.94 4.765 8.63 2.91 10.31
9/21/2021 6:30:00 PM 18.26 64.868 5.279 8.49 3.23 10.13
9/21/2021 6:45:00 PM 18.21 64.778 5.121 8.33 3.08 10.03
9/21/2021 7:00:00 PM 18.17 64.706 6.245 8.15 3.03 9.9
9/21/2021 7:15:00 PM 18.13 64.634 6.167 7.99 3.23 9.82
9/21/2021 7:30:00 PM 18.08 64.544 6.319 7.86 3.17 9.77
9/21/2021 7:45:00 PM 18.04 64.472 6.383 7.77 3 9.73
9/21/2021 8:00:00 PM 18 64.4 6.531 7.69 2.95 9.69
9/21/2021 8:15:00 PM 17.97 64.346 6.512 7.64 3.08 9.67
9/21/2021 8:30:00 PM 17.93 64.274 6.719 7.6 2.94 9.65
9/21/2021 8:45:00 PM 17.9 64.22 6.478 7.56 3 9.65
9/21/2021 9:00:00 PM 17.87 64.166 6.689 7.54 3.08 9.64
9/21/2021 9:15:00 PM 17.83 64.094 7.328 7.51 3.26 9.72
9/21/2021 9:30:00 PM 17.8 64.04 5.264 7.49 3.49 9.69
9/21/2021 9:45:00 PM 17.76 63.968 6.786 7.48 3.65 9.62
9/21/2021 10:00:00 PM 17.71 63.878 6.592 7.47 3.36 9.64
9/21/2021 10:15:00 PM 17.67 63.806 6.629 7.45 3.39 9.64
9/21/2021 10:30:00 PM 17.63 63.734 6.307 7.46 3.18 9.65
9/21/2021 10:45:00 PM 17.59 63.662 6.599 7.46 3.34 9.66
9/21/2021 11:00:00 PM 17.55 63.59 6.717 7.44 2.97 9.66
9/21/2021 11:15:00 PM 17.51 63.518 6.527 7.43 3.13 9.66
9/21/2021 11:30:00 PM 17.49 63.482 6.626 7.43 3.45 9.67
9/21/2021 11:45:00 PM 17.46 63.428 6.56 7.41 3.28 9.68
9/22/2021 12:00:00 AM 17.44 63.392 6.726 7.42 3.77 9.68
9/22/2021 12:15:00 AM 17.43 63.374 6.784 7.42 3.37 9.68
9/22/2021 12:30:00 AM 17.41 63.338 6.757 7.4 3.4 9.68
9/22/2021 12:45:00 AM 17.4 63.32 6.808 7.41 3.6 9.68
9/22/2021 1:00:00 AM 17.39 63.302 4.477 7.42 3.36 9.75
9/22/2021 1:15:00 AM 17.39 63.302 6.793 7.42 3.43 9.69
9/22/2021 1:30:00 AM 17.38 63.284 6.723 7.4 3.3 9.69
9/22/2021 1:45:00 AM 17.36 63.248 6.781 7.39 3.13 9.69
9/22/2021 2:00:00 AM 17.35 63.23 6.754 7.38 3.37 9.69
9/22/2021 2:15:00 AM 17.33 63.194 6.788 7.39 3.15 9.69
9/22/2021 2:30:00 AM 17.31 63.158 6.809 7.38 3.23 9.69
9/22/2021 2:45:00 AM 17.3 63.14 6.898 7.38 3.41 9.69
9/22/2021 3:00:00 AM 17.29 63.122 0.155 7.42 3.37 9.91
9/22/2021 3:15:00 AM 17.28 63.104 0.154 7.42 3.63 9.91
9/22/2021 3:30:00 AM 17.28 63.104 0.153 7.42 3.39 9.92
9/22/2021 3:45:00 AM 17.27 63.086 0.153 7.42 3.44 9.91
9/22/2021 4:00:00 AM 17.26 63.068 0.154 7.41 3.28 9.92
9/22/2021 4:15:00 AM 17.25 63.05 7.069 7.37 3.4 9.69
9/22/2021 4:30:00 AM 17.25 63.05 7.006 7.37 3.78 9.69
9/22/2021 4:45:00 AM 17.24 63.032 6.907 7.36 3.45 9.7
9/22/2021 5:00:00 AM 17.23 63.014 7.105 7.37 3.29 9.69
9/22/2021 5:15:00 AM 17.22 62.996 5.427 7.37 3.27 9.75
9/22/2021 5:30:00 AM 17.21 62.978 6.805 7.36 3.16 9.69
9/22/2021 5:45:00 AM 17.2 62.96 0.156 7.4 3.4 9.91
9/22/2021 6:00:00 AM 17.19 62.942 5.061 7.37 3.34 9.76
9/22/2021 6:15:00 AM 17.18 62.924 4.77 7.37 3.3 9.78
9/22/2021 6:30:00 AM 17.18 62.924 6.823 7.36 3.43 9.7
9/22/2021 6:45:00 AM 17.17 62.906 5.062 7.37 3.43 9.72
9/22/2021 7:00:00 AM 17.17 62.906 7.956 7.36 3.48 9.71
9/22/2021 7:15:00 AM 17.17 62.906 4.495 7.38 3.4 9.8
9/22/2021 7:30:00 AM 17.17 62.906 6.927 7.38 3.36 9.76
9/22/2021 7:45:00 AM 17.18 62.924 4.396 7.4 3.1 9.89
9/22/2021 8:00:00 AM 17.19 62.942 1.322 7.42 3.15 10.08
9/22/2021 8:15:00 AM 17.22 62.996 2.474 7.45 3.15 10.07
9/22/2021 8:30:00 AM 17.25 63.05 6.948 7.47 3.48 10.08
9/22/2021 8:45:00 AM 17.29 63.122 6.916 7.52 3.01 10.16
9/22/2021 9:00:00 AM 17.34 63.212 0.356 7.56 3.19 10.49
9/22/2021 9:15:00 AM 17.4 63.32 6.784 7.62 3.03 10.35
9/22/2021 9:30:00 AM 17.49 63.482 6.811 7.7 3.74 10.51
9/22/2021 9:45:00 AM 17.58 63.644 6.998 7.79 3.41 10.62
9/22/2021 10:00:00 AM 17.71 63.878 6.61 7.89 3.41 10.76
9/22/2021 10:15:00 AM 17.78 64.004 6.82 7.94 4.11 10.64
9/22/2021 10:30:00 AM 17.84 64.112 6.772 7.95 4.24 10.56
9/22/2021 10:45:00 AM 17.89 64.202 6.774 7.97 5.41 10.62
9/22/2021 11:00:00 AM 17.96 64.328 6.938 8.04 3.04 10.71
9/22/2021 11:15:00 AM 18.04 64.472 7.007 8.1 2.83 10.72
9/22/2021 11:30:00 AM 18.15 64.67 6.859 8.22 2.97 10.84
9/22/2021 11:45:00 AM 18.24 64.832 6.732 8.32 3.22 10.89
9/22/2021 12:00:00 PM 18.33 64.994 6.396 8.4 3.02 10.87
9/22/2021 12:15:00 PM 18.41 65.138 6.719 8.46 3.13 10.83
9/22/2021 12:30:00 PM 18.48 65.264 6.876 8.5 3.22 10.78
9/22/2021 12:45:00 PM 18.55 65.39 6.847 8.54 2.88 10.76
9/22/2021 1:00:00 PM 18.63 65.534 6.697 8.58 3.11 10.76
9/22/2021 1:15:00 PM 18.7 65.66 6.812 8.62 2.94 10.74
9/22/2021 1:30:00 PM 18.74 65.732 6.804 8.61 3.02 10.53
9/22/2021 1:45:00 PM 18.78 65.804 6.72 8.61 3.13 10.45
9/22/2021 2:00:00 PM 18.81 65.858 6.803 8.58 3.02 10.44
9/22/2021 2:15:00 PM 18.82 65.876 6.757 8.53 2.78 10.33
9/22/2021 2:30:00 PM 18.83 65.894 6.819 8.51 2.89 10.26
9/22/2021 2:45:00 PM 18.86 65.948 6.992 8.5 2.77 10.3
9/22/2021 3:00:00 PM 18.88 65.984 6.831 8.48 3.13 10.26
9/22/2021 3:15:00 PM 18.9 66.02 6.686 8.46 3 10.21
9/22/2021 3:30:00 PM 18.94 66.092 6.868 8.46 2.9 10.24
9/22/2021 3:45:00 PM 18.96 66.128 6.855 8.46 3.22 10.24
9/22/2021 4:00:00 PM 19 66.2 6.996 8.47 2.97 10.24
9/22/2021 4:15:00 PM 19.03 66.254 6.772 8.47 2.97 10.24
9/22/2021 4:30:00 PM 19.04 66.272 6.887 8.46 2.91 10.14
9/22/2021 4:45:00 PM 19.05 66.29 6.646 8.4 2.89 10.02
9/22/2021 5:00:00 PM 19.04 66.272 6.718 8.29 2.93 9.9
9/22/2021 5:15:00 PM 19.02 66.236 0.143 8.18 2.95 10.01
9/22/2021 5:30:00 PM 19 66.2 0.125 8.04 3.02 9.67
9/22/2021 5:45:00 PM 18.99 66.182 0.075 7.95 2.93 9.88
9/22/2021 6:00:00 PM 18.97 66.146 3.772 7.87 3.07 9.7
9/22/2021 6:15:00 PM 18.95 66.11 6.893 7.79 2.83 9.57
9/22/2021 6:30:00 PM 18.92 66.056 6.807 7.73 2.92 9.52
9/22/2021 6:45:00 PM 18.9 66.02 6.855 7.69 3.2 9.48
9/22/2021 7:00:00 PM 18.87 65.966 0.157 7.67 2.92 9.65
9/22/2021 7:15:00 PM 18.85 65.93 7.569 7.64 3.37 9.61
9/22/2021 7:30:00 PM 18.83 65.894 7.151 7.58 3.3 9.37
9/22/2021 7:45:00 PM 18.81 65.858 7.252 7.56 3.2 9.35
9/22/2021 8:00:00 PM 18.8 65.84 7.014 7.53 3.12 9.34
9/22/2021 8:15:00 PM 18.79 65.82201 7.02 7.53 3.38 9.34
9/22/2021 8:30:00 PM 18.78 65.804 0.151 7.53 3.23 9.54
9/22/2021 8:45:00 PM 18.78 65.804 0.159 7.54 3.12 9.54
9/22/2021 9:00:00 PM 18.77 65.786 7.155 7.48 3 9.31
9/22/2021 9:15:00 PM 18.76 65.768 7.114 7.48 3.16 9.31
9/22/2021 9:30:00 PM 18.75 65.75 7.049 7.47 3.01 9.31
9/22/2021 9:45:00 PM 18.74 65.732 7.186 7.45 3.04 9.31
9/22/2021 10:00:00 PM 18.73 65.714 7.222 7.47 3.52 9.31
9/22/2021 10:15:00 PM 18.72 65.696 0.159 7.5 3.28 9.53
9/22/2021 10:30:00 PM 18.72 65.696 0.159 7.5 2.97 9.53
9/22/2021 10:45:00 PM 18.7 65.66 0.158 7.5 3.11 9.53
9/22/2021 11:00:00 PM 18.7 65.66 0.157 7.48 3.65 9.53
9/22/2021 11:15:00 PM 18.69 65.642 0.156 7.5 3.3 9.53
9/22/2021 11:30:00 PM 18.67 65.606 0.156 7.48 3.38 9.53
9/22/2021 11:45:00 PM 18.67 65.606 0.156 7.47 3.08 9.53
9/23/2021 12:00:00 AM 18.66 65.588 0.156 7.49 3.29 9.53
9/23/2021 12:15:00 AM 18.66 65.588 0.156 7.49 3.06 9.54
9/23/2021 12:30:00 AM 18.66 65.588 0.155 7.47 3.19 9.53
9/23/2021 12:45:00 AM 18.65 65.57 0.155 7.47 3.38 9.53
9/23/2021 1:00:00 AM 18.65 65.57 0.155 7.48 3.33 9.54
9/23/2021 1:15:00 AM 18.65 65.57 0.155 7.47 3.2 9.53
9/23/2021 1:30:00 AM 18.65 65.57 0.155 7.48 3.02 9.53
9/23/2021 1:45:00 AM 18.65 65.57 0.155 7.45 3.29 9.53
9/23/2021 2:00:00 AM 18.65 65.57 0.155 7.47 3.52 9.53
9/23/2021 2:15:00 AM 18.65 65.57 0.155 7.46 3.43 9.53
9/23/2021 2:30:00 AM 18.65 65.57 0.081 7.46 3.4 9.53
9/23/2021 2:45:00 AM 18.65 65.57 6.489 7.43 3.45 9.31
9/23/2021 3:00:00 AM 18.65 65.57 0.072 7.46 3.2 9.52
9/23/2021 3:15:00 AM 18.65 65.57 0.144 7.44 3.2 9.52
9/23/2021 3:30:00 AM 18.66 65.588 0.066 7.45 3.11 9.52
9/23/2021 3:45:00 AM 18.67 65.606 5.726 7.43 3.52 9.34
9/23/2021 4:00:00 AM 18.68 65.624 0.182 7.45 3.26 9.51
9/23/2021 4:15:00 AM 18.68 65.624 5.695 7.43 3.34 9.34
9/23/2021 4:30:00 AM 18.68 65.624 0.158 7.43 3.44 9.5
9/23/2021 4:45:00 AM 18.68 65.624 0.343 7.44 3.5 9.51
9/23/2021 5:00:00 AM 18.69 65.642 7.133 7.4 3.43 9.29
9/23/2021 5:15:00 AM 18.7 65.66 0.207 7.44 3.32 9.51
9/23/2021 5:30:00 AM 18.69 65.642 0.156 7.45 3.22 9.5
9/23/2021 5:45:00 AM 18.68 65.624 7.071 7.41 3.33 9.28
9/23/2021 6:00:00 AM 18.67 65.606 7.119 7.41 3.32 9.28
9/23/2021 6:15:00 AM 18.67 65.606 7.117 7.4 3.28 9.28
9/23/2021 6:30:00 AM 18.67 65.606 0.168 7.45 3.74 9.51
9/23/2021 6:45:00 AM 18.67 65.606 7.092 7.42 3.32 9.29
9/23/2021 7:00:00 AM 18.67 65.606 0.219 7.43 3.14 9.51
9/23/2021 7:15:00 AM 18.67 65.606 7.141 7.41 3.4 9.3
9/23/2021 7:30:00 AM 18.68 65.624 3.409 7.45 3.49 9.37
9/23/2021 7:45:00 AM 18.69 65.642 0.324 7.42 3.39 9.62
9/23/2021 8:00:00 AM 18.72 65.696 6.919 7.44 3.24 9.51
9/23/2021 8:15:00 AM 18.76 65.768 6.961 7.49 3.45 9.65
9/23/2021 8:30:00 AM 18.8 65.84 6.85 7.54 3.29 9.72
9/23/2021 8:45:00 AM 18.82 65.876 8.893 7.56 3.29 9.65
9/23/2021 9:00:00 AM 18.83 65.894 7.132 7.56 3.36 9.65
9/23/2021 9:15:00 AM 18.85 65.93 0.189 7.59 3.24 9.91
9/23/2021 9:30:00 AM 18.86 65.948 6.944 7.57 3.5 9.72
9/23/2021 9:45:00 AM 18.89 66.002 7.234 7.6 3.41 9.73
9/23/2021 10:00:00 AM 18.91 66.038 6.985 7.6 3.26 9.74
9/23/2021 10:15:00 AM 18.93 66.074 7.172 7.61 3.68 9.7
9/23/2021 10:30:00 AM 18.94 66.092 7.047 7.61 3.34 9.67
9/23/2021 10:45:00 AM 18.95 66.11 7.091 7.59 3.22 9.63
9/23/2021 11:00:00 AM 18.95 66.11 6.977 7.56 3.35 9.6
9/23/2021 11:15:00 AM 18.96 66.128 6.919 7.55 3.75 9.55
9/23/2021 11:30:00 AM 18.94 66.092 7.68 7.55 3.94 9.73
9/23/2021 11:45:00 AM 18.88 65.984 6.852 7.49 4.22 9.5
9/23/2021 12:00:00 PM 18.84 65.912 6.843 7.47 4.54 9.5
9/23/2021 12:15:00 PM 18.79 65.82201 5.411 7.45 5.23 9.55
9/23/2021 12:30:00 PM 18.73 65.714 6.817 7.43 7.12 9.5
9/23/2021 12:45:00 PM 18.67 65.606 7.127 7.42 10.52 9.47
9/23/2021 1:00:00 PM 18.61 65.498 6.791 7.37 11.51 9.47
9/23/2021 1:15:00 PM 18.55 65.39 6.604 7.34 14.37 9.46
9/23/2021 1:30:00 PM 18.49 65.282 6.508 7.31 13.69 9.46
9/23/2021 1:45:00 PM 18.45 65.21 6.417 7.3 16.79 9.46
9/23/2021 2:00:00 PM 18.4 65.12 6.511 7.28 19.29 9.49
9/23/2021 2:15:00 PM 18.36 65.048 6.905 7.27 21.89 9.5
9/23/2021 2:30:00 PM 18.3 64.94 6.562 7.27 23.64 9.54
9/23/2021 2:45:00 PM 18.23 64.814 6.519 7.27 38.46 9.54
9/23/2021 3:00:00 PM 18.17 64.706 6.288 7.24 48.52 9.55
9/23/2021 3:15:00 PM 18.17 64.706 0.057 7.24 58.13 9.55
9/23/2021 3:30:00 PM 18.23 64.814 6.135 7.23 52.9 9.55
9/23/2021 3:45:00 PM 18.29 64.922 6.139 7.24 45.62 9.55
9/23/2021 4:00:00 PM 18.35 65.03 6.15 7.26 39.15 9.58
9/23/2021 4:15:00 PM 18.38 65.084 6.173 7.28 35.8 9.59
9/23/2021 4:30:00 PM 18.39 65.102 6.413 7.28 36.32 9.56
9/23/2021 4:45:00 PM 18.4 65.12 6.047 7.26 41.34 9.54
9/23/2021 5:00:00 PM 18.41 65.138 5.976 7.26 44.15 9.53
9/23/2021 5:15:00 PM 18.43 65.174 5.911 7.25 43.35 9.52
9/23/2021 5:30:00 PM 18.43 65.174 5.722 7.24 42 9.52
9/23/2021 5:45:00 PM 18.42 65.156 5.798 7.25 43.71 9.52
9/23/2021 6:00:00 PM 18.42 65.156 5.745 7.23 44.92 9.52
9/23/2021 6:15:00 PM 18.42 65.156 5.8 7.23 40.11 9.53
9/23/2021 6:30:00 PM 18.41 65.138 5.68 7.23 38.57 9.53
9/23/2021 6:45:00 PM 18.4 65.12 5.85 7.25 39.11 9.53
9/23/2021 7:00:00 PM 18.37 65.066 5.906 7.2 38.39 9.53
9/23/2021 7:15:00 PM 18.33 64.994 5.933 7.21 40.82 9.52
9/23/2021 7:30:00 PM 18.3 64.94 5.983 7.2 42.48 9.51
9/23/2021 7:45:00 PM 18.27 64.886 6.023 7.18 47.53 9.51
9/23/2021 8:00:00 PM 18.25 64.85 6.05 7.17 49.21 9.51
9/23/2021 8:15:00 PM 18.22 64.796 5.966 7.17 65.02 9.52
9/23/2021 8:30:00 PM 18.19 64.742 5.939 7.15 59.47 9.53
9/23/2021 8:45:00 PM 18.15 64.67 5.903 7.15 58.25 9.54
9/23/2021 9:00:00 PM 18.1 64.58 5.86 7.14 54.11 9.56
9/23/2021 9:15:00 PM 18.06 64.508 5.695 7.14 53.84 9.56
9/23/2021 9:30:00 PM 18.03 64.454 5.747 7.15 52.28 9.58
9/23/2021 9:45:00 PM 17.99 64.382 5.649 7.15 48.62 9.59
9/23/2021 10:00:00 PM 17.96 64.328 5.667 7.18 47.68 9.6
9/23/2021 10:15:00 PM 17.93 64.274 5.797 7.19 43.94 9.61
9/23/2021 10:30:00 PM 17.9 64.22 5.745 7.18 41.66 9.63
9/23/2021 10:45:00 PM 17.85 64.13 5.764 7.18 39.23 9.64
9/23/2021 11:00:00 PM 17.81 64.058 5.736 7.17 36.38 9.65
9/23/2021 11:15:00 PM 17.76 63.968 5.787 7.18 35.31 9.65
9/23/2021 11:30:00 PM 17.72 63.896 5.683 7.19 33.43 9.67
9/23/2021 11:45:00 PM 17.67 63.806 5.716 7.19 31.83 9.67
9/24/2021 12:00:00 AM 17.62 63.716 5.894 7.2 35.1 9.68
9/24/2021 12:15:00 AM 17.57 63.626 5.727 7.2 36.69 9.68
9/24/2021 12:30:00 AM 17.52 63.536 5.755 7.18 34.65 9.69
9/24/2021 12:45:00 AM 17.46 63.428 5.834 7.17 35.33 9.7
9/24/2021 1:00:00 AM 17.4 63.32 5.806 7.18 33.59 9.71
9/24/2021 1:15:00 AM 17.34 63.212 5.808 7.17 33.16 9.73
9/24/2021 1:30:00 AM 17.29 63.122 5.742 7.19 30.73 9.74
9/24/2021 1:45:00 AM 17.23 63.014 5.777 7.19 31.3 9.76
9/24/2021 2:00:00 AM 17.18 62.924 5.826 7.19 30.89 9.77
9/24/2021 2:15:00 AM 17.12 62.816 5.845 7.2 29.92 9.79
9/24/2021 2:30:00 AM 17.08 62.744 5.841 7.19 29.19 9.81
9/24/2021 2:45:00 AM 17.04 62.672 5.88 7.2 29.49 9.81
9/24/2021 3:00:00 AM 16.99 62.582 5.866 7.2 28.67 9.82
9/24/2021 3:15:00 AM 16.94 62.492 5.868 7.2 27.72 9.83
9/24/2021 3:30:00 AM 16.9 62.42 5.817 7.2 26.94 9.84
9/24/2021 3:45:00 AM 16.85 62.33 5.957 7.21 30.64 9.85
9/24/2021 4:00:00 AM 16.8 62.24 5.916 7.21 26.87 9.86
9/24/2021 4:15:00 AM 16.76 62.168 5.937 7.21 28.43 9.87
9/24/2021 4:30:00 AM 16.7 62.06 5.816 7.21 29.54 9.89
9/24/2021 4:45:00 AM 16.65 61.97 5.953 7.19 29.36 9.89
9/24/2021 5:00:00 AM 16.59 61.862 5.93 7.2 30.68 9.91
9/24/2021 5:15:00 AM 16.54 61.772 5.883 7.19 29.9 9.92
9/24/2021 5:30:00 AM 16.5 61.7 5.875 7.18 29.85 9.94
9/24/2021 5:45:00 AM 16.46 61.628 5.739 7.19 28.96 9.96
9/24/2021 6:00:00 AM 16.41 61.538 5.731 7.16 27.65 9.96
9/24/2021 6:15:00 AM 16.38 61.484 5.748 7.17 28.49 9.98
9/24/2021 6:30:00 AM 16.34 61.412 5.71 7.18 25.83 9.99
9/24/2021 6:45:00 AM 16.31 61.358 5.801 7.19 24.05 10
9/24/2021 7:00:00 AM 16.28 61.304 5.877 7.19 24.96 10
9/24/2021 7:15:00 AM 16.24 61.232 5.731 7.19 24.36 10.02
9/24/2021 7:30:00 AM 16.21 61.178 5.734 7.2 23.37 10.03
9/24/2021 7:45:00 AM 16.17 61.106 5.651 7.17 23.25 10.04
9/24/2021 8:00:00 AM 16.14 61.052 5.624 7.19 23.38 10.06
9/24/2021 8:15:00 AM 16.11 60.998 5.575 7.2 23.42 10.07
9/24/2021 8:30:00 AM 16.08 60.944 5.564 7.16 23.26 10.08
9/24/2021 8:45:00 AM 16.05 60.89 5.522 7.15 24.15 10.09
9/24/2021 9:00:00 AM 16.03 60.854 5.508 7.16 23.66 10.1
9/24/2021 9:15:00 AM 16.03 60.854 5.538 7.15 24.14 10.11
9/24/2021 9:30:00 AM 16.04 60.872 5.489 7.14 23.16 10.12
9/24/2021 9:45:00 AM 16.06 60.908 5.436 7.17 24.21 10.13
9/24/2021 10:00:00 AM 16.07 60.926 5.496 7.17 22.95 10.14
9/24/2021 10:15:00 AM 16.09 60.962 5.406 7.2 23.18 10.15
9/24/2021 10:30:00 AM 16.12 61.016 5.453 7.2 23.1 10.17
9/24/2021 10:45:00 AM 16.15 61.07 5.636 7.22 23.97 10.17
9/24/2021 11:00:00 AM 16.2 61.16 5.637 7.21 22.89 10.19
9/24/2021 11:15:00 AM 16.26 61.268 5.607 7.24 23.18 10.21
9/24/2021 11:30:00 AM 16.33 61.394 5.52 7.25 23.78 10.24
9/24/2021 11:45:00 AM 16.36 61.448 5.658 7.24 22.91 10.25
9/24/2021 12:00:00 PM 16.41 61.538 5.659 7.25 24.5 10.26
9/24/2021 12:15:00 PM 16.44 61.592 5.605 7.26 22.19 10.25
9/24/2021 12:30:00 PM 16.48 61.664 5.635 7.27 21.96 10.26
9/24/2021 12:45:00 PM 16.54 61.772 5.636 7.29 21.64 10.28
9/24/2021 1:00:00 PM 16.64 61.952 5.571 7.3 21.19 10.3
9/24/2021 1:15:00 PM 16.76 62.168 5.554 7.32 21.23 10.3
9/24/2021 1:30:00 PM 16.81 62.258 5.6 7.33 20.38 10.29
9/24/2021 1:45:00 PM 16.8 62.24 5.64 7.33 21 10.28
9/24/2021 2:00:00 PM 16.89 62.402 5.581 7.33 18.68 10.28
9/24/2021 2:15:00 PM 17.04 62.672 5.551 7.35 19.84 10.31
9/24/2021 2:30:00 PM 17.12 62.816 5.645 7.37 20.34 10.3
9/24/2021 2:45:00 PM 17.2 62.96 5.629 7.37 17.77 10.29
9/24/2021 3:00:00 PM 17.23 63.014 5.632 7.38 18.51 10.27
9/24/2021 3:15:00 PM 17.2 62.96 5.597 7.37 17.53 10.23
9/24/2021 3:30:00 PM 17.25 63.05 5.648 7.37 17.96 10.23
9/24/2021 3:45:00 PM 17.27 63.086 5.699 7.37 18.07 10.21
9/24/2021 4:00:00 PM 17.26 63.068 5.635 7.37 17.17 10.18
9/24/2021 4:15:00 PM 17.31 63.158 5.564 7.37 15.33 10.17
9/24/2021 4:30:00 PM 17.34 63.212 5.678 7.38 16.93 10.16
9/24/2021 4:45:00 PM 17.36 63.248 5.571 7.37 16.51 10.14
9/24/2021 5:00:00 PM 17.38 63.284 5.506 7.36 16.18 10.11
9/24/2021 5:15:00 PM 17.38 63.284 5.671 7.36 15.77 10.07
9/24/2021 5:30:00 PM 17.37 63.266 5.604 7.34 15.28 10.04
9/24/2021 5:45:00 PM 17.38 63.284 5.548 7.33 15.5 10.02
9/24/2021 6:00:00 PM 17.35 63.23 5.479 7.31 15.13 10
9/24/2021 6:15:00 PM 17.32 63.176 5.535 7.29 15.05 9.97
9/24/2021 6:30:00 PM 17.29 63.122 5.526 7.25 15.12 9.95
9/24/2021 6:45:00 PM 17.25 63.05 5.489 7.24 14.5 9.95
9/24/2021 7:00:00 PM 17.2 62.96 5.538 7.21 14.02 9.94
9/24/2021 7:15:00 PM 17.15 62.87 5.512 7.21 14.14 9.95
9/24/2021 7:30:00 PM 17.09 62.762 5.556 7.19 14.12 9.95
9/24/2021 7:45:00 PM 17.03 62.654 5.569 7.19 13.87 9.95
9/24/2021 8:00:00 PM 16.97 62.546 5.564 7.17 13.74 9.95
9/24/2021 8:15:00 PM 16.91 62.438 5.55 7.19 13.65 9.95
9/24/2021 8:30:00 PM 16.84 62.312 5.576 7.2 12.98 9.97
9/24/2021 8:45:00 PM 16.77 62.186 5.531 7.19 12.96 9.98
9/24/2021 9:00:00 PM 16.69 62.042 5.549 7.2 12.62 9.99
9/24/2021 9:15:00 PM 16.61 61.898 5.584 7.19 12.85 10.01
9/24/2021 9:30:00 PM 16.52 61.736 5.578 7.16 12.95 10.03
9/24/2021 9:45:00 PM 16.44 61.592 5.562 7.18 12.48 10.04
9/24/2021 10:00:00 PM 16.35 61.43 5.491 7.18 12.52 10.06
9/24/2021 10:15:00 PM 16.27 61.286 5.557 7.18 11.78 10.08
9/24/2021 10:30:00 PM 16.19 61.142 5.53 7.17 11.89 10.09
9/24/2021 10:45:00 PM 16.11 60.998 5.559 7.18 11.66 10.1
9/24/2021 11:00:00 PM 16.04 60.872 5.533 7.16 12.19 10.12
9/24/2021 11:15:00 PM 15.97 60.746 5.564 7.17 11.29 10.14
9/24/2021 11:30:00 PM 15.9 60.62 5.572 7.16 11.37 10.15
9/24/2021 11:45:00 PM 15.84 60.512 5.53 7.19 11.72 10.17
9/25/2021 12:00:00 AM 15.77 60.386 5.615 7.17 10.89 10.18
9/25/2021 12:15:00 AM 15.71 60.278 5.555 7.18 10.79 10.19
9/25/2021 12:30:00 AM 15.65 60.17 5.627 7.16 10.51 10.2
9/25/2021 12:45:00 AM 15.59 60.062 5.637 7.17 10.87 10.21
9/25/2021 1:00:00 AM 15.53 59.954 5.613 7.17 9.94 10.23
9/25/2021 1:15:00 AM 15.47 59.846 5.616 7.17 10.32 10.24
9/25/2021 1:30:00 AM 15.41 59.738 5.606 7.18 9.65 10.26
9/25/2021 1:45:00 AM 15.35 59.63 5.631 7.17 9.7 10.27
9/25/2021 2:00:00 AM 15.28 59.504 5.626 7.16 9.79 10.29
9/25/2021 2:15:00 AM 15.22 59.396 5.579 7.16 9.73 10.31
9/25/2021 2:30:00 AM 15.16 59.288 5.607 7.16 9.24 10.32
9/25/2021 2:45:00 AM 15.09 59.162 5.61 7.14 9.18 10.33
9/25/2021 3:00:00 AM 15.03 59.054 5.601 7.18 9.36 10.35
9/25/2021 3:15:00 AM 14.97 58.946 5.582 7.17 9.76 10.37
9/25/2021 3:30:00 AM 14.91 58.838 5.585 7.17 8.99 10.37
9/25/2021 3:45:00 AM 14.84 58.712 5.614 7.17 8.98 10.39
9/25/2021 4:00:00 AM 14.78 58.604 5.613 7.17 8.83 10.41
9/25/2021 4:15:00 AM 14.73 58.514 5.649 7.17 8.91 10.41
9/25/2021 4:30:00 AM 14.68 58.424 5.622 7.17 8.51 10.43
9/25/2021 4:45:00 AM 14.64 58.352 5.573 7.17 8.4 10.45
9/25/2021 5:00:00 AM 14.59 58.262 5.535 7.19 8.6 10.46
9/25/2021 5:15:00 AM 14.54 58.172 5.607 7.17 8.35 10.47
9/25/2021 5:30:00 AM 14.49 58.082 5.616 7.19 8.49 10.48
9/25/2021 5:45:00 AM 14.44 57.992 5.634 7.18 8.22 10.49
9/25/2021 6:00:00 AM 14.4 57.92 5.557 7.17 7.95 10.5
9/25/2021 6:15:00 AM 14.36 57.848 5.569 7.19 8.22 10.52
9/25/2021 6:30:00 AM 14.32 57.776 5.675 7.2 8.07 10.52
9/25/2021 6:45:00 AM 14.29 57.722 5.575 7.2 8.02 10.54
9/25/2021 7:00:00 AM 14.24 57.632 5.666 7.18 7.84 10.55
9/25/2021 7:15:00 AM 14.2 57.56 5.612 7.18 7.62 10.57
9/25/2021 7:30:00 AM 14.17 57.506 5.727 7.19 7.64 10.58
9/25/2021 7:45:00 AM 14.14 57.452 5.639 7.19 7.35 10.61
9/25/2021 8:00:00 AM 14.12 57.416 5.652 7.21 6.95 10.65
9/25/2021 8:15:00 AM 14.11 57.398 5.568 7.23 6.39 10.7
9/25/2021 8:30:00 AM 14.1 57.38 5.651 7.22 6.32 10.76
9/25/2021 8:45:00 AM 14.09 57.362 5.694 7.26 6.22 10.79
9/25/2021 9:00:00 AM 14.1 57.38 5.607 7.27 6.19 10.85
9/25/2021 9:15:00 AM 14.12 57.416 5.637 7.29 6.06 10.85
9/25/2021 9:30:00 AM 14.12 57.416 5.522 7.29 5.9 10.87
9/25/2021 9:45:00 AM 14.16 57.488 5.539 7.32 5.56 10.91
9/25/2021 10:00:00 AM 14.2 57.56 5.587 7.33 5.56 10.93
9/25/2021 10:15:00 AM 14.24 57.632 5.623 7.33 5.29 10.95
9/25/2021 10:30:00 AM 14.32 57.776 5.623 7.35 5.4 10.96
9/25/2021 10:45:00 AM 14.44 57.992 5.721 7.37 5.34 10.97
9/25/2021 11:00:00 AM 14.56 58.208 5.641 7.39 5.06 10.98
9/25/2021 11:15:00 AM 14.68 58.424 5.676 7.42 5.19 10.98
9/25/2021 11:30:00 AM 14.81 58.658 5.683 7.45 4.91 10.98
9/25/2021 11:45:00 AM 14.97 58.946 5.667 7.44 5.02 10.98
9/25/2021 12:00:00 PM 15.1 59.18 5.76 7.46 4.97 10.99
9/25/2021 12:15:00 PM 15.2 59.36 5.743 7.51 4.82 10.99
9/25/2021 12:30:00 PM 15.28 59.504 5.767 7.52 4.82 11
9/25/2021 12:45:00 PM 15.4 59.72 5.725 7.53 4.91 10.99
9/25/2021 1:00:00 PM 15.53 59.954 5.746 7.56 4.96 11
9/25/2021 1:15:00 PM 15.66 60.188 5.8 7.6 4.73 10.99
9/25/2021 1:30:00 PM 15.82 60.476 5.74 7.62 4.63 10.98
9/25/2021 1:45:00 PM 15.95 60.71 5.712 7.63 4.67 10.96
9/25/2021 2:00:00 PM 16.03 60.854 5.875 7.65 4.73 10.93
9/25/2021 2:15:00 PM 16.07 60.926 5.773 7.68 4.59 10.94
9/25/2021 2:30:00 PM 16.12 61.016 5.793 7.7 4.6 10.93
9/25/2021 2:45:00 PM 16.17 61.106 5.651 7.73 4.62 10.92
9/25/2021 3:00:00 PM 16.21 61.178 5.799 7.72 4.6 10.88
9/25/2021 3:15:00 PM 16.25 61.25 5.695 7.73 4.46 10.86
9/25/2021 3:30:00 PM 16.32 61.376 5.848 7.72 4.35 10.82
9/25/2021 3:45:00 PM 16.36 61.448 5.741 7.72 4.39 10.79
9/25/2021 4:00:00 PM 16.37 61.466 5.686 7.7 4.43 10.75
9/25/2021 4:15:00 PM 16.4 61.52 5.799 7.67 4.3 10.7
9/25/2021 4:30:00 PM 16.41 61.538 5.752 7.66 4.56 10.66
9/25/2021 4:45:00 PM 16.42 61.556 5.835 7.61 4.62 10.59
9/25/2021 5:00:00 PM 16.44 61.592 5.808 7.59 4.55 10.53
9/25/2021 5:15:00 PM 16.43 61.574 5.838 7.55 4.5 10.44
9/25/2021 5:30:00 PM 16.43 61.574 5.797 7.51 4.45 10.39
9/25/2021 5:45:00 PM 16.45 61.61 5.639 7.5 4.38 10.35
9/25/2021 6:00:00 PM 16.49 61.682 5.854 7.46 4.46 10.31
9/25/2021 6:15:00 PM 16.51 61.718 5.81 7.45 4.39 10.26
9/25/2021 6:30:00 PM 16.53 61.754 5.892 7.44 4.55 10.21
9/25/2021 6:45:00 PM 16.55 61.79 5.855 7.41 4.47 10.17
9/25/2021 7:00:00 PM 16.56 61.808 5.774 7.39 4.55 10.12
9/25/2021 7:15:00 PM 16.57 61.826 5.834 7.36 4.57 10.07
9/25/2021 7:30:00 PM 16.58 61.844 5.848 7.34 4.68 10.04
9/25/2021 7:45:00 PM 16.58 61.844 5.82 7.34 4.79 10.01
9/25/2021 8:00:00 PM 16.58 61.844 5.848 7.32 4.76 10
9/25/2021 8:15:00 PM 16.56 61.808 5.841 7.31 4.8 9.99
9/25/2021 8:30:00 PM 16.52 61.736 5.915 7.31 4.62 9.98
9/25/2021 8:45:00 PM 16.49 61.682 5.882 7.3 4.67 9.98
9/25/2021 9:00:00 PM 16.45 61.61 5.821 7.32 4.63 9.98
9/25/2021 9:15:00 PM 16.41 61.538 5.813 7.3 4.88 9.99
9/25/2021 9:30:00 PM 16.36 61.448 5.808 7.3 4.75 9.99
9/25/2021 9:45:00 PM 16.31 61.358 5.836 7.3 4.78 10
9/25/2021 10:00:00 PM 16.27 61.286 5.821 7.28 5.02 10
9/25/2021 10:15:00 PM 16.22 61.196 5.944 7.28 4.82 10
9/25/2021 10:30:00 PM 16.17 61.106 5.897 7.27 4.5 10.01
9/25/2021 10:45:00 PM 16.12 61.016 5.837 7.25 4.41 10.02
9/25/2021 11:00:00 PM 16.07 60.926 5.923 7.27 4.49 10.02
9/25/2021 11:15:00 PM 16.02 60.836 5.915 7.27 4.64 10.03
9/25/2021 11:30:00 PM 15.98 60.764 5.917 7.25 4.58 10.04
9/25/2021 11:45:00 PM 15.95 60.71 5.875 7.26 4.5 10.06
9/26/2021 12:00:00 AM 15.91 60.638 5.935 7.26 4.34 10.06
9/26/2021 12:15:00 AM 15.87 60.566 5.991 7.26 4.43 10.07
9/26/2021 12:30:00 AM 15.82 60.476 5.829 7.25 4.52 10.08
9/26/2021 12:45:00 AM 15.79 60.422 5.881 7.24 4.5 10.09
9/26/2021 1:00:00 AM 15.74 60.332 5.78 7.25 4.38 10.1
9/26/2021 1:15:00 AM 15.7 60.26 5.899 7.25 4.38 10.11
9/26/2021 1:30:00 AM 15.66 60.188 5.783 7.24 4.36 10.12
9/26/2021 1:45:00 AM 15.63 60.134 5.824 7.25 4.52 10.12
9/26/2021 2:00:00 AM 15.59 60.062 6.035 7.24 4.33 10.13
9/26/2021 2:15:00 AM 15.55 59.99 5.98 7.24 4.61 10.14
9/26/2021 2:30:00 AM 15.52 59.936 6.073 7.24 4.35 10.14
9/26/2021 2:45:00 AM 15.49 59.882 6.078 7.25 4.24 10.15
9/26/2021 3:00:00 AM 15.46 59.828 6.028 7.24 4.37 10.16
9/26/2021 3:15:00 AM 15.44 59.792 5.974 7.24 4.3 10.17
9/26/2021 3:30:00 AM 15.41 59.738 5.954 7.25 4.34 10.18
9/26/2021 3:45:00 AM 15.39 59.702 5.936 7.24 4.42 10.19
9/26/2021 4:00:00 AM 15.36 59.648 5.917 7.27 4.24 10.2
9/26/2021 4:15:00 AM 15.32 59.576 6.125 7.27 4.33 10.2
9/26/2021 4:30:00 AM 15.27 59.486 5.842 7.26 4.32 10.23
9/26/2021 4:45:00 AM 15.22 59.396 6.089 7.25 4.28 10.22
9/26/2021 5:00:00 AM 15.17 59.306 6.036 7.26 4.38 10.24
9/26/2021 5:15:00 AM 15.11 59.198 5.889 7.23 4.32 10.25
9/26/2021 5:30:00 AM 15.05 59.09 6.108 7.26 4.34 10.26
9/26/2021 5:45:00 AM 14.99 58.982 5.916 7.25 4.28 10.28
9/26/2021 6:00:00 AM 14.93 58.874 5.988 7.25 4.28 10.29
9/26/2021 6:15:00 AM 14.86 58.748 0.265 7.26 4.33 10.51
9/26/2021 6:30:00 AM 14.8 58.64 5.947 7.24 4.29 10.32
9/26/2021 6:45:00 AM 14.73 58.514 6.039 7.25 4.11 10.33
9/26/2021 7:00:00 AM 14.67 58.406 5.994 7.26 4.25 10.36
9/26/2021 7:15:00 AM 14.6 58.28 5.91 7.23 4.05 10.39
9/26/2021 7:30:00 AM 14.54 58.172 6.43 7.3 4.05 10.4
9/26/2021 7:45:00 AM 14.49 58.082 0.159 7.34 3.9 10.66
9/26/2021 8:00:00 AM 14.44 57.992 0.227 7.34 3.7 10.7
9/26/2021 8:15:00 AM 14.4 57.92 5.952 7.29 3.71 10.53
9/26/2021 8:30:00 AM 14.38 57.884 6.02 7.31 3.64 10.56
9/26/2021 8:45:00 AM 14.37 57.866 5.957 7.32 3.42 10.61
9/26/2021 9:00:00 AM 14.37 57.866 5.965 7.33 3.54 10.66
9/26/2021 9:15:00 AM 14.38 57.884 6.032 7.34 3.55 10.71
9/26/2021 9:30:00 AM 14.41 57.938 5.978 7.38 3.32 10.76
9/26/2021 9:45:00 AM 14.46 58.028 5.99 7.4 3.31 10.81
9/26/2021 10:00:00 AM 14.5 58.1 6.023 7.42 3.23 10.85
9/26/2021 10:15:00 AM 14.57 58.226 5.926 7.44 3.11 10.89
9/26/2021 10:30:00 AM 14.65 58.37 5.951 7.48 3.2 10.92
9/26/2021 10:45:00 AM 14.76 58.568 5.987 7.51 3.23 10.95
9/26/2021 11:00:00 AM 14.86 58.748 5.934 7.56 3.1 10.98
9/26/2021 11:15:00 AM 14.96 58.928 5.933 7.56 3.12 10.99
9/26/2021 11:30:00 AM 15.02 59.036 5.925 7.55 3.03 10.99
9/26/2021 11:45:00 AM 15.14 59.252 6.05 7.59 3.08 11.02
9/26/2021 12:00:00 PM 15.33 59.594 5.944 7.63 2.97 11.06
9/26/2021 12:15:00 PM 15.46 59.828 5.922 7.67 3.05 11.04
9/26/2021 12:30:00 PM 15.59 60.062 6.08 7.68 2.97 11.03
9/26/2021 12:45:00 PM 15.76 60.368 5.935 7.74 3.04 11.05
9/26/2021 1:00:00 PM 15.89 60.602 5.935 7.77 2.95 11.03
9/26/2021 1:15:00 PM 16.01 60.818 5.94 7.79 3 11.03
9/26/2021 1:30:00 PM 16.08 60.944 5.974 7.81 2.95 10.99
9/26/2021 1:45:00 PM 16.17 61.106 5.891 7.83 2.99 10.97
9/26/2021 2:00:00 PM 16.24 61.232 6.004 7.85 3 10.95
9/26/2021 2:15:00 PM 16.26 61.268 5.873 7.88 2.87 10.97
9/26/2021 2:30:00 PM 16.24 61.232 5.975 7.86 2.95 10.95
9/26/2021 2:45:00 PM 16.22 61.196 5.975 7.88 2.99 10.9
9/26/2021 3:00:00 PM 16.24 61.232 6.098 7.86 2.97 10.85
9/26/2021 3:15:00 PM 16.23 61.214 6.075 7.85 2.94 10.84
9/26/2021 3:30:00 PM 16.25 61.25 6.031 7.86 2.96 10.88
9/26/2021 3:45:00 PM 16.29 61.322 5.992 7.9 2.92 10.89
9/26/2021 4:00:00 PM 16.27 61.286 5.986 7.89 2.9 10.86
9/26/2021 4:15:00 PM 16.25 61.25 6.092 7.87 2.98 10.8
9/26/2021 4:30:00 PM 16.21 61.178 6.023 7.83 3.08 10.75
9/26/2021 4:45:00 PM 16.18 61.124 6.063 7.81 2.9 10.7
9/26/2021 5:00:00 PM 16.15 61.07 6.042 7.75 3.02 10.65
9/26/2021 5:15:00 PM 16.14 61.052 6.012 7.72 2.99 10.58
9/26/2021 5:30:00 PM 16.1 60.98 6 7.66 3.2 10.52
9/26/2021 5:45:00 PM 16.07 60.926 6.114 7.62 3.03 10.46
9/26/2021 6:00:00 PM 16.05 60.89 0.257 7.58 2.95 10.59
9/26/2021 6:15:00 PM 16.02 60.836 6.125 7.55 3.01 10.32
9/26/2021 6:30:00 PM 15.99 60.782 6.12 7.48 3.04 10.27
9/26/2021 6:45:00 PM 15.97 60.746 6.074 7.47 3.03 10.23
9/26/2021 7:00:00 PM 15.96 60.728 6.026 7.44 3.09 10.19
9/26/2021 7:15:00 PM 15.96 60.728 6.203 7.41 3.1 10.14
9/26/2021 7:30:00 PM 15.96 60.728 6.445 7.41 3.19 10.11
9/26/2021 7:45:00 PM 15.95 60.71 6.144 7.38 3.21 10.11
9/26/2021 8:00:00 PM 15.94 60.692 6.095 7.37 3.3 10.09
9/26/2021 8:15:00 PM 15.92 60.656 6.142 7.37 3.33 10.08
9/26/2021 8:30:00 PM 15.89 60.602 6.072 7.35 3.35 10.08
9/26/2021 8:45:00 PM 15.86 60.548 6.112 7.34 3.41 10.09
9/26/2021 9:00:00 PM 15.83 60.494 0.048 7.34 3.24 10.13
9/26/2021 9:15:00 PM 15.79 60.422 6.074 7.31 3.35 10.09
9/26/2021 9:30:00 PM 15.73 60.314 6.094 7.34 3.39 10.1
9/26/2021 9:45:00 PM 15.68 60.224 6.162 7.33 3.41 10.11
9/26/2021 10:00:00 PM 15.62 60.116 6.035 7.32 3.62 10.12
9/26/2021 10:15:00 PM 15.55 59.99 6.068 7.32 3.45 10.14
9/26/2021 10:30:00 PM 15.49 59.882 0.138 7.38 3.37 10.35
9/26/2021 10:45:00 PM 15.44 59.792 0.065 7.3 3.4 10.36
9/26/2021 11:00:00 PM 15.39 59.702 6.299 7.3 3.42 10.16
9/26/2021 11:15:00 PM 15.34 59.612 0.125 7.31 3.45 10.39
9/26/2021 11:30:00 PM 15.3 59.54 6.19 7.3 3.36 10.19
9/26/2021 11:45:00 PM 15.26 59.468 6.136 7.3 3.32 10.2
9/27/2021 12:00:00 AM 15.23 59.414 6.105 7.3 3.36 10.21
9/27/2021 12:15:00 AM 15.18 59.324 6.08 7.3 3.34 10.22
9/27/2021 12:30:00 AM 15.14 59.252 6.129 7.3 3.32 10.23
9/27/2021 12:45:00 AM 15.11 59.198 6.127 7.3 3.26 10.24
9/27/2021 1:00:00 AM 15.08 59.144 6.149 7.29 3.45 10.25
9/27/2021 1:15:00 AM 15.05 59.09 6.202 7.28 3.59 10.25
9/27/2021 1:30:00 AM 15.02 59.036 6.19 7.29 3.48 10.26
9/27/2021 1:45:00 AM 14.99 58.982 0.139 7.36 3.53 10.48
9/27/2021 2:00:00 AM 14.97 58.946 6.422 7.29 3.47 10.26
9/27/2021 2:15:00 AM 14.95 58.91 0.298 7.33 3.35 10.48
9/27/2021 2:30:00 AM 14.92 58.856 6.443 7.28 3.45 10.28
9/27/2021 2:45:00 AM 14.89 58.802 6.204 7.28 3.35 10.29
9/27/2021 3:00:00 AM 14.86 58.748 6.162 7.27 3.28 10.3
9/27/2021 3:15:00 AM 14.83 58.694 6.246 7.28 3.27 10.3
9/27/2021 3:30:00 AM 14.81 58.658 6.189 7.26 3.44 10.31
9/27/2021 3:45:00 AM 14.78 58.604 6.227 7.28 3.4 10.31
9/27/2021 4:00:00 AM 14.75 58.55 6.326 7.27 3.33 10.31
9/27/2021 4:15:00 AM 14.72 58.496 6.256 7.26 3.31 10.33
9/27/2021 4:30:00 AM 14.69 58.442 6.128 7.28 3.36 10.34
9/27/2021 4:45:00 AM 14.67 58.406 6.312 7.28 3.4 10.33
9/27/2021 5:00:00 AM 14.64 58.352 6.168 7.28 3.34 10.36
9/27/2021 5:15:00 AM 14.62 58.316 0.27 7.28 3.28 10.57
9/27/2021 5:30:00 AM 14.59 58.262 6.227 7.28 3.37 10.36
9/27/2021 5:45:00 AM 14.57 58.226 6.175 7.27 3.39 10.38
9/27/2021 6:00:00 AM 14.55 58.19 6.123 7.28 3.38 10.38
9/27/2021 6:15:00 AM 14.53 58.154 6.133 7.28 3.4 10.39
9/27/2021 6:30:00 AM 14.5 58.1 6.208 7.26 3.34 10.4
9/27/2021 6:45:00 AM 14.48 58.064 6.22 7.28 3.36 10.4
9/27/2021 7:00:00 AM 14.46 58.028 6.149 7.28 3.38 10.41
9/27/2021 7:15:00 AM 14.44 57.992 6.138 7.27 3.19 10.43
9/27/2021 7:30:00 AM 14.43 57.974 6.167 7.3 3.19 10.48
9/27/2021 7:45:00 AM 14.43 57.974 6.138 7.32 3.21 10.54
9/27/2021 8:00:00 AM 14.43 57.974 6.202 7.34 3.13 10.6
9/27/2021 8:15:00 AM 14.44 57.992 6.196 7.37 3.04 10.65
9/27/2021 8:30:00 AM 14.44 57.992 6.268 7.36 3 10.69
9/27/2021 8:45:00 AM 14.44 57.992 6.454 7.37 2.94 10.7
9/27/2021 9:00:00 AM 14.44 57.992 6.331 7.4 2.85 10.76
9/27/2021 9:15:00 AM 14.47 58.046 6.239 7.44 2.78 10.84
9/27/2021 9:30:00 AM 14.51 58.118 6.221 7.48 2.94 10.91
9/27/2021 9:45:00 AM 14.56 58.208 6.721 7.52 3.04 10.93
9/27/2021 10:00:00 AM 14.6 58.28 6.29 7.53 2.94 10.99
9/27/2021 10:15:00 AM 14.72 58.496 6.393 7.59 2.79 11.08
9/27/2021 10:30:00 AM 14.85 58.73 6.272 7.62 6.69 11.17
9/27/2021 10:45:00 AM 14.95 58.91 6.368 7.7 7.22 11.2
9/27/2021 11:00:00 AM 15.06 59.108 6.366 7.77 5.01 11.26
9/27/2021 11:15:00 AM 15.16 59.288 6.432 7.83 4.61 11.27
9/27/2021 11:30:00 AM 15.22 59.396 6.49 7.88 4.51 11.28
9/27/2021 11:45:00 AM 15.37 59.666 6.388 7.94 4.24 11.32
9/27/2021 12:00:00 PM 15.5 59.9 7.153 8.01 4.45 11.28
9/27/2021 12:15:00 PM 15.63 60.134 6.463 8.06 4.15 11.3
9/27/2021 12:30:00 PM 15.78 60.404 6.384 8.11 4.48 11.3
9/27/2021 12:45:00 PM 15.93 60.674 6.51 8.16 4.18 11.27
9/27/2021 1:00:00 PM 16.15 61.07 6.416 8.22 4.24 11.27
9/27/2021 1:15:00 PM 16.34 61.412 6.404 8.29 4.48 11.23
9/27/2021 1:30:00 PM 16.51 61.718 6.557 8.31 4.29 11.15
9/27/2021 1:45:00 PM 16.65 61.97 6.482 8.33 4.68 11.09
9/27/2021 2:00:00 PM 16.76 62.168 6.503 8.34 4.59 11.05
9/27/2021 2:15:00 PM 16.88 62.384 6.421 8.37 4.48 11.02
9/27/2021 2:30:00 PM 16.98 62.564 6.425 8.39 4.38 11
9/27/2021 2:45:00 PM 17.06 62.708 6.418 8.4 4.18 10.95
9/27/2021 3:00:00 PM 17.13 62.834 6.421 8.4 4.46 10.92
9/27/2021 3:15:00 PM 17.18 62.924 6.453 8.42 4.24 10.87
9/27/2021 3:30:00 PM 17.23 63.014 6.397 8.41 4.4 10.84
9/27/2021 3:45:00 PM 17.25 63.05 6.496 8.4 4.47 10.8
9/27/2021 4:00:00 PM 17.24 63.032 6.271 8.35 4.22 10.75
9/27/2021 4:15:00 PM 17.22 62.996 6.42 8.33 4.31 10.72
9/27/2021 4:30:00 PM 17.19 62.942 6.49 8.26 4.06 10.67
9/27/2021 4:45:00 PM 17.15 62.87 6.459 8.24 4.41 10.63
9/27/2021 5:00:00 PM 17.13 62.834 6.422 8.19 4.01 10.6
9/27/2021 5:15:00 PM 17.1 62.78 6.441 8.15 4.42 10.54
9/27/2021 5:30:00 PM 17.06 62.708 6.464 8.06 4.29 10.47
9/27/2021 5:45:00 PM 17.03 62.654 6.482 8 4.31 10.4
9/27/2021 6:00:00 PM 17 62.6 6.332 7.9 4.29 10.34
9/27/2021 6:15:00 PM 16.97 62.546 6.429 7.79 4.4 10.26
9/27/2021 6:30:00 PM 16.95 62.51 6.381 7.71 4.13 10.18
9/27/2021 6:45:00 PM 16.94 62.492 6.49 7.64 4.25 10.09
9/27/2021 7:00:00 PM 16.93 62.474 6.436 7.56 4.39 10.01
9/27/2021 7:15:00 PM 16.92 62.456 6.408 7.53 4.69 9.95
9/27/2021 7:30:00 PM 16.92 62.456 6.4 7.49 4.57 9.91
9/27/2021 7:45:00 PM 16.92 62.456 6.57 7.46 4.52 9.87
9/27/2021 8:00:00 PM 16.91 62.438 6.489 7.43 4.61 9.85
9/27/2021 8:15:00 PM 16.91 62.438 6.481 7.42 4.4 9.83
9/27/2021 8:30:00 PM 16.89 62.402 6.551 7.4 4.33 9.81
9/27/2021 8:45:00 PM 16.88 62.384 6.506 7.38 4.67 9.81
9/27/2021 9:00:00 PM 16.85 62.33 6.687 7.36 4.49 9.79
9/27/2021 9:15:00 PM 16.83 62.294 6.482 7.37 4.81 9.81
9/27/2021 9:30:00 PM 16.81 62.258 6.519 7.37 4.44 9.81
9/27/2021 9:45:00 PM 16.78 62.204 6.531 7.36 4.64 9.8
9/27/2021 10:00:00 PM 16.76 62.168 6.556 7.34 4.5 9.8
9/27/2021 10:15:00 PM 16.73 62.114 6.651 7.35 4.63 9.87
9/27/2021 10:30:00 PM 16.71 62.078 6.632 7.32 4.45 9.81
9/27/2021 10:45:00 PM 16.68 62.024 6.52 7.33 4.31 9.81
9/27/2021 11:00:00 PM 16.64 61.952 6.601 7.32 4.59 9.82
9/27/2021 11:15:00 PM 16.61 61.898 6.58 7.29 4.61 9.83
9/27/2021 11:30:00 PM 16.57 61.826 6.638 7.32 4.37 9.83
9/27/2021 11:45:00 PM 16.53 61.754 6.537 7.29 4.55 9.84
9/28/2021 12:00:00 AM 16.5 61.7 0.14 7.37 4.56 10.06
9/28/2021 12:15:00 AM 16.47 61.646 6.724 7.31 4.27 9.86
9/28/2021 12:30:00 AM 16.44 61.592 6.727 7.31 4.44 9.86
9/28/2021 12:45:00 AM 16.41 61.538 6.696 7.31 4.78 9.87
9/28/2021 1:00:00 AM 16.38 61.484 0.211 7.37 4.59 10.08
9/28/2021 1:15:00 AM 16.35 61.43 6.553 7.28 4.63 9.88
9/28/2021 1:30:00 AM 16.31 61.358 6.509 7.29 4.57 9.89
9/28/2021 1:45:00 AM 16.26 61.268 6.477 7.31 4.58 9.9
9/28/2021 2:00:00 AM 16.22 61.196 6.458 7.29 4.46 9.91
9/28/2021 2:15:00 AM 16.18 61.124 6.539 7.29 4.56 9.91
9/28/2021 2:30:00 AM 16.14 61.052 6.438 7.3 4.44 9.93
9/28/2021 2:45:00 AM 16.12 61.016 6.449 7.29 4.28 9.94
9/28/2021 3:00:00 AM 16.09 60.962 6.525 7.28 4.69 9.94
9/28/2021 3:15:00 AM 16.07 60.926 6.522 7.29 4.1 9.94
9/28/2021 3:30:00 AM 16.04 60.872 6.597 7.27 4.31 9.95
9/28/2021 3:45:00 AM 16.01 60.818 6.564 7.27 4.74 9.95
9/28/2021 4:00:00 AM 15.98 60.764 6.615 7.29 4.56 9.96
9/28/2021 4:15:00 AM 15.96 60.728 6.603 7.3 4.3 9.97
9/28/2021 4:30:00 AM 15.94 60.692 6.539 7.29 4.71 9.97
9/28/2021 4:45:00 AM 15.92 60.656 6.551 7.29 4.5 9.98
9/28/2021 5:00:00 AM 15.9 60.62 6.605 7.3 4.27 9.98
9/28/2021 5:15:00 AM 15.87 60.566 6.569 7.29 4.61 9.99
9/28/2021 5:30:00 AM 15.85 60.53 6.532 7.27 4.54 9.99
9/28/2021 5:45:00 AM 15.82 60.476 6.625 7.28 4.41 9.99
9/28/2021 6:00:00 AM 15.79 60.422 6.464 7.3 4.32 10.01
9/28/2021 6:15:00 AM 15.76 60.368 6.602 7.28 4.78 10.01
9/28/2021 6:30:00 AM 15.72 60.296 6.578 7.26 4.33 10.02
9/28/2021 6:45:00 AM 15.69 60.242 6.644 7.26 4.32 10.02
9/28/2021 7:00:00 AM 15.65 60.17 6.589 7.29 4.62 10.04
9/28/2021 7:15:00 AM 15.63 60.134 6.627 7.29 4.68 10.06
9/28/2021 7:30:00 AM 15.61 60.098 6.544 7.29 4.22 10.1
9/28/2021 7:45:00 AM 15.59 60.062 6.534 7.3 3.94 10.16
9/28/2021 8:00:00 AM 15.58 60.044 6.561 7.32 3.95 10.22
9/28/2021 8:15:00 AM 15.58 60.044 6.73 7.32 4.11 10.26
9/28/2021 8:30:00 AM 15.59 60.062 6.613 7.35 3.94 10.32
9/28/2021 8:45:00 AM 15.59 60.062 6.489 7.37 4.18 10.39
9/28/2021 9:00:00 AM 15.6 60.08 6.725 7.4 3.94 10.4
9/28/2021 9:15:00 AM 15.6 60.08 6.574 7.41 4.23 10.42
9/28/2021 9:30:00 AM 15.6 60.08 6.642 7.4 4.28 10.35
9/28/2021 9:45:00 AM 15.59 60.062 6.679 7.37 4.41 10.32
9/28/2021 10:00:00 AM 15.58 60.044 6.751 7.38 4.26 10.31
9/28/2021 10:15:00 AM 15.57 60.026 6.607 7.35 4.07 10.29
9/28/2021 10:30:00 AM 15.56 60.008 6.458 7.37 4.6 10.28
9/28/2021 10:45:00 AM 15.56 60.008 6.603 7.39 4.34 10.27
9/28/2021 11:00:00 AM 15.56 60.008 6.512 7.38 4.56 10.29
9/28/2021 11:15:00 AM 15.58 60.044 6.538 7.4 5.06 10.4
9/28/2021 11:30:00 AM 15.6 60.08 6.514 7.44 5.06 10.43
9/28/2021 11:45:00 AM 15.63 60.134 6.399 7.46 5.04 10.51
9/28/2021 12:00:00 PM 15.65 60.17 6.329 7.47 5.48 10.57
9/28/2021 12:15:00 PM 15.71 60.278 6.546 7.54 5.31 10.71
9/28/2021 12:30:00 PM 15.76 60.368 6.491 7.58 5.41 10.72
9/28/2021 12:45:00 PM 15.77 60.386 6.392 7.58 5.62 10.69
9/28/2021 1:00:00 PM 15.77 60.386 6.496 7.57 6.02 10.62
9/28/2021 1:15:00 PM 15.75 60.35 6.6 7.55 6.61 10.56
9/28/2021 1:30:00 PM 15.71 60.278 6.478 7.5 8.24 10.52
9/28/2021 1:45:00 PM 15.69 60.242 6.498 7.51 10.39 10.51
9/28/2021 2:00:00 PM 15.69 60.242 6.529 7.49 11.17 10.49
9/28/2021 2:15:00 PM 15.7 60.26 0.14 7.52 11.71 10.69
9/28/2021 2:30:00 PM 15.7 60.26 6.379 7.46 14.28 10.43
9/28/2021 2:45:00 PM 15.71 60.278 6.324 7.46 11.1 10.45
9/28/2021 3:00:00 PM 15.73 60.314 6.435 7.48 9.42 10.49
9/28/2021 3:15:00 PM 15.77 60.386 6.236 7.49 8.87 10.56
9/28/2021 3:30:00 PM 15.81 60.458 0.136 7.59 8.7 10.83
9/28/2021 3:45:00 PM 15.84 60.512 7.008 7.59 8.95 10.56
9/28/2021 4:00:00 PM 15.86 60.548 6.324 7.54 10.75 10.52
9/28/2021 4:15:00 PM 15.89 60.602 6.365 7.52 12.45 10.48
9/28/2021 4:30:00 PM 15.91 60.638 6.221 7.49 13.39 10.42
9/28/2021 4:45:00 PM 15.93 60.674 6.24 7.47 14.95 10.38
9/28/2021 5:00:00 PM 15.95 60.71 6.11 7.46 12.65 10.37
9/28/2021 5:15:00 PM 15.96 60.728 6.043 7.45 13.93 10.37
9/28/2021 5:30:00 PM 15.97 60.746 6.004 7.47 14.16 10.39
9/28/2021 5:45:00 PM 15.97 60.746 5.977 7.46 10.77 10.37
9/28/2021 6:00:00 PM 15.94 60.692 6.003 7.43 12.09 10.33
9/28/2021 6:15:00 PM 15.91 60.638 6.099 7.43 11.56 10.3
9/28/2021 6:30:00 PM 15.88 60.584 5.932 7.42 11.33 10.28
9/28/2021 6:45:00 PM 15.85 60.53 5.951 7.4 11.81 10.27
9/28/2021 7:00:00 PM 15.82 60.476 5.904 7.39 11.97 10.26
9/28/2021 7:15:00 PM 15.78 60.404 6.062 7.37 11.37 10.24
9/28/2021 7:30:00 PM 15.74 60.332 6.013 7.4 11.32 10.24
9/28/2021 7:45:00 PM 15.7 60.26 0.116 7.4 11.65 10.44
9/28/2021 8:00:00 PM 15.66 60.188 5.977 7.38 11.75 10.23
9/28/2021 8:15:00 PM 15.62 60.116 6.114 7.37 12.66 10.22
9/28/2021 8:30:00 PM 15.59 60.062 6.167 7.35 12.6 10.23
9/28/2021 8:45:00 PM 15.55 59.99 6.604 7.36 13.07 10.21
9/28/2021 9:00:00 PM 15.51 59.918 6.483 7.35 12.83 10.21
9/28/2021 9:15:00 PM 15.47 59.846 6.499 7.35 12.24 10.22
9/28/2021 9:30:00 PM 15.42 59.756 6.352 7.35 13.08 10.23
9/28/2021 9:45:00 PM 15.39 59.702 6.373 7.35 12.1 10.24
9/28/2021 10:00:00 PM 15.36 59.648 6.392 7.35 12.62 10.25
9/28/2021 10:15:00 PM 15.33 59.594 0.137 7.4 12.84 10.47
9/28/2021 10:30:00 PM 15.29 59.522 0.032 7.34 12.5 10.48
9/28/2021 10:45:00 PM 15.25 59.45 6.47 7.33 12.64 10.27
9/28/2021 11:00:00 PM 15.2 59.36 6.4 7.32 11.68 10.29
9/28/2021 11:15:00 PM 15.16 59.288 6.429 7.34 11.1 10.29
9/28/2021 11:30:00 PM 15.12 59.216 6.407 7.33 10.87 10.31
9/28/2021 11:45:00 PM 15.08 59.144 6.289 7.33 10.68 10.31
9/29/2021 12:00:00 AM 15.05 59.09 6.36 7.32 10.69 10.32
9/29/2021 12:15:00 AM 15.01 59.018 6.408 7.32 10.14 10.33
9/29/2021 12:30:00 AM 14.96 58.928 6.378 7.34 9.9 10.34
9/29/2021 12:45:00 AM 14.92 58.856 6.388 7.33 9.8 10.35
9/29/2021 1:00:00 AM 14.88 58.784 6.368 7.33 9.33 10.36
9/29/2021 1:15:00 AM 14.84 58.712 6.31 7.33 8.96 10.37
9/29/2021 1:30:00 AM 14.79 58.622 6.321 7.33 8.89 10.38
9/29/2021 1:45:00 AM 14.73 58.514 6.235 7.34 9.03 10.4
9/29/2021 2:00:00 AM 14.67 58.406 6.248 7.34 8.63 10.41
9/29/2021 2:15:00 AM 14.61 58.298 6.288 7.32 8.86 10.42
9/29/2021 2:30:00 AM 14.55 58.19 6.116 7.32 8.62 10.44
9/29/2021 2:45:00 AM 14.49 58.082 6.299 7.31 8.78 10.44
9/29/2021 3:00:00 AM 14.42 57.956 6.206 7.33 8.45 10.46
9/29/2021 3:15:00 AM 14.35 57.83 0.126 7.36 8.39 10.7
9/29/2021 3:30:00 AM 14.29 57.722 0.135 7.37 8.37 10.7
9/29/2021 3:45:00 AM 14.22 57.596 7.032 7.36 8.56 10.71
9/29/2021 4:00:00 AM 14.16 57.488 0.134 7.34 8.32 10.73
9/29/2021 4:15:00 AM 14.1 57.38 0.135 7.35 8.9 10.75
9/29/2021 4:30:00 AM 14.03 57.254 6.618 7.29 8.53 10.53
9/29/2021 4:45:00 AM 13.97 57.146 0.263 7.29 8.22 10.78
9/29/2021 5:00:00 AM 13.91 57.038 0.136 7.33 9.06 10.79
9/29/2021 5:15:00 AM 13.85 56.93 0.136 7.31 8.89 10.81
9/29/2021 5:30:00 AM 13.8 56.84 0.136 7.34 8.73 10.82
9/29/2021 5:45:00 AM 13.75 56.75 0.136 7.34 8.94 10.84
9/29/2021 6:00:00 AM 13.7 56.66 0.136 7.33 9.04 10.85
9/29/2021 6:15:00 AM 13.65 56.57 6.903 7.29 8.7 10.61
9/29/2021 6:30:00 AM 13.6 56.48 6.777 7.28 8.69 10.63
9/29/2021 6:45:00 AM 13.55 56.39 0.139 7.32 8.55 10.88
9/29/2021 7:00:00 AM 13.5 56.3 6.702 7.29 8.8 10.66
9/29/2021 7:15:00 AM 13.45 56.21 6.583 7.28 8.44 10.68
9/29/2021 7:30:00 AM 13.4 56.12 0.154 7.32 8.5 10.95
9/29/2021 7:45:00 AM 13.36 56.048 6.554 7.3 8.17 10.75
9/29/2021 8:00:00 AM 13.33 55.994 6.72 7.32 7.74 10.78
9/29/2021 8:15:00 AM 13.3 55.94 6.812 7.34 7.37 10.84
9/29/2021 8:30:00 AM 13.28 55.904 0.139 7.38 7.09 11.14
9/29/2021 8:45:00 AM 13.26 55.868 6.561 7.34 7.27 10.93
9/29/2021 9:00:00 AM 13.28 55.904 0.139 7.42 6.86 11.24
9/29/2021 9:15:00 AM 13.29 55.922 0.138 7.43 6.56 11.29
9/29/2021 9:30:00 AM 13.31 55.958 0.183 7.44 6.53 11.32
9/29/2021 9:45:00 AM 13.35 56.03 6.527 7.43 6.25 11.12
9/29/2021 10:00:00 AM 13.4 56.12 0.138 7.49 5.96 11.4
9/29/2021 10:15:00 AM 13.45 56.21 6.761 7.49 6.3 11.18
9/29/2021 10:30:00 AM 13.53 56.354 6.754 7.52 5.81 11.23
9/29/2021 10:45:00 AM 13.63 56.534 0.366 7.58 5.88 11.53
9/29/2021 11:00:00 AM 13.67 56.606 6.576 7.58 6.08 11.29
9/29/2021 11:15:00 AM 13.75 56.75 0.368 7.6 5.63 11.56
9/29/2021 11:30:00 AM 13.81 56.858 6.533 7.63 5.52 11.35
9/29/2021 11:45:00 AM 13.88 56.984 6.45 7.67 5.92 11.35
9/29/2021 12:00:00 PM 13.98 57.164 0.136 7.74 5.36 11.64
9/29/2021 12:15:00 PM 14.07 57.326 0.136 7.77 5.55 11.64
9/29/2021 12:30:00 PM 14.24 57.632 6.434 7.79 5.34 11.42
9/29/2021 12:45:00 PM 14.33 57.794 6.454 7.81 5.66 11.41
9/29/2021 1:00:00 PM 14.36 57.848 6.473 7.81 5.52 11.38
9/29/2021 1:15:00 PM 14.46 58.028 0.136 7.88 5.08 11.66
9/29/2021 1:30:00 PM 14.54 58.172 0.135 7.88 5.3 11.63
9/29/2021 1:45:00 PM 14.69 58.442 0.135 7.94 5.08 11.67
9/29/2021 2:00:00 PM 14.87 58.766 0.135 8 5.15 11.68
9/29/2021 2:15:00 PM 15.06 59.108 0.135 8.1 4.94 11.66
9/29/2021 2:30:00 PM 15.17 59.306 0.135 8.12 5.27 11.64
9/29/2021 2:45:00 PM 15.24 59.432 0.135 8.14 5.45 11.62
9/29/2021 3:00:00 PM 15.23 59.414 0.135 8.13 5.23 11.56
9/29/2021 3:15:00 PM 15.15 59.27 0.135 8.1 5.53 11.48
9/29/2021 3:30:00 PM 15.03 59.054 0.135 8.05 5.09 11.4
9/29/2021 3:45:00 PM 14.96 58.928 0.136 8 5 11.42
9/29/2021 4:00:00 PM 14.91 58.838 0.136 7.99 5.12 11.4
9/29/2021 4:15:00 PM 14.84 58.712 0.136 7.94 4.98 11.35
9/29/2021 4:30:00 PM 14.79 58.622 0.136 7.9 5.11 11.3
9/29/2021 4:45:00 PM 14.76 58.568 0.136 7.84 5.07 11.25
9/29/2021 5:00:00 PM 14.74 58.532 6.908 7.77 4.93 10.93
9/29/2021 5:15:00 PM 14.73 58.514 6.843 7.72 5.26 10.9
9/29/2021 5:30:00 PM 14.74 58.532 6.875 7.7 5.26 10.85
9/29/2021 5:45:00 PM 14.76 58.568 6.811 7.66 5.33 10.81
9/29/2021 6:00:00 PM 14.77 58.586 6.74 7.62 4.91 10.77
9/29/2021 6:15:00 PM 14.78 58.604 6.775 7.59 4.83 10.71
9/29/2021 6:30:00 PM 14.78 58.604 0.139 7.61 4.89 10.89
9/29/2021 6:45:00 PM 14.78 58.604 6.735 7.54 4.89 10.59
9/29/2021 7:00:00 PM 14.77 58.586 6.89 7.52 4.82 10.53
9/29/2021 7:15:00 PM 14.77 58.586 6.769 7.48 5.11 10.49
9/29/2021 7:30:00 PM 14.77 58.586 6.769 7.47 5.06 10.46
9/29/2021 7:45:00 PM 14.77 58.586 6.766 7.44 5.4 10.44
9/29/2021 8:00:00 PM 14.77 58.586 6.716 7.42 5.26 10.42
9/29/2021 8:15:00 PM 14.77 58.586 6.73 7.42 4.79 10.4
9/29/2021 8:30:00 PM 14.77 58.586 6.827 7.41 5.39 10.39
9/29/2021 8:45:00 PM 14.76 58.568 6.719 7.39 5.12 10.38
9/29/2021 9:00:00 PM 14.76 58.568 6.702 7.39 5.11 10.38
9/29/2021 9:15:00 PM 14.75 58.55 6.754 7.38 5.48 10.38
9/29/2021 9:30:00 PM 14.74 58.532 6.739 7.38 5.19 10.37
9/29/2021 9:45:00 PM 14.74 58.532 6.681 7.38 5.12 10.37
9/29/2021 10:00:00 PM 14.73 58.514 6.905 7.35 5.45 10.37
9/29/2021 10:15:00 PM 14.72 58.496 6.668 7.36 5.18 10.36
9/29/2021 10:30:00 PM 14.71 58.478 6.664 7.37 4.94 10.37
9/29/2021 10:45:00 PM 14.7 58.46 7.474 7.38 5.21 10.59
9/29/2021 11:00:00 PM 14.69 58.442 6.703 7.35 5.62 10.36
9/29/2021 11:15:00 PM 14.67 58.406 0.308 7.38 5.17 10.6
9/29/2021 11:30:00 PM 14.66 58.388 6.764 7.34 4.98 10.37
9/29/2021 11:45:00 PM 14.64 58.352 6.742 7.33 5.37 10.38
9/30/2021 12:00:00 AM 14.62 58.316 6.771 7.33 5.46 10.38
9/30/2021 12:15:00 AM 14.61 58.298 6.75 7.34 4.97 10.38
9/30/2021 12:30:00 AM 14.59 58.262 6.769 7.32 5.28 10.38
9/30/2021 12:45:00 AM 14.57 58.226 6.768 7.33 5.06 10.39
9/30/2021 1:00:00 AM 14.56 58.208 6.704 7.32 4.93 10.39
9/30/2021 1:15:00 AM 14.54 58.172 6.726 7.32 4.9 10.39
9/30/2021 1:30:00 AM 14.53 58.154 6.735 7.32 4.87 10.39
9/30/2021 1:45:00 AM 14.51 58.118 6.773 7.33 4.85 10.4
9/30/2021 2:00:00 AM 14.5 58.1 6.752 7.32 5.03 10.41
9/30/2021 2:15:00 AM 14.47 58.046 6.696 7.31 4.92 10.4
9/30/2021 2:30:00 AM 14.45 58.01 6.744 7.34 4.96 10.41
9/30/2021 2:45:00 AM 14.43 57.974 6.7 7.34 4.93 10.43
9/30/2021 3:00:00 AM 14.4 57.92 6.749 7.33 4.96 10.43
9/30/2021 3:15:00 AM 14.37 57.866 6.647 7.34 5.22 10.44
9/30/2021 3:30:00 AM 14.33 57.794 6.754 7.32 5.3 10.44
9/30/2021 3:45:00 AM 14.29 57.722 6.761 7.32 5.45 10.46
9/30/2021 4:00:00 AM 14.25 57.65 6.752 7.32 5.04 10.46
9/30/2021 4:15:00 AM 14.23 57.614 6.721 7.31 4.91 10.47
9/30/2021 4:30:00 AM 14.2 57.56 6.763 7.3 4.89 10.48
9/30/2021 4:45:00 AM 14.17 57.506 6.697 7.3 5.23 10.49
9/30/2021 5:00:00 AM 14.15 57.47 6.713 7.3 5.08 10.5
9/30/2021 5:15:00 AM 14.12 57.416 6.721 7.31 5 10.5
9/30/2021 5:30:00 AM 14.1 57.38 6.739 7.31 5.06 10.51
9/30/2021 5:45:00 AM 14.08 57.344 6.726 7.3 4.77 10.51
9/30/2021 6:00:00 AM 14.05 57.29 6.728 7.31 5.1 10.53
9/30/2021 6:15:00 AM 14.02 57.236 6.636 7.3 4.9 10.54
9/30/2021 6:30:00 AM 14 57.2 6.668 7.32 4.81 10.54
9/30/2021 6:45:00 AM 13.97 57.146 6.722 7.3 5.23 10.55
9/30/2021 7:00:00 AM 13.93 57.074 6.805 7.29 5.07 10.56
9/30/2021 7:15:00 AM 13.88 56.984 6.769 7.3 4.9 10.59
9/30/2021 7:30:00 AM 13.84 56.912 6.757 7.3 5 10.63
9/30/2021 7:45:00 AM 13.8 56.84 6.744 7.31 4.9 10.67
9/30/2021 8:00:00 AM 13.77 56.786 6.771 7.33 4.89 10.72
9/30/2021 8:15:00 AM 13.74 56.732 6.724 7.34 4.53 10.76
9/30/2021 8:30:00 AM 13.7 56.66 6.82 7.38 4.89 10.8
9/30/2021 8:45:00 AM 13.69 56.642 6.785 7.4 4.77 10.92
9/30/2021 9:00:00 AM 13.68 56.624 6.721 7.44 4.68 10.99
9/30/2021 9:15:00 AM 13.71 56.678 6.72 7.48 4.66 11.11
9/30/2021 9:30:00 AM 13.73 56.714 6.674 7.52 4.11 11.19
9/30/2021 9:45:00 AM